Provisional Data: Bowman Creek near Noxen, PA


Please select a monitoring station.
Please select start date.
Please select start date.

Toggle Unit: C/F Toggle Unit: C/F
Sample Time Temperature (C) Temperature (F) Specific Conductivity (mS/cm) pH   Turbidity (NTU+) DO (mg/L)
3/7/2021 12:00:00 AM 0.92 33.656 0.048 6.91 21.17 14.01
3/7/2021 12:15:00 AM 0.9 33.62 0.048 6.91 20.74 14.02
3/7/2021 12:30:00 AM 0.88 33.584 0.048 6.91 20.14 14.04
3/7/2021 12:45:00 AM 0.87 33.566 0.049 6.91 20.35 14.04
3/7/2021 1:00:00 AM 0.86 33.548 0.048 6.91 20.24 14.04
3/7/2021 1:15:00 AM 0.84 33.512 0.048 6.91 21.13 14.06
3/7/2021 1:30:00 AM 0.82 33.476 0.048 6.91 20.56 14.06
3/7/2021 1:45:00 AM 0.81 33.458 0.048 6.91 20.34 14.07
3/7/2021 2:00:00 AM 0.78 33.404 0.048 6.91 19.92 14.08
3/7/2021 2:15:00 AM 0.76 33.368 0.046 6.88 20.54 14.09
3/7/2021 2:30:00 AM 0.73 33.314 0.048 6.9 19.64 14.1
3/7/2021 2:45:00 AM 0.7 33.26 0.048 6.9 20.37 14.11
3/7/2021 3:00:00 AM 0.68 33.224 0.048 6.91 20.38 14.12
3/7/2021 3:15:00 AM 0.66 33.188 0.048 6.91 20.18 14.13
3/7/2021 3:30:00 AM 0.64 33.152 0.048 6.91 20.5 14.14
3/7/2021 3:45:00 AM 0.62 33.116 0.046 6.87 20.11 14.15
3/7/2021 4:00:00 AM 0.59 33.062 0.048 6.88 20.42 14.16
3/7/2021 4:15:00 AM 0.56 33.008 0.048 6.89 20.19 14.17
3/7/2021 4:30:00 AM 0.53 32.954 0.048 6.91 20.66 14.18
3/7/2021 4:45:00 AM 0.5 32.9 0.048 6.9 19.76 14.2
3/7/2021 5:00:00 AM 0.47 32.846 0.048 6.9 19.88 14.2
3/7/2021 5:15:00 AM 0.43 32.774 0.048 6.9 19.83 14.23
3/7/2021 5:30:00 AM 0.39 32.702 0.048 6.9 20.47 14.24
3/7/2021 5:45:00 AM 0.35 32.63 0.048 6.88 20.49 14.25
3/7/2021 6:00:00 AM 0.3 32.54 0.046 6.89 20.99 14.27
3/7/2021 6:15:00 AM 0.27 32.486 0.049 6.9 20.54 14.28
3/7/2021 6:30:00 AM 0.24 32.432 0.049 6.9 20.25 14.3
3/7/2021 6:45:00 AM 0.22 32.396 0.049 6.91 20.11 14.34
3/7/2021 7:00:00 AM 0.21 32.378 0.047 6.88 20.34 14.39
3/7/2021 7:15:00 AM 0.2 32.36 0.049 6.92 20.12 14.45
3/7/2021 7:30:00 AM 0.21 32.378 0.049 6.93 20.51 14.49
3/7/2021 7:45:00 AM 0.22 32.396 0.049 6.94 20.37 14.52
3/7/2021 8:00:00 AM 0.23 32.414 0.047 6.91 20.51 14.56
3/7/2021 8:15:00 AM 0.26 32.468 0.049 6.96 20.17 14.58
3/7/2021 8:30:00 AM 0.29 32.522 0.047 6.93 19.32 14.61
3/7/2021 8:45:00 AM 0.34 32.612 0.049 6.97 19.66 14.62
3/7/2021 9:00:00 AM 0.39 32.702 0.049 6.97 20.09 14.63
3/7/2021 9:15:00 AM 0.44 32.792 0.049 6.98 19.99 14.63
3/7/2021 9:30:00 AM 0.49 32.882 0.049 6.99 20.14 14.63
3/7/2021 9:45:00 AM 0.54 32.972 0.048 6.97 19.16 14.62
3/7/2021 10:00:00 AM 0.61 33.098 0.049 7 19.33 14.62
3/7/2021 10:15:00 AM 0.71 33.278 0.049 7.01 19.6 14.61
3/7/2021 10:30:00 AM 0.84 33.512 0.049 7.01 19.58 14.58
3/7/2021 10:45:00 AM 0.96 33.728 0.049 7.02 19.84 14.56
3/7/2021 11:00:00 AM 1.1 33.98 0.05 7.02 19.62 14.52
3/7/2021 11:15:00 AM 1.3 34.34 0.048 7 21.06 14.46
3/7/2021 11:30:00 AM 1.56 34.808 0.05 7.03 19.69 14.37
3/7/2021 11:45:00 AM 1.83 35.294 0.048 7 19.63 14.28
3/7/2021 12:00:00 PM 2.05 35.69 0.047 7 19.61 14.21
3/7/2021 12:15:00 PM 2.25 36.05 0.049 7.03 19.41 14.15
3/7/2021 12:30:00 PM 2.37 36.266 0.047 7 19 14.09
3/7/2021 12:45:00 PM 2.47 36.446 0.049 7.02 19.57 14.06
3/7/2021 1:00:00 PM 2.59 36.662 0.048 7.04 19.49 14.02
3/7/2021 1:15:00 PM 2.62 36.716 0.046 7.01 20.02 13.99
3/7/2021 1:30:00 PM 2.61 36.698 0.046 7.01 21.89 13.98
3/7/2021 1:45:00 PM 2.65 36.77 0.045 7.01 18.51 13.97
3/7/2021 2:00:00 PM 2.74 36.932 0.047 7.03 19.56 13.94
3/7/2021 2:15:00 PM 2.76 36.968 0.047 6.98 19.53 13.91
3/7/2021 2:30:00 PM 2.81 37.058 0.047 7.03 19.96 13.9
3/7/2021 2:45:00 PM 2.81 37.058 0.047 7.03 19.88 13.88
3/7/2021 3:00:00 PM 2.79 37.022 0.047 7.04 19.64 13.88
3/7/2021 3:15:00 PM 2.74 36.932 0.048 7.04 19.61 13.87
3/7/2021 3:30:00 PM 2.71 36.878 0.048 7.02 20.1 13.86
3/7/2021 3:45:00 PM 2.67 36.806 0.048 7.03 19.57 13.85
3/7/2021 4:00:00 PM 2.62 36.716 0.047 7 19.21 13.83
3/7/2021 4:15:00 PM 2.57 36.626 0.049 7.03 20.01 13.82
3/7/2021 4:30:00 PM 2.5 36.5 0.049 7.03 19.72 13.8
3/7/2021 4:45:00 PM 2.43 36.374 0.047 6.99 20.66 13.8
3/7/2021 5:00:00 PM 2.34 36.212 0.047 6.99 20.32 13.79
3/7/2021 5:15:00 PM 2.25 36.05 0.048 7.01 20.92 13.79
3/7/2021 5:30:00 PM 2.17 35.906 0.048 7 20.51 13.78
3/7/2021 5:45:00 PM 2.1 35.78 0.048 6.98 21.04 13.76
3/7/2021 6:00:00 PM 2.04 35.672 0.045 6.94 21.74 13.74
3/7/2021 6:15:00 PM 1.98 35.564 0.047 6.96 21.69 13.72
3/7/2021 6:30:00 PM 1.93 35.474 0.047 6.95 22.47 13.71
3/7/2021 6:45:00 PM 1.87 35.366 0.047 6.94 22.36 13.71
3/7/2021 7:00:00 PM 1.84 35.312 0.047 6.94 22.24 13.71
3/7/2021 7:15:00 PM 1.8 35.24 0.047 6.93 22.07 13.72
3/7/2021 7:30:00 PM 1.76 35.168 0.047 6.93 22.34 13.73
3/7/2021 7:45:00 PM 1.71 35.078 0.045 6.91 21.19 13.75
3/7/2021 8:00:00 PM 1.67 35.006 0.046 6.89 21.16 13.76
3/7/2021 8:15:00 PM 1.61 34.898 0.047 6.91 22.1 13.78
3/7/2021 8:30:00 PM 1.56 34.808 0.048 6.89 21.34 13.79
3/7/2021 8:45:00 PM 1.51 34.718 0.048 6.92 22.27 13.82
3/7/2021 9:00:00 PM 1.45 34.61 0.048 6.92 21.55 13.84
3/7/2021 9:15:00 PM 1.39 34.502 0.048 6.92 22.17 13.86
3/7/2021 9:30:00 PM 1.34 34.412 0.048 6.93 22.1 13.88
3/7/2021 9:45:00 PM 1.29 34.322 0.046 6.89 24.95 13.91
3/7/2021 10:00:00 PM 1.24 34.232 0.048 6.92 22.16 13.92
3/7/2021 10:15:00 PM 1.18 34.124 0.048 6.92 22.06 13.95
3/7/2021 10:30:00 PM 1.13 34.034 0.049 6.92 21.64 13.97
3/7/2021 10:45:00 PM 1.06 33.908 0.046 6.89 22.96 14
3/7/2021 11:00:00 PM 1.01 33.818 0.049 6.92 22.57 14.02
3/7/2021 11:15:00 PM 0.95 33.71 0.047 6.89 22.93 14.05
3/7/2021 11:30:00 PM 0.89 33.602 0.049 6.92 22.46 14.06
3/7/2021 11:45:00 PM 0.84 33.512 0.049 6.91 21.66 14.09
3/8/2021 12:00:00 AM 0.78 33.404 0.049 6.91 21.82 14.11
3/8/2021 12:15:00 AM 0.72 33.296 0.049 6.92 21.04 14.15
3/8/2021 12:30:00 AM 0.66 33.188 0.049 6.92 21.41 14.16
3/8/2021 12:45:00 AM 0.61 33.098 0.049 6.91 21.42 14.19
3/8/2021 1:00:00 AM 0.55 32.99 0.049 6.91 20.74 14.22
3/8/2021 1:15:00 AM 0.49 32.882 0.049 6.91 20.84 14.24
3/8/2021 1:30:00 AM 0.44 32.792 0.049 6.91 21.15 14.26
3/8/2021 1:45:00 AM 0.38 32.684 0.049 6.91 21.02 14.29
3/8/2021 2:00:00 AM 0.33 32.594 0.049 6.9 20.89 14.31
3/8/2021 2:15:00 AM 0.3 32.54 0.049 6.9 20.66 14.32
3/8/2021 2:30:00 AM 0.25 32.45 0.049 6.91 21.03 14.33
3/8/2021 2:45:00 AM 0.22 32.396 0.047 6.87 20.51 14.35
3/8/2021 3:00:00 AM 0.21 32.378 0.05 6.91 20.8 14.34
3/8/2021 3:15:00 AM 0.18 32.324 0.05 6.86 20.1 14.36
3/8/2021 3:30:00 AM 0.16 32.288 0.05 6.91 20.38 14.38
3/8/2021 3:45:00 AM 0.15 32.27 0.05 6.91 20.44 14.37
3/8/2021 4:00:00 AM 0.14 32.252 0.048 6.87 19.71 14.38
3/8/2021 4:15:00 AM 0.13 32.234 0.049 6.89 21.13 14.39
3/8/2021 4:30:00 AM 0.12 32.216 0.051 6.91 20.57 14.39
3/8/2021 4:45:00 AM 0.11 32.198 0.051 6.91 20.31 14.38
3/8/2021 5:00:00 AM 0.1 32.18 0.051 6.91 20.61 14.38
3/8/2021 5:15:00 AM 0.11 32.198 0.051 6.91 19.82 14.38
3/8/2021 5:30:00 AM 0.11 32.198 0.051 6.91 20.48 14.39
3/8/2021 5:45:00 AM 0.11 32.198 0.051 6.91 20.05 14.37
3/8/2021 6:00:00 AM 0.1 32.18 0.051 6.91 20.36 14.39
3/8/2021 6:15:00 AM 0.11 32.198 0.049 6.87 19.14 14.38
3/8/2021 6:30:00 AM 0.11 32.198 0.051 6.9 20.09 14.38
3/8/2021 6:45:00 AM 0.11 32.198 0.051 6.91 19.98 14.42
3/8/2021 7:00:00 AM 0.12 32.216 0.052 6.92 19.56 14.45
3/8/2021 7:15:00 AM 0.13 32.234 0.052 6.93 19.96 14.51
3/8/2021 7:30:00 AM 0.15 32.27 0.05 6.9 20.04 14.55
3/8/2021 7:45:00 AM 0.17 32.306 0.052 6.95 19.79 14.6
3/8/2021 8:00:00 AM 0.2 32.36 0.052 6.96 19.04 14.64
3/8/2021 8:15:00 AM 0.24 32.432 0.052 6.97 20.08 14.65
3/8/2021 8:30:00 AM 0.29 32.522 0.052 6.98 19.39 14.68
3/8/2021 8:45:00 AM 0.35 32.63 0.053 6.98 19.58 14.68
3/8/2021 9:00:00 AM 0.42 32.756 0.053 6.99 19.4 14.68
3/8/2021 9:15:00 AM 0.49 32.882 0.053 7 19.6 14.68
3/8/2021 9:30:00 AM 0.57 33.026 0.053 7 18.94 14.67
3/8/2021 9:45:00 AM 0.66 33.188 0.053 7.01 19.54 14.65
3/8/2021 10:00:00 AM 0.75 33.35 0.054 7.02 18.82 14.64
3/8/2021 10:15:00 AM 0.86 33.548 0.054 7.02 19.42 14.62
3/8/2021 10:30:00 AM 0.96 33.728 0.052 7.01 19.88 14.61
3/8/2021 10:45:00 AM 1.06 33.908 0.055 7.06 19.16 14.61
3/8/2021 11:00:00 AM 1.16 34.088 0.055 7.05 18.97 14.58
3/8/2021 11:15:00 AM 1.25 34.25 0.055 7.07 18.91 14.56
3/8/2021 11:30:00 AM 1.31 34.358 0.056 7.09 19.33 14.56
3/8/2021 11:45:00 AM 1.4 34.52 0.054 7.07 19.52 14.52
3/8/2021 12:00:00 PM 1.49 34.682 0.057 7.1 19.15 14.51
3/8/2021 12:15:00 PM 1.6 34.88 0.057 7.1 19.31 14.47
3/8/2021 12:30:00 PM 1.71 35.078 0.057 7.11 19.11 14.43
3/8/2021 12:45:00 PM 1.89 35.402 0.056 7.11 19.2 14.36
3/8/2021 1:00:00 PM 2.1 35.78 0.056 7.12 19.61 14.28
3/8/2021 1:15:00 PM 2.31 36.158 0.056 7.11 18.76 14.19
3/8/2021 1:30:00 PM 2.44 36.392 0.055 7.11 19.1 14.13
3/8/2021 1:45:00 PM 2.45 36.41 0.054 7.1 19.25 14.08
3/8/2021 2:00:00 PM 2.48 36.464 0.052 7.1 19.36 14.07
3/8/2021 2:15:00 PM 2.49 36.482 0.05 7.1 19.42 14.06
3/8/2021 2:30:00 PM 2.47 36.446 0.049 7.08 19.82 14.05
3/8/2021 2:45:00 PM 2.4 36.32 0.048 7.07 20.03 14.06
3/8/2021 3:00:00 PM 2.32 36.176 0.047 7.06 20.03 14.07
3/8/2021 3:15:00 PM 2.24 36.032 0.047 7.06 20.7 14.08
3/8/2021 3:30:00 PM 2.16 35.888 0.046 7.05 20.61 14.11
3/8/2021 3:45:00 PM 2.12 35.816 0.046 7.05 20.51 14.11
3/8/2021 4:00:00 PM 2.1 35.78 0.046 7.04 21.23 14.1
3/8/2021 4:15:00 PM 2.08 35.744 0.046 7.03 20.48 14.09
3/8/2021 4:30:00 PM 2.08 35.744 0.043 7 19.6 14.07
3/8/2021 4:45:00 PM 2.08 35.744 0.045 7.02 21.22 14.01
3/8/2021 5:00:00 PM 2.11 35.798 0.045 7.01 21.16 13.95
3/8/2021 5:15:00 PM 2.15 35.87 0.043 6.98 22.39 13.91
3/8/2021 5:30:00 PM 2.17 35.906 0.046 6.99 23.41 13.86
3/8/2021 5:45:00 PM 2.15 35.87 0.046 6.99 23.27 13.81
3/8/2021 6:00:00 PM 2.11 35.798 0.046 6.97 26.59 13.77
3/8/2021 6:15:00 PM 2.05 35.69 0.046 6.96 26.98 13.75
3/8/2021 6:30:00 PM 1.98 35.564 0.044 6.92 24.55 13.74
3/8/2021 6:45:00 PM 1.91 35.438 0.044 6.91 25.25 13.74
3/8/2021 7:00:00 PM 1.84 35.312 0.046 6.94 34.62 13.76
3/8/2021 7:15:00 PM 1.78 35.204 0.046 6.93 24.46 13.77
3/8/2021 7:30:00 PM 1.72 35.096 0.046 6.93 30.62 13.78
3/8/2021 7:45:00 PM 1.67 35.006 0.046 6.92 24.32 13.8
3/8/2021 8:00:00 PM 1.64 34.952 0.047 6.92 27.03 13.8
3/8/2021 8:15:00 PM 1.62 34.916 0.047 6.92 24.82 13.81
3/8/2021 8:30:00 PM 1.62 34.916 0.047 6.92 26.52 13.81
3/8/2021 8:45:00 PM 1.61 34.898 0.047 6.92 26.32 13.81
3/8/2021 9:00:00 PM 1.6 34.88 0.047 6.92 26.42 13.81
3/8/2021 9:15:00 PM 1.6 34.88 0.047 6.92 25.05 13.81
3/8/2021 9:30:00 PM 1.59 34.862 0.048 6.92 24.93 13.82
3/8/2021 9:45:00 PM 1.59 34.862 0.048 6.93 24.27 13.81
3/8/2021 10:00:00 PM 1.59 34.862 0.048 6.92 23.6 13.81
3/8/2021 10:15:00 PM 1.59 34.862 0.048 6.93 23.54 13.82
3/8/2021 10:30:00 PM 1.59 34.862 0.048 6.92 23.99 13.81
3/8/2021 10:45:00 PM 1.59 34.862 0.048 6.92 32.47 13.81
3/8/2021 11:00:00 PM 1.6 34.88 0.048 6.93 22.31 13.8
3/8/2021 11:15:00 PM 1.6 34.88 0.049 6.92 22.21 13.8
3/8/2021 11:30:00 PM 1.6 34.88 0.049 6.92 23.04 13.79
3/8/2021 11:45:00 PM 1.61 34.898 0.049 6.9 21.7 13.79
3/9/2021 12:00:00 AM 1.62 34.916 0.049 6.93 22.29 13.79
3/9/2021 12:15:00 AM 1.62 34.916 0.049 6.93 22.19 13.79
3/9/2021 12:30:00 AM 1.62 34.916 0.049 6.93 22.14 13.78
3/9/2021 12:45:00 AM 1.62 34.916 0.049 6.93 21.86 13.79
3/9/2021 1:00:00 AM 1.63 34.934 0.049 6.92 22.44 13.77
3/9/2021 1:15:00 AM 1.64 34.952 0.047 6.89 21.25 13.77
3/9/2021 1:30:00 AM 1.64 34.952 0.05 6.93 21.32 13.77
3/9/2021 1:45:00 AM 1.64 34.952 0.05 6.87 21.59 13.77
3/9/2021 2:00:00 AM 1.65 34.97 0.05 6.93 21.09 13.76
3/9/2021 2:15:00 AM 1.66 34.988 0.05 6.93 20.72 13.76
3/9/2021 2:30:00 AM 1.66 34.988 0.05 6.93 20.92 13.75
3/9/2021 2:45:00 AM 1.66 34.988 0.05 6.93 20.55 13.75
3/9/2021 3:00:00 AM 1.66 34.988 0.05 6.93 20.66 13.74
3/9/2021 3:15:00 AM 1.65 34.97 0.048 6.9 20.38 13.74
3/9/2021 3:30:00 AM 1.63 34.934 0.05 6.93 21.18 13.75
3/9/2021 3:45:00 AM 1.61 34.898 0.05 6.93 20.72 13.75
3/9/2021 4:00:00 AM 1.59 34.862 0.05 6.93 20.97 13.75
3/9/2021 4:15:00 AM 1.58 34.844 0.05 6.94 20.69 13.76
3/9/2021 4:30:00 AM 1.58 34.844 0.05 6.93 20.43 13.76
3/9/2021 4:45:00 AM 1.57 34.826 0.05 6.93 20.12 13.76
3/9/2021 5:00:00 AM 1.57 34.826 0.05 6.93 20.15 13.77
3/9/2021 5:15:00 AM 1.56 34.808 0.05 6.92 20.5 13.77
3/9/2021 5:30:00 AM 1.54 34.772 0.05 6.93 20.23 13.77
3/9/2021 5:45:00 AM 1.52 34.736 0.048 6.9 20.86 13.78
3/9/2021 6:00:00 AM 1.5 34.7 0.05 6.93 20.28 13.79
3/9/2021 6:15:00 AM 1.48 34.664 0.05 6.93 19.98 13.8
3/9/2021 6:30:00 AM 1.47 34.646 0.048 6.9 20.87 13.82
3/9/2021 6:45:00 AM 1.45 34.61 0.05 6.94 20.43 13.85
3/9/2021 7:00:00 AM 1.45 34.61 0.05 6.95 20.16 13.92
3/9/2021 7:15:00 AM 1.44 34.592 0.05 6.96 19.68 13.99
3/9/2021 7:30:00 AM 1.45 34.61 0.05 6.97 19.62 14.04
3/9/2021 7:45:00 AM 1.46 34.628 0.05 6.99 20.14 14.1
3/9/2021 8:00:00 AM 1.48 34.664 0.05 7 20.22 14.14
3/9/2021 8:15:00 AM 1.5 34.7 0.05 7.01 20.09 14.18
3/9/2021 8:30:00 AM 1.54 34.772 0.05 7.01 19.89 14.19
3/9/2021 8:45:00 AM 1.59 34.862 0.05 7.02 19.83 14.2
3/9/2021 9:00:00 AM 1.65 34.97 0.05 7.03 20.32 14.21
3/9/2021 9:15:00 AM 1.75 35.15 0.047 7 19.41 14.19
3/9/2021 9:30:00 AM 1.85 35.33 0.05 7.04 19.98 14.18
3/9/2021 9:45:00 AM 1.99 35.582 0.049 7.05 19.76 14.16
3/9/2021 10:00:00 AM 2.15 35.87 0.049 7.06 19.72 14.13
3/9/2021 10:15:00 AM 2.32 36.176 0.049 7.06 19.33 14.08
3/9/2021 10:30:00 AM 2.54 36.572 0.049 7.07 19.64 14.02
3/9/2021 10:45:00 AM 2.77 36.986 0.047 7.03 20 13.97
3/9/2021 11:00:00 AM 3.02 37.436 0.049 7.04 19.69 13.9
3/9/2021 11:15:00 AM 3.28 37.904 0.049 7.05 19.87 13.83
3/9/2021 11:30:00 AM 3.54 38.372 0.049 7.08 19.24 13.76
3/9/2021 11:45:00 AM 3.77 38.786 0.047 7.06 19.77 13.68
3/9/2021 12:00:00 PM 4.01 39.218 0.047 7.05 18.99 13.61
3/9/2021 12:15:00 PM 4.21 39.578 0.049 7.1 19.73 13.55
3/9/2021 12:30:00 PM 4.41 39.938 0.049 7.1 19.37 13.48
3/9/2021 12:45:00 PM 4.56 40.208 0.049 7.11 19.58 13.42
3/9/2021 1:00:00 PM 4.71 40.478 0.05 7.12 19.79 13.37
3/9/2021 1:15:00 PM 4.84 40.712 0.05 7.12 19.44 13.32
3/9/2021 1:30:00 PM 4.94 40.892 0.051 7.14 19.23 13.27
3/9/2021 1:45:00 PM 5.04 41.072 0.052 7.15 19.22 13.23
3/9/2021 2:00:00 PM 5.11 41.198 0.052 7.16 19.96 13.19
3/9/2021 2:15:00 PM 5.17 41.306 0.053 7.17 20.17 13.17
3/9/2021 2:30:00 PM 5.2 41.36 0.054 7.18 19.97 13.15
3/9/2021 2:45:00 PM 5.2 41.36 0.055 7.19 19.91 13.12
3/9/2021 3:00:00 PM 5.2 41.36 0.055 7.2 19.89 13.1
3/9/2021 3:15:00 PM 5.18 41.324 0.056 7.21 20.8 13.07
3/9/2021 3:30:00 PM 5.15 41.27 0.056 7.21 21.48 13.05
3/9/2021 3:45:00 PM 5.11 41.198 0.055 7.21 21.87 13.02
3/9/2021 4:00:00 PM 5.05 41.09 0.055 7.2 22.13 13.01
3/9/2021 4:15:00 PM 4.97 40.946 0.055 7.19 22.59 12.99
3/9/2021 4:30:00 PM 4.88 40.784 0.055 7.18 22.14 12.98
3/9/2021 4:45:00 PM 4.79 40.622 0.055 7.17 22.51 12.98
3/9/2021 5:00:00 PM 4.7 40.46 0.055 7.16 22.49 12.97
3/9/2021 5:15:00 PM 4.63 40.334 0.055 7.16 22.87 12.95
3/9/2021 5:30:00 PM 4.57 40.226 0.055 7.14 22.47 12.94
3/9/2021 5:45:00 PM 4.5 40.1 0.055 7.12 23.04 12.92
3/9/2021 6:00:00 PM 4.43 39.974 0.055 7.1 22.57 12.9
3/9/2021 6:15:00 PM 4.36 39.848 0.054 7.09 22.66 12.88
3/9/2021 6:30:00 PM 4.29 39.722 0.055 7.08 22.82 12.88
3/9/2021 6:45:00 PM 4.22 39.596 0.054 7.06 22.63 12.89
3/9/2021 7:00:00 PM 4.14 39.452 0.054 7.06 22.31 12.91
3/9/2021 7:15:00 PM 4.07 39.326 0.054 7.04 22.4 12.93
3/9/2021 7:30:00 PM 3.99 39.182 0.054 7.05 22.76 12.95
3/9/2021 7:45:00 PM 3.91 39.038 0.052 7 22.18 12.98
3/9/2021 8:00:00 PM 3.83 38.894 0.054 6.98 23.16 13.01
3/9/2021 8:15:00 PM 3.75 38.75 0.054 7.03 23.94 13.04
3/9/2021 8:30:00 PM 3.67 38.606 0.054 7.03 23.64 13.07
3/9/2021 8:45:00 PM 3.6 38.48 0.053 6.98 23.94 13.1
3/9/2021 9:00:00 PM 3.52 38.336 0.053 7.02 23.85 13.12
3/9/2021 9:15:00 PM 3.46 38.228 0.051 7 24.08 13.14
3/9/2021 9:30:00 PM 3.4 38.12 0.053 7.01 24.07 13.17
3/9/2021 9:45:00 PM 3.33 37.994 0.053 6.99 24.7 13.19
3/9/2021 10:00:00 PM 3.27 37.886 0.053 7.01 23.83 13.22
3/9/2021 10:15:00 PM 3.21 37.778 0.053 7.01 24.92 13.25
3/9/2021 10:30:00 PM 3.16 37.688 0.053 7.01 26.46 13.26
3/9/2021 10:45:00 PM 3.1 37.58 0.053 7 24.83 13.29
3/9/2021 11:00:00 PM 3.04 37.472 0.053 7 26.1 13.31
3/9/2021 11:15:00 PM 2.98 37.364 0.05 6.97 28.05 13.33
3/9/2021 11:30:00 PM 2.92 37.256 0.053 7 24.47 13.36
3/9/2021 11:45:00 PM 2.86 37.148 0.053 6.99 22.7 13.39
3/10/2021 12:00:00 AM 2.8 37.04 0.053 7 24.3 13.4
3/10/2021 12:15:00 AM 2.74 36.932 0.051 6.97 25.75 13.42
3/10/2021 12:30:00 AM 2.68 36.824 0.053 6.99 23.5 13.45
3/10/2021 12:45:00 AM 2.63 36.734 0.053 6.96 24.44 13.47
3/10/2021 1:00:00 AM 2.57 36.626 0.053 6.99 23.67 13.49
3/10/2021 1:15:00 AM 2.52 36.536 0.053 6.99 23.61 13.51
3/10/2021 1:30:00 AM 2.47 36.446 0.05 6.96 23.1 13.53
3/10/2021 1:45:00 AM 2.42 36.356 0.053 6.98 23.79 13.55
3/10/2021 2:00:00 AM 2.38 36.284 0.053 6.98 23.45 13.56
3/10/2021 2:15:00 AM 2.33 36.194 0.05 6.95 23.18 13.58
3/10/2021 2:30:00 AM 2.29 36.122 0.052 6.98 23.41 13.6
3/10/2021 2:45:00 AM 2.24 36.032 0.052 6.98 23.71 13.62
3/10/2021 3:00:00 AM 2.2 35.96 0.052 6.97 24.31 13.64
3/10/2021 3:15:00 AM 2.16 35.888 0.052 6.97 23.36 13.66
3/10/2021 3:30:00 AM 2.12 35.816 0.052 6.97 22.86 13.67
3/10/2021 3:45:00 AM 2.08 35.744 0.049 6.93 24.34 13.68
3/10/2021 4:00:00 AM 2.04 35.672 0.051 6.97 23.91 13.71
3/10/2021 4:15:00 AM 2.01 35.618 0.049 6.93 23.89 13.71
3/10/2021 4:30:00 AM 1.97 35.546 0.051 6.96 22.96 13.73
3/10/2021 4:45:00 AM 1.93 35.474 0.051 6.96 22.9 13.75
3/10/2021 5:00:00 AM 1.89 35.402 0.049 6.93 23.85 13.76
3/10/2021 5:15:00 AM 1.86 35.348 0.051 6.96 22.61 13.77
3/10/2021 5:30:00 AM 1.82 35.276 0.051 6.95 22.95 13.79
3/10/2021 5:45:00 AM 1.79 35.222 0.051 6.96 22.67 13.8
3/10/2021 6:00:00 AM 1.76 35.168 0.051 6.95 22.83 13.82
3/10/2021 6:15:00 AM 1.73 35.114 0.051 6.95 22.25 13.84
3/10/2021 6:30:00 AM 1.7 35.06 0.05 6.95 22.34 13.85
3/10/2021 6:45:00 AM 1.68 35.024 0.05 6.96 22.75 13.9
3/10/2021 7:00:00 AM 1.66 34.988 0.05 6.97 21.92 13.96
3/10/2021 7:15:00 AM 1.65 34.97 0.05 6.98 22.47 14.01
3/10/2021 7:30:00 AM 1.65 34.97 0.048 6.96 21.9 14.06
3/10/2021 7:45:00 AM 1.66 34.988 0.05 7 22.4 14.1
3/10/2021 8:00:00 AM 1.66 34.988 0.05 6.96 22.32 14.13
3/10/2021 8:15:00 AM 1.68 35.024 0.049 6.99 22.14 14.16
3/10/2021 8:30:00 AM 1.71 35.078 0.05 7.02 22.03 14.17
3/10/2021 8:45:00 AM 1.75 35.15 0.049 7.03 22.58 14.19
3/10/2021 9:00:00 AM 1.82 35.276 0.049 7.03 22.09 14.19
3/10/2021 9:15:00 AM 1.9 35.42 0.049 7.04 21.98 14.19
3/10/2021 9:30:00 AM 2 35.6 0.049 7.05 21.4 14.18
3/10/2021 9:45:00 AM 2.13 35.834 0.049 7.05 21.76 14.15
3/10/2021 10:00:00 AM 2.27 36.086 0.049 7.06 21.27 14.13
3/10/2021 10:15:00 AM 2.45 36.41 0.049 7.07 21.23 14.08
3/10/2021 10:30:00 AM 2.66 36.788 0.047 7.04 20.86 14.04
3/10/2021 10:45:00 AM 2.87 37.166 0.049 7.08 21.93 13.98
3/10/2021 11:00:00 AM 3.09 37.562 0.046 7.06 20.26 13.92
3/10/2021 11:15:00 AM 3.31 37.958 0.046 7.06 20.17 13.86
3/10/2021 11:30:00 AM 3.52 38.336 0.048 7.09 21.6 13.8
3/10/2021 11:45:00 AM 3.73 38.714 0.048 7.09 21.6 13.74
3/10/2021 12:00:00 PM 3.9 39.02 0.048 7.1 21.17 13.67
3/10/2021 12:15:00 PM 4.07 39.326 0.048 7.1 21.21 13.62
3/10/2021 12:30:00 PM 4.24 39.632 0.048 7.11 20.97 13.57
3/10/2021 12:45:00 PM 4.41 39.938 0.049 7.11 20.85 13.51
3/10/2021 1:00:00 PM 4.54 40.172 0.049 7.12 21.01 13.46
3/10/2021 1:15:00 PM 4.66 40.388 0.049 7.12 20.41 13.41
3/10/2021 1:30:00 PM 4.77 40.586 0.049 7.13 21.02 13.36
3/10/2021 1:45:00 PM 4.88 40.784 0.05 7.13 20.77 13.31
3/10/2021 2:00:00 PM 4.98 40.964 0.05 7.14 20.69 13.27
3/10/2021 2:15:00 PM 5.06 41.108 0.05 7.15 20.69 13.22
3/10/2021 2:30:00 PM 5.13 41.234 0.051 7.16 20.53 13.17
3/10/2021 2:45:00 PM 5.17 41.306 0.051 7.17 20.44 13.14
3/10/2021 3:00:00 PM 5.19 41.342 0.052 7.16 20.43 13.09
3/10/2021 3:15:00 PM 5.22 41.396 0.052 7.18 21.07 13.05
3/10/2021 3:30:00 PM 5.24 41.432 0.052 7.19 21.51 13.02
3/10/2021 3:45:00 PM 5.24 41.432 0.052 7.19 21.45 12.98
3/10/2021 4:00:00 PM 5.24 41.432 0.052 7.19 21.8 12.95
3/10/2021 4:15:00 PM 5.23 41.414 0.052 7.18 22.38 12.91
3/10/2021 4:30:00 PM 5.2 41.36 0.052 7.17 22.64 12.88
3/10/2021 4:45:00 PM 5.15 41.27 0.052 7.16 22.02 12.85
3/10/2021 5:00:00 PM 5.1 41.18 0.052 7.14 22.46 12.82
3/10/2021 5:15:00 PM 5.04 41.072 0.052 7.13 22.67 12.79
3/10/2021 5:30:00 PM 4.99 40.982 0.052 7.12 22.77 12.79
3/10/2021 5:45:00 PM 4.93 40.874 0.052 7.1 22.89 12.77
3/10/2021 6:00:00 PM 4.85 40.73 0.051 7.09 23.04 12.76
3/10/2021 6:15:00 PM 4.77 40.586 0.051 7.07 22.91 12.76
3/10/2021 6:30:00 PM 4.7 40.46 0.051 7.05 23.91 12.76
3/10/2021 6:45:00 PM 4.63 40.334 0.05 7.04 24.99 12.76
3/10/2021 7:00:00 PM 4.55 40.19 0.05 7.03 25.65 12.79
3/10/2021 7:15:00 PM 4.46 40.028 0.05 7.02 25.47 12.82
3/10/2021 7:30:00 PM 4.38 39.884 0.049 7.02 25.06 12.84
3/10/2021 7:45:00 PM 4.3 39.74 0.049 7.01 26.05 12.86
3/10/2021 8:00:00 PM 4.22 39.596 0.049 7 25.82 12.89
3/10/2021 8:15:00 PM 4.14 39.452 0.049 6.99 26.93 12.91
3/10/2021 8:30:00 PM 4.07 39.326 0.048 6.99 27.48 12.95
3/10/2021 8:45:00 PM 3.99 39.182 0.048 6.99 26.92 12.97
3/10/2021 9:00:00 PM 3.91 39.038 0.048 6.98 26.89 13
3/10/2021 9:15:00 PM 3.84 38.912 0.048 6.97 24.51 13.02
3/10/2021 9:30:00 PM 3.77 38.786 0.048 6.98 26.88 13.04
3/10/2021 9:45:00 PM 3.7 38.66 0.048 6.97 28.24 13.07
3/10/2021 10:00:00 PM 3.64 38.552 0.048 6.93 26.6 13.1
3/10/2021 10:15:00 PM 3.56 38.408 0.048 6.94 26.69 13.13
3/10/2021 10:30:00 PM 3.5 38.3 0.047 6.93 25.83 13.14
3/10/2021 10:45:00 PM 3.43 38.174 0.047 6.93 27.91 13.17
3/10/2021 11:00:00 PM 3.37 38.066 0.047 6.95 26.75 13.19
3/10/2021 11:15:00 PM 3.31 37.958 0.047 6.95 26.04 13.21
3/10/2021 11:30:00 PM 3.26 37.868 0.047 6.95 29.03 13.23
3/10/2021 11:45:00 PM 3.21 37.778 0.047 6.95 28.81 13.25
3/11/2021 12:00:00 AM 3.16 37.688 0.047 6.95 27.94 13.27
3/11/2021 12:15:00 AM 3.12 37.616 0.046 6.88 28.12 13.28
3/11/2021 12:30:00 AM 3.09 37.562 0.045 6.92 27.32 13.29
3/11/2021 12:45:00 AM 3.05 37.49 0.046 6.94 26.45 13.31
3/11/2021 1:00:00 AM 3.01 37.418 0.046 6.94 36.01 13.32
3/11/2021 1:15:00 AM 2.98 37.364 0.046 6.93 27.81 13.33
3/11/2021 1:30:00 AM 2.95 37.31 0.046 6.93 28.17 13.34
3/11/2021 1:45:00 AM 2.91 37.238 0.046 6.93 28.42 13.35
3/11/2021 2:00:00 AM 2.88 37.184 0.046 6.9 26.19 13.36
3/11/2021 2:15:00 AM 2.85 37.13 0.046 6.92 27.19 13.37
3/11/2021 2:30:00 AM 2.83 37.094 0.043 6.89 29.38 13.38
3/11/2021 2:45:00 AM 2.8 37.04 0.044 6.91 27.84 13.39
3/11/2021 3:00:00 AM 2.78 37.004 0.045 6.92 27.8 13.4
3/11/2021 3:15:00 AM 2.76 36.968 0.045 6.92 28.83 13.41
3/11/2021 3:30:00 AM 2.74 36.932 0.045 6.92 28.16 13.41
3/11/2021 3:45:00 AM 2.73 36.914 0.043 6.88 26.9 13.41
3/11/2021 4:00:00 AM 2.71 36.878 0.045 6.92 26.3 13.42
3/11/2021 4:15:00 AM 2.7 36.86 0.045 6.91 26.37 13.42
3/11/2021 4:30:00 AM 2.68 36.824 0.045 6.91 30.61 13.43
3/11/2021 4:45:00 AM 2.67 36.806 0.045 6.91 26.88 13.43
3/11/2021 5:00:00 AM 2.67 36.806 0.042 6.88 25.94 13.43
3/11/2021 5:15:00 AM 2.66 36.788 0.043 6.89 25.96 13.44
3/11/2021 5:30:00 AM 2.65 36.77 0.044 6.89 24.68 13.44
3/11/2021 5:45:00 AM 2.64 36.752 0.043 6.88 26.86 13.44
3/11/2021 6:00:00 AM 2.64 36.752 0.042 6.88 27.22 13.44
3/11/2021 6:15:00 AM 2.63 36.734 0.044 6.9 26.26 13.45
3/11/2021 6:30:00 AM 2.63 36.734 0.042 6.86 26.45 13.45
3/11/2021 6:45:00 AM 2.63 36.734 0.044 6.9 24.32 13.47
3/11/2021 7:00:00 AM 2.63 36.734 0.044 6.9 25.71 13.48
3/11/2021 7:15:00 AM 2.64 36.752 0.044 6.91 24.76 13.49
3/11/2021 7:30:00 AM 2.65 36.77 0.042 6.89 29.98 13.53
3/11/2021 7:45:00 AM 2.67 36.806 0.042 6.89 22.98 13.54
3/11/2021 8:00:00 AM 2.7 36.86 0.042 6.9 26.04 13.59
3/11/2021 8:15:00 AM 2.75 36.95 0.042 6.93 26.45 13.63
3/11/2021 8:30:00 AM 2.78 37.004 0.043 6.93 25.95 13.63
3/11/2021 8:45:00 AM 2.83 37.094 0.043 6.97 25.07 13.65
3/11/2021 9:00:00 AM 2.92 37.256 0.043 6.98 25.24 13.68
3/11/2021 9:15:00 AM 2.98 37.364 0.043 6.99 24.66 13.66
3/11/2021 9:30:00 AM 3.06 37.508 0.043 6.99 24.43 13.66
3/11/2021 9:45:00 AM 3.14 37.652 0.043 6.95 24.55 13.65
3/11/2021 10:00:00 AM 3.25 37.85 0.043 7.01 25.22 13.61
3/11/2021 10:15:00 AM 3.38 38.084 0.043 7.01 25.6 13.58
3/11/2021 10:30:00 AM 3.53 38.354 0.043 7.02 24.63 13.55
3/11/2021 10:45:00 AM 3.71 38.678 0.043 7.02 24.45 13.5
3/11/2021 11:00:00 AM 3.92 39.056 0.043 7.03 24.73 13.45
3/11/2021 11:15:00 AM 4.13 39.434 0.043 7.04 24.62 13.39
3/11/2021 11:30:00 AM 4.34 39.812 0.043 7.05 24.19 13.33
3/11/2021 11:45:00 AM 4.5 40.1 0.043 7.05 24.2 13.27
3/11/2021 12:00:00 PM 4.68 40.424 0.043 7.05 22.76 13.22
3/11/2021 12:15:00 PM 4.87 40.766 0.043 7.06 25.25 13.16
3/11/2021 12:30:00 PM 5.02 41.036 0.043 7.07 24.37 13.12
3/11/2021 12:45:00 PM 5.11 41.198 0.043 7.05 24.08 13.07
3/11/2021 1:00:00 PM 5.19 41.342 0.043 7.06 24.21 13.02
3/11/2021 1:15:00 PM 5.29 41.522 0.044 7.08 23.42 12.98
3/11/2021 1:30:00 PM 5.33 41.594 0.044 7.08 24.34 12.93
3/11/2021 1:45:00 PM 5.35 41.63 0.044 7.06 24.96 12.86
3/11/2021 2:00:00 PM 5.5 41.9 0.044 7.1 25.97 12.84
3/11/2021 2:15:00 PM 5.67 42.206 0.044 7.1 25.8 12.79
3/11/2021 2:30:00 PM 5.7 42.26 0.044 7.1 26.51 12.72
3/11/2021 2:45:00 PM 5.67 42.206 0.044 7.07 26.37 12.64
3/11/2021 3:00:00 PM 5.7 42.26 0.043 7.07 28.1 12.61
3/11/2021 3:15:00 PM 5.75 42.35 0.043 7.07 33.19 12.61
3/11/2021 3:30:00 PM 5.74 42.332 0.042 7.06 30.34 12.6
3/11/2021 3:45:00 PM 5.73 42.314 0.042 7.05 34.43 12.58
3/11/2021 4:00:00 PM 5.71 42.278 0.042 7.03 33.95 12.56
3/11/2021 4:15:00 PM 5.67 42.206 0.041 7.02 40.42 12.53
3/11/2021 4:30:00 PM 5.58 42.044 0.04 6.99 41.38 12.51
3/11/2021 4:45:00 PM 5.51 41.918 0.04 6.98 40.61 12.52
3/11/2021 5:00:00 PM 5.43 41.774 0.039 6.95 55.12 12.53
3/11/2021 5:15:00 PM 5.36 41.648 0.039 6.94 54.74 12.53
3/11/2021 5:30:00 PM 5.27 41.486 0.038 6.92 53.66 12.55
3/11/2021 5:45:00 PM 5.19 41.342 0.038 6.91 62.4 12.57
3/11/2021 6:00:00 PM 5.1 41.18 0.038 6.9 58.21 12.59
3/11/2021 6:15:00 PM 5 41 0.037 6.89 71.09 12.62
3/11/2021 6:30:00 PM 4.91 40.838 0.037 6.87 73.41 12.65
3/11/2021 6:45:00 PM 4.81 40.658 0.037 6.87 53.13 12.67
3/11/2021 7:00:00 PM 4.71 40.478 0.036 6.82 75.65 12.7
3/11/2021 7:15:00 PM 4.62 40.316 0.036 6.82 101.26 12.73
3/11/2021 7:30:00 PM 4.5 40.1 0.036 6.84 87.01 12.77
3/11/2021 7:45:00 PM 4.4 39.92 0.036 6.82 65.6 12.8
3/11/2021 8:00:00 PM 4.33 39.794 0.036 6.82 69.64 12.83
3/11/2021 8:15:00 PM 4.27 39.686 0.035 6.81 59.67 12.85
3/11/2021 8:30:00 PM 4.21 39.578 0.035 6.8 88.15 12.87
3/11/2021 8:45:00 PM 4.15 39.47 0.035 6.8 72.47 12.9
3/11/2021 9:00:00 PM 4.1 39.38 0.034 6.76 57.87 12.92
3/11/2021 9:15:00 PM 4.03 39.254 0.034 6.77 53.67 12.94
3/11/2021 9:30:00 PM 3.96 39.128 0.035 6.78 79.16 12.96
3/11/2021 9:45:00 PM 3.89 39.002 0.034 6.71 72.07 12.98
3/11/2021 10:00:00 PM 3.84 38.912 0.034 6.77 96.3 13.01
3/11/2021 10:15:00 PM 3.8 38.84 0.034 6.77 66.01 13.03
3/11/2021 10:30:00 PM 3.76 38.768 0.034 6.76 78.44 13.04
3/11/2021 10:45:00 PM 3.72 38.696 0.034 6.76 78.77 13.06
3/11/2021 11:00:00 PM 3.69 38.642 0.034 6.76 60.56 13.06
3/11/2021 11:15:00 PM 3.67 38.606 0.034 6.76 51.92 13.08
3/11/2021 11:30:00 PM 3.65 38.57 0.034 6.76 47.85 13.09
3/11/2021 11:45:00 PM 3.63 38.534 0.034 6.75 74.19 13.09
3/12/2021 12:00:00 AM 3.63 38.534 0.032 6.71 63.7 13.09
3/12/2021 12:15:00 AM 3.62 38.516 0.034 6.75 61.46 13.09
3/12/2021 12:30:00 AM 3.63 38.534 0.034 6.75 60.78 13.09
3/12/2021 12:45:00 AM 3.63 38.534 0.034 6.74 53.43 13.09
3/12/2021 1:00:00 AM 3.63 38.534 0.033 6.74 63.2 13.08
3/12/2021 1:15:00 AM 3.64 38.552 0.033 6.74 49.18 13.08
3/12/2021 1:30:00 AM 3.66 38.588 0.033 6.74 58.55 13.08
3/12/2021 1:45:00 AM 3.67 38.606 0.032 6.7 61.61 13.07
3/12/2021 2:00:00 AM 3.67 38.606 0.033 6.73 51.38 13.07
3/12/2021 2:15:00 AM 3.67 38.606 0.033 6.73 69.61 13.07
3/12/2021 2:30:00 AM 3.67 38.606 0.033 6.72 78.27 13.07
3/12/2021 2:45:00 AM 3.66 38.588 0.032 6.72 66.23 13.07
3/12/2021 3:00:00 AM 3.65 38.57 0.032 6.71 62.39 13.07
3/12/2021 3:15:00 AM 3.64 38.552 0.032 6.71 73.8 13.09
3/12/2021 3:30:00 AM 3.63 38.534 0.032 6.7 50.74 13.09
3/12/2021 3:45:00 AM 3.63 38.534 0.032 6.63 52.91 13.09
3/12/2021 4:00:00 AM 3.63 38.534 0.031 6.65 71.55 13.09
3/12/2021 4:15:00 AM 3.62 38.516 0.031 6.69 73.02 13.1
3/12/2021 4:30:00 AM 3.62 38.516 0.031 6.69 73.85 13.11
3/12/2021 4:45:00 AM 3.62 38.516 0.031 6.69 93.19 13.11
3/12/2021 5:00:00 AM 3.6 38.48 0.031 6.68 77.46 13.11
3/12/2021 5:15:00 AM 3.59 38.462 0.031 6.69 49.34 13.13
3/12/2021 5:30:00 AM 3.57 38.426 0.029 6.63 72.61 13.13
3/12/2021 5:45:00 AM 3.54 38.372 0.029 6.63 75.65 13.14
3/12/2021 6:00:00 AM 3.52 38.336 0.03 6.67 63.49 13.15
3/12/2021 6:15:00 AM 3.49 38.282 0.03 6.67 62.05 13.16
3/12/2021 6:30:00 AM 3.46 38.228 0.029 6.62 100.7 13.17
3/12/2021 6:45:00 AM 3.43 38.174 0.029 6.62 59.18 13.19
3/12/2021 7:00:00 AM 3.41 38.138 0.03 6.66 76.91 13.2
3/12/2021 7:15:00 AM 3.39 38.102 0.03 6.66 69.77 13.21
3/12/2021 7:30:00 AM 3.36 38.048 0.03 6.65 63.99 13.23
3/12/2021 7:45:00 AM 3.35 38.03 0.03 6.66 69.94 13.24
3/12/2021 8:00:00 AM 3.34 38.012 0.028 6.61 89.54 13.25
3/12/2021 8:15:00 AM 3.35 38.03 0.028 6.61 74.75 13.26
3/12/2021 8:30:00 AM 3.36 38.048 0.028 6.61 55.13 13.27
3/12/2021 8:45:00 AM 3.38 38.084 0.029 6.66 85.56 13.27
3/12/2021 9:00:00 AM 3.42 38.156 0.029 6.56 70.36 13.28
3/12/2021 9:15:00 AM 3.47 38.246 0.029 6.66 68.44 13.26
3/12/2021 9:30:00 AM 3.53 38.354 0.029 6.65 56.84 13.26
3/12/2021 9:45:00 AM 3.59 38.462 0.029 6.66 44.62 13.25
3/12/2021 10:00:00 AM 3.67 38.606 0.029 6.66 47.23 13.23
3/12/2021 10:15:00 AM 3.76 38.768 0.029 6.66 62.72 13.22
3/12/2021 10:30:00 AM 3.85 38.93 0.029 6.67 61.79 13.19
3/12/2021 10:45:00 AM 3.95 39.11 0.029 6.67 46.84 13.17
3/12/2021 11:00:00 AM 4.05 39.29 0.029 6.68 59.74 13.13
3/12/2021 11:15:00 AM 4.16 39.488 0.029 6.68 66.41 13.11
3/12/2021 11:30:00 AM 4.27 39.686 0.029 6.68 45.77 13.07
3/12/2021 11:45:00 AM 4.38 39.884 0.029 6.68 49.49 13.04
3/12/2021 12:00:00 PM 4.49 40.082 0.029 6.68 45.73 13
3/12/2021 12:15:00 PM 4.61 40.298 0.029 6.68 57.45 12.96
3/12/2021 12:30:00 PM 4.72 40.496 0.029 6.69 46.52 12.92
3/12/2021 12:45:00 PM 4.84 40.712 0.029 6.69 47.98 12.88
3/12/2021 1:00:00 PM 4.95 40.91 0.029 6.69 49.05 12.83
3/12/2021 1:15:00 PM 5.06 41.108 0.029 6.69 64.54 12.78
3/12/2021 1:30:00 PM 5.18 41.324 0.029 6.59 55.78 12.74
3/12/2021 1:45:00 PM 5.28 41.504 0.029 6.69 70.5 12.71
3/12/2021 2:00:00 PM 5.38 41.684 0.029 6.69 57.81 12.65
3/12/2021 2:15:00 PM 5.46 41.828 0.029 6.69 44.62 12.61
3/12/2021 2:30:00 PM 5.54 41.972 0.029 6.69 77.35 12.58
3/12/2021 2:45:00 PM 5.6 42.08 0.029 6.69 45.29 12.55
3/12/2021 3:00:00 PM 5.65 42.17 0.029 6.69 49.79 12.51
3/12/2021 3:15:00 PM 5.69 42.242 0.029 6.69 59.91 12.49
3/12/2021 3:30:00 PM 5.71 42.278 0.029 6.69 56.52 12.47
3/12/2021 3:45:00 PM 5.71 42.278 0.029 6.68 49.85 12.45
3/12/2021 4:00:00 PM 5.7 42.26 0.029 6.68 43.69 12.44
3/12/2021 4:15:00 PM 5.68 42.224 0.028 6.67 84.07 12.43
3/12/2021 4:30:00 PM 5.64 42.152 0.028 6.66 49.31 12.44
3/12/2021 4:45:00 PM 5.59 42.062 0.028 6.66 67.44 12.45
3/12/2021 5:00:00 PM 5.54 41.972 0.028 6.66 52.75 12.46
3/12/2021 5:15:00 PM 5.47 41.846 0.028 6.64 64.07 12.47
3/12/2021 5:30:00 PM 5.4 41.72 0.028 6.64 67.72 12.49
3/12/2021 5:45:00 PM 5.31 41.558 0.028 6.63 132.93 12.51
3/12/2021 6:00:00 PM 5.23 41.414 0.028 6.62 53.35 12.54
3/12/2021 6:15:00 PM 5.15 41.27 0.028 6.62 73.47 12.56
3/12/2021 6:30:00 PM 5.07 41.126 0.028 6.62 94.54 12.59
3/12/2021 6:45:00 PM 4.98 40.964 0.028 6.62 100.81 12.61
3/12/2021 7:00:00 PM 4.9 40.82 0.028 6.62 67.89 12.64
3/12/2021 7:15:00 PM 4.83 40.694 0.027 6.61 63.33 12.67
3/12/2021 7:30:00 PM 4.75 40.55 0.027 6.6 74.72 12.7
3/12/2021 7:45:00 PM 4.67 40.406 0.027 6.6 61.16 12.72
3/12/2021 8:00:00 PM 4.6 40.28 0.027 6.59 68.18 12.75
3/12/2021 8:15:00 PM 4.53 40.154 0.027 6.59 55.36 12.78
3/12/2021 8:30:00 PM 4.46 40.028 0.027 6.58 75.74 12.81
3/12/2021 8:45:00 PM 4.4 39.92 0.027 6.59 56.25 12.83
3/12/2021 9:00:00 PM 4.35 39.83 0.027 6.58 54.13 12.85
3/12/2021 9:15:00 PM 4.3 39.74 0.027 6.58 54.33 12.87
3/12/2021 9:30:00 PM 4.25 39.65 0.027 6.59 87.78 12.89
3/12/2021 9:45:00 PM 4.21 39.578 0.027 6.58 75.36 12.9
3/12/2021 10:00:00 PM 4.17 39.506 0.028 6.58 63.74 12.92
3/12/2021 10:15:00 PM 4.12 39.416 0.028 6.58 49.17 12.94
3/12/2021 10:30:00 PM 4.08 39.344 0.028 6.57 65.77 12.95
3/12/2021 10:45:00 PM 4.04 39.272 0.028 6.57 77.83 12.97
3/12/2021 11:00:00 PM 3.99 39.182 0.028 6.58 63.17 12.98
3/12/2021 11:15:00 PM 3.95 39.11 0.028 6.58 76.38 13.01
3/12/2021 11:30:00 PM 3.9 39.02 0.028 6.58 66.21 13.02
3/12/2021 11:45:00 PM 3.85 38.93 0.028 6.58 47.82 13.03
3/13/2021 12:00:00 AM 3.8 38.84 0.028 6.58 47.43 13.06
3/13/2021 12:15:00 AM 3.73 38.714 0.028 6.58 56.18 13.08
3/13/2021 12:30:00 AM 3.68 38.624 0.028 6.57 57.91 13.1
3/13/2021 12:45:00 AM 3.61 38.498 0.028 6.58 85.49 13.12
3/13/2021 1:00:00 AM 3.55 38.39 0.028 6.58 76.87 13.15
3/13/2021 1:15:00 AM 3.48 38.264 0.028 6.58 41.79 13.18
3/13/2021 1:30:00 AM 3.4 38.12 0.028 6.57 54.84 13.2
3/13/2021 1:45:00 AM 3.32 37.976 0.027 6.52 61.54 13.23
3/13/2021 2:00:00 AM 3.25 37.85 0.027 6.53 37.9 13.27
3/13/2021 2:15:00 AM 3.18 37.724 0.028 6.57 70.9 13.29
3/13/2021 2:30:00 AM 3.12 37.616 0.028 6.57 64.29 13.32
3/13/2021 2:45:00 AM 3.05 37.49 0.028 6.58 69.83 13.35
3/13/2021 3:00:00 AM 2.97 37.346 0.028 6.58 39.63 13.38
3/13/2021 3:15:00 AM 2.91 37.238 0.028 6.56 40.2 13.41
3/13/2021 3:30:00 AM 2.84 37.112 0.028 6.49 70.02 13.44
3/13/2021 3:45:00 AM 2.77 36.986 0.028 6.57 45.08 13.47
3/13/2021 4:00:00 AM 2.7 36.86 0.028 6.57 46.16 13.49
3/13/2021 4:15:00 AM 2.64 36.752 0.028 6.53 46.03 13.52
3/13/2021 4:30:00 AM 2.58 36.644 0.028 6.53 45.71 13.54
3/13/2021 4:45:00 AM 2.52 36.536 0.028 6.57 40.62 13.56
3/13/2021 5:00:00 AM 2.45 36.41 0.028 6.52 37.93 13.59
3/13/2021 5:15:00 AM 2.39 36.302 0.028 6.57 51.49 13.62
3/13/2021 5:30:00 AM 2.32 36.176 0.027 6.53 51.82 13.65
3/13/2021 5:45:00 AM 2.26 36.068 0.028 6.57 45.54 13.67
3/13/2021 6:00:00 AM 2.2 35.96 0.028 6.57 43.2 13.7
3/13/2021 6:15:00 AM 2.14 35.852 0.028 6.57 37.3 13.72
3/13/2021 6:30:00 AM 2.1 35.78 0.027 6.52 44.9 13.75
3/13/2021 6:45:00 AM 2.04 35.672 0.028 6.57 40.11 13.77
3/13/2021 7:00:00 AM 1.99 35.582 0.028 6.58 36.92 13.79
3/13/2021 7:15:00 AM 1.94 35.492 0.027 6.53 27.41 13.82
3/13/2021 7:30:00 AM 1.9 35.42 0.028 6.57 50.62 13.84
3/13/2021 7:45:00 AM 1.87 35.366 0.028 6.58 36.43 13.86
3/13/2021 8:00:00 AM 1.85 35.33 0.028 6.58 38.86 13.89
3/13/2021 8:15:00 AM 1.84 35.312 0.029 6.59 32.69 13.9
3/13/2021 8:30:00 AM 1.84 35.312 0.029 6.59 39.79 13.92
3/13/2021 8:45:00 AM 1.84 35.312 0.027 6.54 36.29 13.93
3/13/2021 9:00:00 AM 1.86 35.348 0.029 6.6 49.41 13.93
3/13/2021 9:15:00 AM 1.9 35.42 0.029 6.6 30.83 13.94
3/13/2021 9:30:00 AM 1.95 35.51 0.029 6.6 41.84 13.93
3/13/2021 9:45:00 AM 2.01 35.618 0.029 6.6 40.23 13.92
3/13/2021 10:00:00 AM 2.08 35.744 0.029 6.61 36.09 13.91
3/13/2021 10:15:00 AM 2.17 35.906 0.029 6.61 44.08 13.89
3/13/2021 10:30:00 AM 2.26 36.068 0.029 6.62 36.61 13.87
3/13/2021 10:45:00 AM 2.35 36.23 0.029 6.62 29.87 13.84
3/13/2021 11:00:00 AM 2.44 36.392 0.027 6.59 33.46 13.81
3/13/2021 11:15:00 AM 2.53 36.554 0.029 6.61 47.62 13.79
3/13/2021 11:30:00 AM 2.64 36.752 0.027 6.58 29.1 13.76
3/13/2021 11:45:00 AM 2.75 36.95 0.029 6.63 37.89 13.72
3/13/2021 12:00:00 PM 2.86 37.148 0.029 6.64 36.57 13.68
3/13/2021 12:15:00 PM 2.97 37.346 0.029 6.64 30.82 13.64
3/13/2021 12:30:00 PM 3.09 37.562 0.029 6.64 30.18 13.59
3/13/2021 12:45:00 PM 3.21 37.778 0.029 6.64 28.84 13.56
3/13/2021 1:00:00 PM 3.32 37.976 0.028 6.59 26.36 13.5
3/13/2021 1:15:00 PM 3.43 38.174 0.029 6.65 31.44 13.45
3/13/2021 1:30:00 PM 3.54 38.372 0.029 6.65 32 13.41
3/13/2021 1:45:00 PM 3.66 38.588 0.029 6.63 34.02 13.35
3/13/2021 2:00:00 PM 3.76 38.768 0.029 6.66 33.57 13.31
3/13/2021 2:15:00 PM 3.86 38.948 0.029 6.66 36.2 13.26
3/13/2021 2:30:00 PM 3.95 39.11 0.029 6.66 34.6 13.21
3/13/2021 2:45:00 PM 4.02 39.236 0.029 6.67 38.48 13.17
3/13/2021 3:00:00 PM 4.09 39.362 0.029 6.67 32.22 13.13
3/13/2021 3:15:00 PM 4.15 39.47 0.029 6.67 32.42 13.1
3/13/2021 3:30:00 PM 4.18 39.524 0.029 6.67 32.17 13.07
3/13/2021 3:45:00 PM 4.2 39.56 0.029 6.66 27.95 13.04
3/13/2021 4:00:00 PM 4.21 39.578 0.029 6.66 29.69 13.02
3/13/2021 4:15:00 PM 4.22 39.596 0.029 6.66 30.85 13
3/13/2021 4:30:00 PM 4.21 39.578 0.028 6.61 30.83 12.98
3/13/2021 4:45:00 PM 4.2 39.56 0.029 6.66 35.64 12.97
3/13/2021 5:00:00 PM 4.17 39.506 0.029 6.66 32.89 12.96
3/13/2021 5:15:00 PM 4.14 39.452 0.029 6.66 38.12 12.97
3/13/2021 5:30:00 PM 4.11 39.398 0.029 6.66 56.44 12.96
3/13/2021 5:45:00 PM 4.06 39.308 0.029 6.65 35.04 12.96
3/13/2021 6:00:00 PM 4.01 39.218 0.029 6.6 38.96 12.97
3/13/2021 6:15:00 PM 3.95 39.11 0.029 6.65 33.77 12.98
3/13/2021 6:30:00 PM 3.88 38.984 0.029 6.56 45.98 13
3/13/2021 6:45:00 PM 3.82 38.876 0.029 6.64 45.5 13.02
3/13/2021 7:00:00 PM 3.76 38.768 0.029 6.63 30.19 13.03
3/13/2021 7:15:00 PM 3.69 38.642 0.03 6.64 28.43 13.05
3/13/2021 7:30:00 PM 3.63 38.534 0.03 6.63 31.91 13.07
3/13/2021 7:45:00 PM 3.57 38.426 0.03 6.63 33.95 13.09
3/13/2021 8:00:00 PM 3.51 38.318 0.03 6.56 30.68 13.11
3/13/2021 8:15:00 PM 3.45 38.21 0.03 6.63 40.26 13.13
3/13/2021 8:30:00 PM 3.39 38.102 0.03 6.63 43.46 13.15
3/13/2021 8:45:00 PM 3.32 37.976 0.03 6.63 29.67 13.17
3/13/2021 9:00:00 PM 3.27 37.886 0.03 6.63 26.82 13.19
3/13/2021 9:15:00 PM 3.21 37.778 0.03 6.6 29.92 13.21
3/13/2021 9:30:00 PM 3.16 37.688 0.03 6.63 35.82 13.23
3/13/2021 9:45:00 PM 3.11 37.598 0.03 6.63 33.55 13.24
3/13/2021 10:00:00 PM 3.06 37.508 0.03 6.63 32.38 13.26
3/13/2021 10:15:00 PM 3.02 37.436 0.03 6.63 40.94 13.27
3/13/2021 10:30:00 PM 2.98 37.364 0.03 6.63 39.34 13.29
3/13/2021 10:45:00 PM 2.94 37.292 0.03 6.63 32.61 13.3
3/13/2021 11:00:00 PM 2.91 37.238 0.03 6.63 32.03 13.31
3/13/2021 11:15:00 PM 2.87 37.166 0.03 6.63 33.01 13.33
3/13/2021 11:30:00 PM 2.84 37.112 0.03 6.63 29.43 13.34
3/13/2021 11:45:00 PM 2.81 37.058 0.03 6.63 31.02 13.34
3/14/2021 12:00:00 AM 2.78 37.004 0.03 6.64 28.63 13.35
3/14/2021 12:15:00 AM 2.75 36.95 0.03 6.63 30.41 13.37
3/14/2021 12:30:00 AM 2.72 36.896 0.03 6.55 23.57 13.37
3/14/2021 12:45:00 AM 2.7 36.86 0.029 6.61 31.01 13.39
3/14/2021 1:00:00 AM 2.67 36.806 0.03 6.59 30.88 13.39
3/14/2021 1:15:00 AM 2.64 36.752 0.029 6.59 30.38 13.4
3/14/2021 1:30:00 AM 2.62 36.716 0.029 6.58 29.93 13.41
3/14/2021 1:45:00 AM 2.59 36.662 0.029 6.6 49.06 13.42
3/14/2021 3:00:00 AM 2.49 36.482 0.03 6.65 32.99 13.45
3/14/2021 3:15:00 AM 2.48 36.464 0.031 6.65 33.99 13.45
3/14/2021 3:30:00 AM 2.47 36.446 0.03 6.64 25.81 13.45
3/14/2021 3:45:00 AM 2.45 36.41 0.031 6.64 32.08 13.45
3/14/2021 4:00:00 AM 2.44 36.392 0.031 6.64 28.67 13.46
3/14/2021 4:15:00 AM 2.42 36.356 0.031 6.65 31.74 13.46
3/14/2021 4:30:00 AM 2.4 36.32 0.031 6.65 34.39 13.47
3/14/2021 4:45:00 AM 2.38 36.284 0.031 6.65 27.44 13.47
3/14/2021 5:00:00 AM 2.37 36.266 0.03 6.61 33.86 13.48
3/14/2021 5:15:00 AM 2.35 36.23 0.03 6.61 26.52 13.49
3/14/2021 5:30:00 AM 2.33 36.194 0.031 6.65 27.32 13.49
3/14/2021 5:45:00 AM 2.31 36.158 0.029 6.61 33.26 13.49
3/14/2021 6:00:00 AM 2.3 36.14 0.031 6.65 27.94 13.5
3/14/2021 6:15:00 AM 2.28 36.104 0.031 6.65 26.52 13.51
3/14/2021 6:30:00 AM 2.26 36.068 0.031 6.65 29.23 13.52
3/14/2021 6:45:00 AM 2.24 36.032 0.031 6.66 28.72 13.54
3/14/2021 7:00:00 AM 2.22 35.996 0.031 6.66 26.93 13.55
3/14/2021 7:15:00 AM 2.21 35.978 0.031 6.58 25.8 13.56
3/14/2021 7:30:00 AM 2.2 35.96 0.031 6.67 28.62 13.58
3/14/2021 7:45:00 AM 2.2 35.96 0.031 6.68 24.3 13.6
3/14/2021 8:00:00 AM 2.22 35.996 0.031 6.68 30.53 13.61
3/14/2021 8:15:00 AM 2.24 36.032 0.031 6.68 24.93 13.61
3/14/2021 8:30:00 AM 2.29 36.122 0.031 6.69 26.7 13.61
3/14/2021 8:45:00 AM 2.35 36.23 0.031 6.69 38.2 13.6
3/14/2021 9:00:00 AM 2.42 36.356 0.03 6.65 27.49 13.59
3/14/2021 9:15:00 AM 2.5 36.5 0.031 6.7 30.2 13.57
3/14/2021 9:30:00 AM 2.6 36.68 0.031 6.71 27.05 13.55
3/14/2021 9:45:00 AM 2.72 36.896 0.03 6.66 24.59 13.52
3/14/2021 10:00:00 AM 2.86 37.148 0.03 6.67 27.36 13.5
3/14/2021 10:15:00 AM 2.98 37.364 0.031 6.72 33.78 13.46
3/14/2021 11:30:00 AM 3.11 37.598 0.031 6.73 28.6 13.44
3/14/2021 11:45:00 AM 3.22 37.796 0.031 6.73 27.39 13.4
3/14/2021 12:00:00 PM 3.33 37.994 0.03 6.68 25.82 13.36
3/14/2021 12:15:00 PM 3.46 38.228 0.031 6.73 24.49 13.34
3/14/2021 12:30:00 PM 3.54 38.372 0.031 6.72 38.41 13.31
3/14/2021 12:45:00 PM 3.54 38.372 0.031 6.74 30.2 13.28
3/14/2021 1:00:00 PM 3.64 38.552 0.031 6.74 28.2 13.26
3/14/2021 1:15:00 PM 3.77 38.786 0.031 6.75 24.08 13.21
3/14/2021 1:30:00 PM 3.85 38.93 0.031 6.75 26.33 13.19
3/14/2021 1:45:00 PM 3.98 39.164 0.031 6.75 23.14 13.16
3/14/2021 2:00:00 PM 4.04 39.272 0.031 6.75 26.96 13.1
3/14/2021 2:15:00 PM 4.06 39.308 0.031 6.76 31.4 13.09
3/14/2021 2:30:00 PM 4.17 39.506 0.031 6.76 25.26 13.06
3/14/2021 2:45:00 PM 4.16 39.488 0.031 6.76 28.41 13.02
3/14/2021 3:00:00 PM 4.25 39.65 0.031 6.76 26.66 13.01
3/14/2021 3:15:00 PM 4.36 39.848 0.031 6.77 25.43 12.98
3/14/2021 3:30:00 PM 4.35 39.83 0.032 6.77 25.26 12.96
3/14/2021 3:45:00 PM 4.38 39.884 0.032 6.77 26.81 12.95
3/14/2021 4:00:00 PM 4.38 39.884 0.032 6.76 27.86 12.91
3/14/2021 4:15:00 PM 4.38 39.884 0.032 6.76 28.74 12.9
3/14/2021 4:30:00 PM 4.35 39.83 0.032 6.72 23.05 12.91
3/14/2021 4:45:00 PM 4.37 39.866 0.032 6.76 25.99 12.89
3/14/2021 5:00:00 PM 4.38 39.884 0.032 6.76 32.28 12.88
3/14/2021 5:15:00 PM 4.37 39.866 0.032 6.76 27.68 12.87
3/14/2021 5:30:00 PM 4.4 39.92 0.032 6.76 24.65 12.85
3/14/2021 5:45:00 PM 4.39 39.902 0.032 6.76 26.05 12.86
3/14/2021 6:00:00 PM 4.34 39.812 0.032 6.76 26.25 12.87
3/14/2021 6:15:00 PM 4.25 39.65 0.032 6.76 30.29 12.88
3/14/2021 6:30:00 PM 4.15 39.47 0.032 6.75 25.84 12.9
3/14/2021 6:45:00 PM 4.07 39.326 0.032 6.74 25.09 12.91
3/14/2021 7:00:00 PM 3.97 39.146 0.032 6.74 31.63 12.94
3/14/2021 7:15:00 PM 3.88 38.984 0.032 6.74 35.4 12.95
3/14/2021 7:30:00 PM 3.78 38.804 0.032 6.74 25.93 12.99
3/14/2021 7:45:00 PM 3.68 38.624 0.032 6.74 25.78 13.01
3/14/2021 8:00:00 PM 3.59 38.462 0.032 6.73 25.64 13.04
3/14/2021 8:15:00 PM 3.49 38.282 0.032 6.73 28.34 13.08
3/14/2021 8:30:00 PM 3.41 38.138 0.032 6.72 26.74 13.11
3/14/2021 8:45:00 PM 3.31 37.958 0.032 6.72 26.2 13.15
3/14/2021 9:00:00 PM 3.23 37.814 0.031 6.68 25.95 13.18
3/14/2021 9:15:00 PM 3.14 37.652 0.032 6.72 26.74 13.22
3/14/2021 9:30:00 PM 3.06 37.508 0.032 6.71 28.43 13.25
3/14/2021 9:45:00 PM 2.98 37.364 0.031 6.69 25.15 13.28
3/14/2021 10:00:00 PM 2.89 37.202 0.032 6.7 26.86 13.32
3/14/2021 10:15:00 PM 2.8 37.04 0.032 6.72 25.92 13.35
3/14/2021 10:30:00 PM 2.73 36.914 0.032 6.72 27.08 13.38
3/14/2021 10:45:00 PM 2.66 36.788 0.032 6.72 25.22 13.41
3/14/2021 11:00:00 PM 2.57 36.626 0.031 6.67 27.9 13.45
3/14/2021 11:15:00 PM 2.5 36.5 0.032 6.67 27.6 13.48
3/14/2021 11:30:00 PM 2.43 36.374 0.032 6.72 32.81 13.5
3/14/2021 11:45:00 PM 2.37 36.266 0.031 6.67 37.06 13.53
3/15/2021 12:00:00 AM 2.31 36.158 0.033 6.71 25.37 13.56
3/15/2021 12:15:00 AM 2.25 36.05 0.032 6.71 22.17 13.59
3/15/2021 12:30:00 AM 2.21 35.978 0.033 6.69 24.94 13.61
3/15/2021 12:45:00 AM 2.16 35.888 0.033 6.71 25.61 13.63
3/15/2021 1:00:00 AM 2.1 35.78 0.033 6.71 27.48 13.66
3/15/2021 1:15:00 AM 2.04 35.672 0.031 6.68 25.01 13.68
3/15/2021 1:30:00 AM 1.97 35.546 0.031 6.67 23.22 13.7
3/15/2021 1:45:00 AM 1.91 35.438 0.031 6.67 23.85 13.73
3/15/2021 2:00:00 AM 1.85 35.33 0.033 6.71 24.96 13.75
3/15/2021 2:15:00 AM 1.78 35.204 0.033 6.71 24.71 13.78
3/15/2021 2:30:00 AM 1.73 35.114 0.031 6.67 26.83 13.81
3/15/2021 2:45:00 AM 1.68 35.024 0.033 6.71 25.21 13.83
3/15/2021 3:00:00 AM 1.64 34.952 0.033 6.64 27.93 13.84
3/15/2021 3:15:00 AM 1.58 34.844 0.033 6.71 26.97 13.87
3/15/2021 3:30:00 AM 1.51 34.718 0.033 6.71 24.03 13.9
3/15/2021 3:45:00 AM 1.45 34.61 0.032 6.66 25.95 13.92
3/15/2021 4:00:00 AM 1.39 34.502 0.033 6.71 24.44 13.94
3/15/2021 4:15:00 AM 1.33 34.394 0.033 6.71 24.34 13.97
3/15/2021 4:30:00 AM 1.27 34.286 0.033 6.72 23.35 14
3/15/2021 4:45:00 AM 1.21 34.178 0.032 6.67 22.59 14.01
3/15/2021 5:00:00 AM 1.15 34.07 0.033 6.71 25.54 14.04
3/15/2021 5:15:00 AM 1.1 33.98 0.033 6.71 25.08 14.06
3/15/2021 5:30:00 AM 1.05 33.89 0.033 6.72 23.53 14.09
3/15/2021 5:45:00 AM 1.01 33.818 0.033 6.72 21.84 14.11
3/15/2021 6:00:00 AM 0.97 33.746 0.033 6.71 22.77 14.13
3/15/2021 6:15:00 AM 0.93 33.674 0.033 6.71 23.58 14.15
3/15/2021 6:30:00 AM 0.88 33.584 0.033 6.72 25.89 14.17
3/15/2021 6:45:00 AM 0.83 33.494 0.033 6.72 22.07 14.19
3/15/2021 7:00:00 AM 0.79 33.422 0.033 6.72 25.3 14.21
3/15/2021 7:15:00 AM 0.75 33.35 0.033 6.72 23.34 14.23
3/15/2021 7:30:00 AM 0.73 33.314 0.033 6.72 24.37 14.25
3/15/2021 7:45:00 AM 0.69 33.242 0.032 6.66 21.91 14.28
3/15/2021 8:00:00 AM 0.65 33.17 0.033 6.72 23.6 14.32
3/15/2021 8:15:00 AM 0.6 33.08 0.033 6.72 22.88 14.35
3/15/2021 8:30:00 AM 0.56 33.008 0.033 6.68 23.64 14.38
3/15/2021 8:45:00 AM 0.51 32.918 0.033 6.7 21.46 14.42
3/15/2021 9:00:00 AM 0.51 32.918 0.032 6.69 24.07 14.44
3/15/2021 9:15:00 AM 0.48 32.864 0.033 6.73 22.69 14.47
3/15/2021 9:30:00 AM 0.47 32.846 0.033 6.74 23.43 14.49
3/15/2021 9:45:00 AM 0.49 32.882 0.034 6.74 23.02 14.51
3/15/2021 10:00:00 AM 0.53 32.954 0.034 6.74 22.85 14.51
3/15/2021 10:15:00 AM 0.59 33.062 0.034 6.75 23.03 14.51
3/15/2021 10:30:00 AM 0.66 33.188 0.034 6.76 23.64 14.5
3/15/2021 10:45:00 AM 0.74 33.332 0.032 6.71 23.21 14.47
3/15/2021 11:00:00 AM 0.85 33.53 0.034 6.76 22.45 14.45
3/15/2021 11:15:00 AM 0.98 33.764 0.034 6.72 23.01 14.42
3/15/2021 11:30:00 AM 1.12 34.016 0.034 6.77 23.25 14.38
3/15/2021 11:45:00 AM 1.25 34.25 0.034 6.78 22.83 14.34
3/15/2021 12:00:00 PM 1.37 34.466 0.032 6.74 22.17 14.31
3/15/2021 12:15:00 PM 1.49 34.682 0.034 6.78 23.63 14.27
3/15/2021 12:30:00 PM 1.6 34.88 0.034 6.79 23.01 14.23
3/15/2021 12:45:00 PM 1.74 35.132 0.034 6.79 22.45 14.19
3/15/2021 1:00:00 PM 1.85 35.33 0.034 6.79 23.94 14.15
3/15/2021 1:15:00 PM 1.97 35.546 0.033 6.75 20.63 14.11
3/15/2021 1:30:00 PM 2.08 35.744 0.033 6.76 22.23 14.07
3/15/2021 1:45:00 PM 2.17 35.906 0.034 6.79 24.08 14.03
3/15/2021 2:00:00 PM 2.26 36.068 0.034 6.8 21.75 13.99
3/15/2021 2:15:00 PM 2.35 36.23 0.034 6.81 22.37 13.95
3/15/2021 2:30:00 PM 2.43 36.374 0.033 6.77 22.57 13.91
3/15/2021 2:45:00 PM 2.52 36.536 0.034 6.81 23.26 13.86
3/15/2021 3:00:00 PM 2.59 36.662 0.034 6.76 21.93 13.82
3/15/2021 3:15:00 PM 2.63 36.734 0.034 6.8 22.04 13.8
3/15/2021 3:30:00 PM 2.69 36.842 0.032 6.77 22.03 13.76
3/15/2021 3:45:00 PM 2.74 36.932 0.032 6.76 21.21 13.72
3/15/2021 4:00:00 PM 2.78 37.004 0.033 6.8 21.78 13.69
3/15/2021 4:15:00 PM 2.81 37.058 0.033 6.81 22.96 13.66
3/15/2021 4:30:00 PM 2.84 37.112 0.033 6.81 23.73 13.64
3/15/2021 4:45:00 PM 2.83 37.094 0.034 6.81 22.44 13.61
3/15/2021 5:00:00 PM 2.85 37.13 0.034 6.81 23.16 13.59
3/15/2021 5:15:00 PM 2.85 37.13 0.034 6.8 24.45 13.58
3/15/2021 5:30:00 PM 2.84 37.112 0.034 6.81 24.31 13.56
3/15/2021 5:45:00 PM 2.8 37.04 0.032 6.78 22.28 13.56
3/15/2021 6:00:00 PM 2.77 36.986 0.034 6.74 21.29 13.55
3/15/2021 6:15:00 PM 2.74 36.932 0.033 6.79 24.23 13.54
3/15/2021 6:30:00 PM 2.7 36.86 0.034 6.81 21.92 13.53
3/15/2021 6:45:00 PM 2.64 36.752 0.033 6.77 23.1 13.53
3/15/2021 7:00:00 PM 2.59 36.662 0.034 6.8 23.15 13.53
3/15/2021 7:15:00 PM 2.56 36.608 0.034 6.79 24.68 13.53
3/15/2021 7:30:00 PM 2.5 36.5 0.034 6.79 23.6 13.53
3/15/2021 7:45:00 PM 2.44 36.392 0.034 6.78 23.52 13.55
3/15/2021 8:00:00 PM 2.38 36.284 0.033 6.74 19.84 13.56
3/15/2021 8:15:00 PM 2.31 36.158 0.033 6.73 20.96 13.59
3/15/2021 8:30:00 PM 2.25 36.05 0.034 6.77 22.61 13.61
3/15/2021 8:45:00 PM 2.19 35.942 0.034 6.77 22.74 13.64
3/15/2021 9:00:00 PM 2.12 35.816 0.034 6.77 22.94 13.67
3/15/2021 9:15:00 PM 2.06 35.708 0.035 6.77 23.24 13.69
3/15/2021 9:30:00 PM 2.01 35.618 0.035 6.77 22.02 13.7
3/15/2021 9:45:00 PM 1.96 35.528 0.033 6.73 23.71 13.72
3/15/2021 10:00:00 PM 1.89 35.402 0.035 6.77 22.61 13.75
3/15/2021 10:15:00 PM 1.83 35.294 0.035 6.77 22.99 13.77
3/15/2021 10:30:00 PM 1.79 35.222 0.033 6.73 23.61 13.79
3/15/2021 10:45:00 PM 1.73 35.114 0.035 6.75 22.56 13.82
3/15/2021 11:00:00 PM 1.68 35.024 0.034 6.74 21.55 13.84
3/15/2021 11:15:00 PM 1.62 34.916 0.035 6.76 22.65 13.86
3/15/2021 11:30:00 PM 1.58 34.844 0.035 6.76 22.17 13.89
3/15/2021 11:45:00 PM 1.53 34.754 0.033 6.72 25.7 13.91
3/16/2021 12:00:00 AM 1.48 34.664 0.035 6.76 22.72 13.93
3/16/2021 12:15:00 AM 1.44 34.592 0.035 6.76 22.58 13.94
3/16/2021 12:30:00 AM 1.41 34.538 0.035 6.76 24.19 13.95
3/16/2021 12:45:00 AM 1.38 34.484 0.035 6.76 21.97 13.97
3/16/2021 1:00:00 AM 1.35 34.43 0.035 6.76 22.03 13.98
3/16/2021 1:15:00 AM 1.33 34.394 0.035 6.76 22.37 13.99
3/16/2021 1:30:00 AM 1.31 34.358 0.035 6.76 21.86 14
3/16/2021 1:45:00 AM 1.3 34.34 0.035 6.76 22.04 14
3/16/2021 2:00:00 AM 1.28 34.304 0.033 6.72 21.53 14
3/16/2021 2:15:00 AM 1.26 34.268 0.035 6.76 21.44 14.02
3/16/2021 2:30:00 AM 1.25 34.25 0.035 6.75 21.63 14.02
3/16/2021 2:45:00 AM 1.24 34.232 0.035 6.76 21.54 14.02
3/16/2021 3:00:00 AM 1.23 34.214 0.035 6.76 22.07 14.02
3/16/2021 3:15:00 AM 1.22 34.196 0.035 6.77 21.71 14.03
3/16/2021 3:30:00 AM 1.21 34.178 0.034 6.72 21.58 14.04
3/16/2021 3:45:00 AM 1.2 34.16 0.035 6.77 22.13 14.04
3/16/2021 4:00:00 AM 1.19 34.142 0.035 6.77 21.67 14.04
3/16/2021 4:15:00 AM 1.19 34.142 0.034 6.72 21.46 14.04
3/16/2021 4:30:00 AM 1.18 34.124 0.035 6.76 21.88 14.03
3/16/2021 4:45:00 AM 1.18 34.124 0.034 6.72 21.6 14.03
3/16/2021 5:00:00 AM 1.17 34.106 0.035 6.77 20.57 14.04
3/16/2021 5:15:00 AM 1.17 34.106 0.035 6.77 22.42 14.04
3/16/2021 5:30:00 AM 1.17 34.106 0.035 6.77 23.13 14.04
3/16/2021 5:45:00 AM 1.17 34.106 0.035 6.77 21.84 14.03
3/16/2021 6:00:00 AM 1.16 34.088 0.035 6.77 21.62 14.03
3/16/2021 6:15:00 AM 1.16 34.088 0.035 6.77 21.32 14.04
3/16/2021 6:30:00 AM 1.16 34.088 0.034 6.73 21.38 14.03
3/16/2021 6:45:00 AM 1.14 34.052 0.035 6.77 21.04 14.03
3/16/2021 7:00:00 AM 1.13 34.034 0.035 6.73 20.65 14.04
3/16/2021 7:15:00 AM 1.12 34.016 0.035 6.73 20.56 14.04
3/16/2021 7:30:00 AM 1.11 33.998 0.035 6.78 21.46 14.05
3/16/2021 7:45:00 AM 1.11 33.998 0.035 6.78 22 14.06
3/16/2021 8:00:00 AM 1.12 34.016 0.035 6.78 20.93 14.07
3/16/2021 8:15:00 AM 1.12 34.016 0.035 6.79 20.73 14.08
3/16/2021 8:30:00 AM 1.12 34.016 0.035 6.79 20.11 14.09
3/16/2021 8:45:00 AM 1.13 34.034 0.035 6.79 20.82 14.1
3/16/2021 9:00:00 AM 1.15 34.07 0.035 6.8 22.09 14.12
3/16/2021 9:15:00 AM 1.17 34.106 0.036 6.8 21.88 14.12
3/16/2021 9:30:00 AM 1.19 34.142 0.034 6.77 19.4 14.13
3/16/2021 9:45:00 AM 1.22 34.196 0.035 6.81 20.8 14.14
3/16/2021 10:00:00 AM 1.24 34.232 0.036 6.82 21.15 14.14
3/16/2021 10:15:00 AM 1.29 34.322 0.035 6.82 20.65 14.15
3/16/2021 10:30:00 AM 1.33 34.394 0.036 6.82 21.34 14.14
3/16/2021 10:45:00 AM 1.36 34.448 0.035 6.82 20.88 14.13
3/16/2021 11:00:00 AM 1.38 34.484 0.036 6.83 20.33 14.12
3/16/2021 11:15:00 AM 1.44 34.592 0.034 6.79 19.92 14.12
3/16/2021 11:30:00 AM 1.48 34.664 0.036 6.83 20.04 14.1
3/16/2021 11:45:00 AM 1.49 34.682 0.036 6.83 20.15 14.08
3/16/2021 12:00:00 PM 1.51 34.718 0.036 6.82 20.48 14.08
3/16/2021 12:15:00 PM 1.53 34.754 0.036 6.83 20.33 14.06
3/16/2021 12:30:00 PM 1.57 34.826 0.036 6.84 20.57 14.06
3/16/2021 12:45:00 PM 1.61 34.898 0.036 6.84 20.17 14.04
3/16/2021 1:00:00 PM 1.65 34.97 0.036 6.84 20.33 14.04
3/16/2021 1:15:00 PM 1.68 35.024 0.036 6.84 20.51 14.02
3/16/2021 1:30:00 PM 1.73 35.114 0.034 6.8 22.34 14
3/16/2021 1:45:00 PM 1.76 35.168 0.034 6.8 20.75 13.97
3/16/2021 2:00:00 PM 1.8 35.24 0.036 6.85 20.24 13.96
3/16/2021 2:15:00 PM 1.83 35.294 0.036 6.85 19.85 13.94
3/16/2021 2:30:00 PM 1.85 35.33 0.036 6.85 20.55 13.93
3/16/2021 2:45:00 PM 1.89 35.402 0.036 6.85 19.24 13.92
3/16/2021 3:00:00 PM 1.93 35.474 0.034 6.81 21.03 13.9
3/16/2021 3:15:00 PM 1.97 35.546 0.035 6.83 20.83 13.88
3/16/2021 3:30:00 PM 2.01 35.618 0.036 6.85 19.72 13.87
3/16/2021 3:45:00 PM 2.02 35.636 0.034 6.82 20.6 13.85
3/16/2021 4:00:00 PM 2.05 35.69 0.035 6.82 19.5 13.83
3/16/2021 4:15:00 PM 2.07 35.726 0.036 6.85 19.22 13.81
3/16/2021 4:30:00 PM 2.07 35.726 0.036 6.84 19.1 13.8
3/16/2021 4:45:00 PM 2.07 35.726 0.036 6.85 18.95 13.79
3/16/2021 5:00:00 PM 2.07 35.726 0.036 6.8 21.12 13.77
3/16/2021 5:15:00 PM 2.07 35.726 0.036 6.85 20.6 13.76
3/16/2021 5:30:00 PM 2.08 35.744 0.036 6.85 19.87 13.76
3/16/2021 5:45:00 PM 2.09 35.762 0.036 6.85 19.72 13.75
3/16/2021 6:00:00 PM 2.09 35.762 0.036 6.84 19.84 13.73
3/16/2021 6:15:00 PM 2.09 35.762 0.036 6.85 20.44 13.73
3/16/2021 6:30:00 PM 2.09 35.762 0.035 6.8 21.37 13.72
3/16/2021 6:45:00 PM 2.09 35.762 0.036 6.82 19.25 13.7
3/16/2021 7:00:00 PM 2.07 35.726 0.036 6.81 19.18 13.69
3/16/2021 7:15:00 PM 2.06 35.708 0.036 6.81 18.98 13.67
3/16/2021 7:30:00 PM 2.05 35.69 0.036 6.83 19.45 13.66
3/16/2021 7:45:00 PM 2.05 35.69 0.035 6.79 20.89 13.65
3/16/2021 8:00:00 PM 2.04 35.672 0.036 6.82 20.87 13.64
3/16/2021 8:15:00 PM 2.04 35.672 0.036 6.81 19.78 13.64
3/16/2021 8:30:00 PM 2.03 35.654 0.035 6.78 21.89 13.64
3/16/2021 8:45:00 PM 2.03 35.654 0.035 6.78 18.89 13.63
3/16/2021 9:00:00 PM 2.03 35.654 0.037 6.81 19.62 13.63
3/16/2021 9:15:00 PM 2.03 35.654 0.035 6.77 20.05 13.63
3/16/2021 9:30:00 PM 2.03 35.654 0.035 6.77 21.55 13.63
3/16/2021 9:45:00 PM 2.02 35.636 0.036 6.78 20.08 13.63
3/16/2021 10:00:00 PM 2.02 35.636 0.037 6.81 20.06 13.64
3/16/2021 10:15:00 PM 2.02 35.636 0.035 6.78 18.8 13.64
3/16/2021 10:30:00 PM 2.01 35.618 0.036 6.78 19.62 13.64
3/16/2021 10:45:00 PM 2.01 35.618 0.037 6.81 20.56 13.64
3/16/2021 11:00:00 PM 2.01 35.618 0.037 6.79 19.34 13.64
3/16/2021 11:15:00 PM 2.01 35.618 0.037 6.81 20.99 13.64
3/16/2021 11:30:00 PM 2.01 35.618 0.037 6.79 19.32 13.65
3/16/2021 11:45:00 PM 2 35.6 0.037 6.81 20.32 13.65
3/17/2021 12:00:00 AM 2 35.6 0.037 6.8 19.89 13.64
3/17/2021 12:15:00 AM 2 35.6 0.037 6.81 19.4 13.65
3/17/2021 12:30:00 AM 2 35.6 0.037 6.81 20.47 13.64
3/17/2021 12:45:00 AM 2 35.6 0.037 6.81 20.76 13.65
3/17/2021 1:00:00 AM 2 35.6 0.035 6.77 19.78 13.64
3/17/2021 1:15:00 AM 2 35.6 0.037 6.81 20.19 13.63
3/17/2021 1:30:00 AM 2 35.6 0.036 6.78 21.95 13.64
3/17/2021 1:45:00 AM 2 35.6 0.037 6.81 20.14 13.63
3/17/2021 2:00:00 AM 2 35.6 0.036 6.78 18.82 13.63
3/17/2021 2:15:00 AM 2 35.6 0.037 6.81 19.52 13.63
3/17/2021 2:30:00 AM 2.01 35.618 0.036 6.78 20.94 13.63
3/17/2021 2:45:00 AM 2.01 35.618 0.037 6.81 19.88 13.64
3/17/2021 3:00:00 AM 2.01 35.618 0.037 6.81 20.01 13.63
3/17/2021 3:15:00 AM 2.01 35.618 0.037 6.79 19.56 13.63
3/17/2021 3:30:00 AM 2.01 35.618 0.037 6.81 20.43 13.63
3/17/2021 3:45:00 AM 2.02 35.636 0.037 6.81 18.58 13.62
3/17/2021 4:00:00 AM 2.02 35.636 0.036 6.78 19.45 13.62
3/17/2021 4:15:00 AM 2.02 35.636 0.037 6.81 19.73 13.62
3/17/2021 4:30:00 AM 2.03 35.654 0.037 6.77 19.48 13.62
3/17/2021 4:45:00 AM 2.03 35.654 0.037 6.82 20.1 13.62
3/17/2021 5:00:00 AM 2.04 35.672 0.037 6.82 19.57 13.62
3/17/2021 5:15:00 AM 2.04 35.672 0.037 6.82 20.51 13.61
3/17/2021 5:30:00 AM 2.05 35.69 0.036 6.78 19.43 13.61
3/17/2021 5:45:00 AM 2.06 35.708 0.037 6.82 19.55 13.61
3/17/2021 6:00:00 AM 2.06 35.708 0.036 6.79 18.04 13.61
3/17/2021 6:15:00 AM 2.07 35.726 0.036 6.79 18.48 13.61
3/17/2021 6:30:00 AM 2.08 35.744 0.037 6.82 19.17 13.61
3/17/2021 6:45:00 AM 2.08 35.744 0.037 6.82 19.52 13.61
3/17/2021 7:00:00 AM 2.09 35.762 0.036 6.78 23.93 13.6
3/17/2021 7:15:00 AM 2.1 35.78 0.036 6.78 20.8 13.61
3/17/2021 7:30:00 AM 2.1 35.78 0.037 6.82 19.51 13.61
3/17/2021 7:45:00 AM 2.11 35.798 0.037 6.82 19.95 13.62
3/17/2021 8:00:00 AM 2.12 35.816 0.037 6.83 20.15 13.63
3/17/2021 8:15:00 AM 2.14 35.852 0.037 6.83 20.07 13.64
3/17/2021 8:30:00 AM 2.16 35.888 0.037 6.84 19.87 13.67
3/17/2021 8:45:00 AM 2.18 35.924 0.037 6.84 20.45 13.68
3/17/2021 9:00:00 AM 2.21 35.978 0.037 6.85 18.95 13.7
3/17/2021 9:15:00 AM 2.24 36.032 0.037 6.85 18.16 13.7
3/17/2021 9:30:00 AM 2.28 36.104 0.037 6.86 19.18 13.7
3/17/2021 9:45:00 AM 2.32 36.176 0.037 6.86 22.99 13.71
3/17/2021 10:00:00 AM 2.38 36.284 0.037 6.84 19.89 13.7
3/17/2021 10:15:00 AM 2.42 36.356 0.036 6.84 16.8 13.69
3/17/2021 10:30:00 AM 2.46 36.428 0.037 6.88 19.6 13.69
3/17/2021 10:45:00 AM 2.52 36.536 0.037 6.88 19.69 13.68
3/17/2021 11:00:00 AM 2.56 36.608 0.037 6.88 19.57 13.66
3/17/2021 11:15:00 AM 2.6 36.68 0.036 6.85 19.91 13.64
3/17/2021 11:30:00 AM 2.64 36.752 0.035 6.85 18.71 13.64
3/17/2021 11:45:00 AM 2.68 36.824 0.037 6.89 19.15 13.62
3/17/2021 12:00:00 PM 2.74 36.932 0.037 6.89 19.51 13.61
3/17/2021 12:15:00 PM 2.8 37.04 0.037 6.89 19.65 13.59
3/17/2021 12:30:00 PM 2.86 37.148 0.037 6.89 20.14 13.57
3/17/2021 12:45:00 PM 2.92 37.256 0.037 6.83 19.5 13.55
3/17/2021 1:00:00 PM 2.99 37.382 0.037 6.9 19.72 13.54
3/17/2021 1:15:00 PM 3.06 37.508 0.037 6.9 19.97 13.51
3/17/2021 1:30:00 PM 3.13 37.634 0.037 6.85 19.27 13.49
3/17/2021 1:45:00 PM 3.21 37.778 0.037 6.9 19.61 13.46
3/17/2021 2:00:00 PM 3.28 37.904 0.036 6.87 18.56 13.43
3/17/2021 2:15:00 PM 3.38 38.084 0.037 6.91 19.03 13.4
3/17/2021 2:30:00 PM 3.47 38.246 0.037 6.86 18.92 13.37
3/17/2021 2:45:00 PM 3.58 38.444 0.037 6.91 19.65 13.33
3/17/2021 3:00:00 PM 3.67 38.606 0.037 6.89 18.93 13.3
3/17/2021 3:15:00 PM 3.76 38.768 0.037 6.91 19.78 13.27
3/17/2021 3:30:00 PM 3.84 38.912 0.037 6.91 20.6 13.23
3/17/2021 3:45:00 PM 3.92 39.056 0.037 6.92 19.66 13.2
3/17/2021 4:00:00 PM 4.04 39.272 0.037 6.92 19.19 13.17
3/17/2021 4:15:00 PM 4.14 39.452 0.037 6.92 18.91 13.13
3/17/2021 4:30:00 PM 4.21 39.578 0.037 6.92 19.93 13.09
3/17/2021 4:45:00 PM 4.3 39.74 0.037 6.93 19.86 13.06
3/17/2021 5:00:00 PM 4.35 39.83 0.037 6.92 19.18 13.03
3/17/2021 5:15:00 PM 4.34 39.812 0.037 6.92 19.22 13
3/17/2021 5:30:00 PM 4.35 39.83 0.038 6.9 19.09 12.98
3/17/2021 5:45:00 PM 4.34 39.812 0.038 6.92 19.27 12.97
3/17/2021 6:00:00 PM 4.3 39.74 0.038 6.92 19.38 12.97
3/17/2021 6:15:00 PM 4.26 39.668 0.038 6.91 19.92 12.96
3/17/2021 6:30:00 PM 4.26 39.668 0.038 6.91 20.36 12.93
3/17/2021 6:45:00 PM 4.25 39.65 0.038 6.9 20.19 12.89
3/17/2021 7:00:00 PM 4.23 39.614 0.038 6.89 19.36 12.87
3/17/2021 7:15:00 PM 4.21 39.578 0.038 6.89 25.44 12.86
3/17/2021 7:30:00 PM 4.2 39.56 0.038 6.88 19.48 12.84
3/17/2021 7:45:00 PM 4.18 39.524 0.038 6.87 20.21 12.82
3/17/2021 8:00:00 PM 4.17 39.506 0.038 6.87 20.36 12.82
3/17/2021 8:15:00 PM 4.15 39.47 0.038 6.87 19.82 12.82
3/17/2021 8:30:00 PM 4.12 39.416 0.038 6.86 18.58 12.82
3/17/2021 8:45:00 PM 4.09 39.362 0.038 6.86 20.36 12.83
3/17/2021 9:00:00 PM 4.06 39.308 0.038 6.85 20.37 12.84
3/17/2021 9:15:00 PM 4.03 39.254 0.038 6.86 20.78 12.85
3/17/2021 9:30:00 PM 4.01 39.218 0.038 6.86 20.91 12.85
3/17/2021 9:45:00 PM 3.98 39.164 0.038 6.86 21.03 12.87
3/17/2021 10:00:00 PM 3.96 39.128 0.037 6.83 20.72 12.87
3/17/2021 10:15:00 PM 3.94 39.092 0.038 6.86 21.08 12.88
3/17/2021 10:30:00 PM 3.91 39.038 0.038 6.86 20.6 12.89
3/17/2021 10:45:00 PM 3.89 39.002 0.038 6.86 20.46 12.9
3/17/2021 11:00:00 PM 3.87 38.966 0.038 6.86 19.97 12.91
3/17/2021 11:15:00 PM 3.85 38.93 0.038 6.86 20.68 12.92
3/17/2021 11:30:00 PM 3.83 38.894 0.038 6.84 20.76 12.92
3/17/2021 11:45:00 PM 3.81 38.858 0.038 6.84 20.69 12.94
3/18/2021 12:00:00 AM 3.79 38.822 0.038 6.85 21.04 12.94
3/18/2021 12:15:00 AM 3.77 38.786 0.038 6.85 27.56 12.94
3/18/2021 12:30:00 AM 3.75 38.75 0.038 6.85 21.6 12.95
3/18/2021 12:45:00 AM 3.74 38.732 0.038 6.86 21.43 12.95
3/18/2021 1:00:00 AM 3.72 38.696 0.038 6.85 20.18 12.95
3/18/2021 1:15:00 AM 3.71 38.678 0.038 6.85 19.49 12.96
3/18/2021 1:30:00 AM 3.7 38.66 0.038 6.86 19.8 12.96
3/18/2021 1:45:00 AM 3.69 38.642 0.038 6.85 19.05 12.96
3/18/2021 2:00:00 AM 3.68 38.624 0.038 6.86 20.45 12.97
3/18/2021 2:15:00 AM 3.67 38.606 0.038 6.86 18.73 12.96
3/18/2021 2:30:00 AM 3.66 38.588 0.038 6.85 19.59 12.97
3/18/2021 2:45:00 AM 3.66 38.588 0.038 6.85 20.26 12.96
3/18/2021 3:00:00 AM 3.65 38.57 0.038 6.85 19.81 12.97
3/18/2021 3:15:00 AM 3.64 38.552 0.038 6.85 20.54 12.97
3/18/2021 3:30:00 AM 3.63 38.534 0.038 6.85 19.41 12.97
3/18/2021 3:45:00 AM 3.63 38.534 0.038 6.85 20.4 12.97
3/18/2021 4:00:00 AM 3.62 38.516 0.038 6.85 20.02 12.97
3/18/2021 4:15:00 AM 3.61 38.498 0.038 6.85 19.64 12.97
3/18/2021 4:30:00 AM 3.61 38.498 0.038 6.84 19.32 12.97
3/18/2021 4:45:00 AM 3.6 38.48 0.038 6.85 20.7 12.97
3/18/2021 5:00:00 AM 3.6 38.48 0.038 6.85 19.19 12.97
3/18/2021 5:15:00 AM 3.59 38.462 0.037 6.81 26.6 12.97
3/18/2021 5:30:00 AM 3.59 38.462 0.038 6.85 20.3 12.97
3/18/2021 5:45:00 AM 3.58 38.444 0.037 6.81 20.22 12.97
3/18/2021 6:00:00 AM 3.58 38.444 0.039 6.85 18.89 12.97
3/18/2021 6:15:00 AM 3.58 38.444 0.039 6.85 19.53 12.97
3/18/2021 6:30:00 AM 3.58 38.444 0.039 6.85 19.33 12.97
3/18/2021 6:45:00 AM 3.58 38.444 0.039 6.85 20.15 12.97
3/18/2021 7:00:00 AM 3.58 38.444 0.039 6.85 20.08 12.97
3/18/2021 7:15:00 AM 3.57 38.426 0.037 6.82 20.59 12.97
3/18/2021 7:30:00 AM 3.57 38.426 0.039 6.85 19.72 12.97
3/18/2021 7:45:00 AM 3.57 38.426 0.039 6.85 22.03 12.98
3/18/2021 8:00:00 AM 3.57 38.426 0.039 6.85 20.01 12.98
3/18/2021 8:15:00 AM 3.57 38.426 0.038 6.85 19.52 12.99
3/18/2021 8:30:00 AM 3.57 38.426 0.038 6.83 19.71 13
3/18/2021 8:45:00 AM 3.58 38.444 0.037 6.83 22.41 13.01
3/18/2021 9:00:00 AM 3.58 38.444 0.038 6.85 19.21 13.02
3/18/2021 9:15:00 AM 3.59 38.462 0.038 6.86 19.74 13.04
3/18/2021 9:30:00 AM 3.6 38.48 0.038 6.86 19.34 13.05
3/18/2021 9:45:00 AM 3.61 38.498 0.038 6.86 19.2 13.06
3/18/2021 10:00:00 AM 3.62 38.516 0.037 6.85 20.16 13.07
3/18/2021 10:15:00 AM 3.63 38.534 0.038 6.88 19.17 13.07
3/18/2021 10:30:00 AM 3.65 38.57 0.038 6.88 19.9 13.07
3/18/2021 10:45:00 AM 3.66 38.588 0.038 6.89 19.88 13.06
3/18/2021 11:00:00 AM 3.67 38.606 0.039 6.89 20.26 13.07
3/18/2021 11:15:00 AM 3.69 38.642 0.039 6.9 19.92 13.07
3/18/2021 11:30:00 AM 3.71 38.678 0.04 6.91 20.54 13.07
3/18/2021 11:45:00 AM 3.74 38.732 0.041 6.92 21.55 13.07
3/18/2021 12:00:00 PM 3.77 38.786 0.043 6.94 21.19 13.08
3/18/2021 12:15:00 PM 3.79 38.822 0.045 6.96 29.7 13.07
3/18/2021 12:30:00 PM 3.83 38.894 0.047 6.98 20.17 13.07
3/18/2021 12:45:00 PM 3.86 38.948 0.048 7 23.56 13.05
3/18/2021 1:00:00 PM 3.9 39.02 0.049 7.02 24.17 13.05
3/18/2021 1:15:00 PM 3.94 39.092 0.05 7.03 26.08 13.04
3/18/2021 1:30:00 PM 3.98 39.164 0.051 7.04 27.59 13.02
3/18/2021 1:45:00 PM 4.01 39.218 0.051 7.05 26.54 13
3/18/2021 2:00:00 PM 4.05 39.29 0.052 7.05 29.59 12.98
3/18/2021 2:15:00 PM 4.09 39.362 0.051 7 31.53 12.97
3/18/2021 2:30:00 PM 4.12 39.416 0.051 7.04 35.62 12.94
3/18/2021 2:45:00 PM 4.13 39.434 0.048 7.01 31.38 12.92
3/18/2021 3:00:00 PM 4.14 39.452 0.049 7.02 39.98 12.89
3/18/2021 3:15:00 PM 4.15 39.47 0.048 7.01 38.48 12.89
3/18/2021 3:30:00 PM 4.15 39.47 0.046 6.99 28.42 12.89
3/18/2021 3:45:00 PM 4.14 39.452 0.045 6.99 50.99 12.87
3/18/2021 4:00:00 PM 4.13 39.434 0.044 6.98 45.6 12.87
3/18/2021 4:15:00 PM 4.12 39.416 0.043 6.96 47.38 12.87
3/18/2021 4:30:00 PM 4.11 39.398 0.043 6.95 43.9 12.87
3/18/2021 4:45:00 PM 4.1 39.38 0.042 6.94 37.32 12.87
3/18/2021 5:00:00 PM 4.1 39.38 0.042 6.93 50.78 12.86
3/18/2021 5:15:00 PM 4.09 39.362 0.042 6.89 45.16 12.86
3/18/2021 5:30:00 PM 4.08 39.344 0.042 6.91 42.99 12.86
3/18/2021 5:45:00 PM 4.08 39.344 0.041 6.9 68.4 12.87
3/18/2021 6:00:00 PM 4.07 39.326 0.041 6.85 49.52 12.87
3/18/2021 6:15:00 PM 4.06 39.308 0.04 6.88 48.15 12.87
3/18/2021 6:30:00 PM 4.04 39.272 0.04 6.87 52.24 12.87
3/18/2021 6:45:00 PM 4.03 39.254 0.037 6.83 55.84 12.88
3/18/2021 7:00:00 PM 4 39.2 0.039 6.85 47.33 12.88
3/18/2021 7:15:00 PM 3.98 39.164 0.038 6.84 46.59 12.9
3/18/2021 7:30:00 PM 3.96 39.128 0.038 6.84 59.84 12.9
3/18/2021 7:45:00 PM 3.93 39.074 0.038 6.83 53.78 12.91
3/18/2021 8:00:00 PM 3.91 39.038 0.037 6.82 49.39 12.92
3/18/2021 8:15:00 PM 3.89 39.002 0.037 6.81 51.67 12.93
3/18/2021 8:30:00 PM 3.86 38.948 0.037 6.8 38.21 12.93
3/18/2021 8:45:00 PM 3.84 38.912 0.036 6.79 47.78 12.94
3/18/2021 9:00:00 PM 3.82 38.876 0.036 6.77 43.97 12.94
3/18/2021 9:15:00 PM 3.8 38.84 0.036 6.77 47.19 12.95
3/18/2021 9:30:00 PM 3.78 38.804 0.036 6.76 44.62 12.96
3/18/2021 9:45:00 PM 3.76 38.768 0.035 6.75 47.09 12.97
3/18/2021 10:00:00 PM 3.74 38.732 0.035 6.75 46.16 12.97
3/18/2021 10:15:00 PM 3.72 38.696 0.035 6.74 50.43 12.98
3/18/2021 10:30:00 PM 3.69 38.642 0.035 6.74 37.35 12.99
3/18/2021 10:45:00 PM 3.67 38.606 0.035 6.74 46.59 13
3/18/2021 11:00:00 PM 3.64 38.552 0.035 6.73 45.17 13.01
3/18/2021 11:15:00 PM 3.61 38.498 0.035 6.73 46.74 13.02
3/18/2021 11:30:00 PM 3.58 38.444 0.034 6.72 47.11 13.04
3/18/2021 11:45:00 PM 3.54 38.372 0.034 6.72 34.66 13.05
3/19/2021 12:00:00 AM 3.51 38.318 0.034 6.72 34.96 13.06
3/19/2021 12:15:00 AM 3.47 38.246 0.034 6.71 46.57 13.08
3/19/2021 12:30:00 AM 3.44 38.192 0.032 6.66 36.77 13.09
3/19/2021 12:45:00 AM 3.4 38.12 0.034 6.7 34.92 13.1
3/19/2021 1:00:00 AM 3.36 38.048 0.034 6.7 34.83 13.12
3/19/2021 1:15:00 AM 3.32 37.976 0.032 6.66 36.13 13.14
3/19/2021 1:30:00 AM 3.28 37.904 0.033 6.68 40.05 13.15
3/19/2021 1:45:00 AM 3.24 37.832 0.034 6.69 32.57 13.17
3/19/2021 2:00:00 AM 3.2 37.76 0.033 6.7 37.63 13.19
3/19/2021 2:15:00 AM 3.15 37.67 0.033 6.69 32.32 13.21
3/19/2021 2:30:00 AM 3.11 37.598 0.033 6.69 36.28 13.22
3/19/2021 2:45:00 AM 3.06 37.508 0.033 6.67 36.72 13.25
3/19/2021 3:00:00 AM 3.01 37.418 0.032 6.66 35.64 13.26
3/19/2021 3:15:00 AM 2.96 37.328 0.033 6.69 47.49 13.28
3/19/2021 3:30:00 AM 2.91 37.238 0.033 6.68 30.82 13.3
3/19/2021 3:45:00 AM 2.85 37.13 0.033 6.68 37.37 13.32
3/19/2021 4:00:00 AM 2.79 37.022 0.033 6.68 30.01 13.34
3/19/2021 4:15:00 AM 2.72 36.896 0.033 6.68 29.17 13.37
3/19/2021 4:30:00 AM 2.67 36.806 0.033 6.59 48.92 13.39
3/19/2021 4:45:00 AM 2.6 36.68 0.031 6.64 41.82 13.42
3/19/2021 5:00:00 AM 2.53 36.554 0.031 6.63 31.84 13.45
3/19/2021 5:15:00 AM 2.46 36.428 0.032 6.67 31.57 13.47
3/19/2021 5:30:00 AM 2.41 36.338 0.032 6.67 34.21 13.5
3/19/2021 5:45:00 AM 2.33 36.194 0.031 6.59 36.22 13.53
3/19/2021 6:00:00 AM 2.28 36.104 0.032 6.66 30.29 13.56
3/19/2021 6:15:00 AM 2.21 35.978 0.032 6.66 30.05 13.58
3/19/2021 6:30:00 AM 2.15 35.87 0.032 6.67 37.04 13.61
3/19/2021 6:45:00 AM 2.09 35.762 0.032 6.59 36.22 13.64
3/19/2021 7:00:00 AM 2.03 35.654 0.032 6.66 29.97 13.67
3/19/2021 7:15:00 AM 1.96 35.528 0.031 6.62 29.62 13.7
3/19/2021 7:30:00 AM 1.9 35.42 0.032 6.66 36.09 13.73
3/19/2021 7:45:00 AM 1.86 35.348 0.032 6.66 34.16 13.75
3/19/2021 8:00:00 AM 1.8 35.24 0.03 6.47 37.3 13.79
3/19/2021 8:15:00 AM 1.74 35.132 0.032 6.66 29.94 13.83
3/19/2021 8:30:00 AM 1.7 35.06 0.032 6.66 33.06 13.86
3/19/2021 8:45:00 AM 1.69 35.042 0.03 6.58 30.62 13.9
3/19/2021 9:00:00 AM 1.67 35.006 0.032 6.67 32.06 13.92
3/19/2021 9:15:00 AM 1.65 34.97 0.03 6.6 30.01 13.95
3/19/2021 9:30:00 AM 1.62 34.916 0.031 6.68 30.96 13.96
3/19/2021 9:45:00 AM 1.63 34.934 0.03 6.66 35.15 13.98
3/19/2021 10:00:00 AM 1.63 34.934 0.031 6.64 24.15 13.99
3/19/2021 10:15:00 AM 1.65 34.97 0.031 6.68 44.1 14
3/19/2021 10:30:00 AM 1.69 35.042 0.03 6.63 28.26 14
3/19/2021 10:45:00 AM 1.76 35.168 0.031 6.69 26.28 14
3/19/2021 11:00:00 AM 1.84 35.312 0.031 6.68 24.8 13.99
3/19/2021 11:15:00 AM 1.93 35.474 0.03 6.66 27.37 13.97
3/19/2021 11:30:00 AM 2.02 35.636 0.03 6.63 28.42 13.96
3/19/2021 11:45:00 AM 2.1 35.78 0.03 6.62 25.21 13.94
3/19/2021 12:00:00 PM 2.19 35.942 0.031 6.7 25.19 13.92
3/19/2021 12:15:00 PM 2.28 36.104 0.031 6.71 32.61 13.89
3/19/2021 12:30:00 PM 2.38 36.284 0.03 6.65 40.55 13.86
3/19/2021 12:45:00 PM 2.5 36.5 0.031 6.71 24.07 13.83
3/19/2021 1:00:00 PM 2.6 36.68 0.031 6.71 35.07 13.8
3/19/2021 1:15:00 PM 2.71 36.878 0.031 6.71 40.19 13.76
3/19/2021 1:30:00 PM 2.82 37.076 0.031 6.72 29.81 13.72
3/19/2021 1:45:00 PM 2.95 37.31 0.031 6.72 31.18 13.67
3/19/2021 2:00:00 PM 3.07 37.526 0.031 6.68 23.59 13.63
3/19/2021 2:15:00 PM 3.17 37.706 0.031 6.73 26.29 13.59
3/19/2021 2:30:00 PM 3.27 37.886 0.03 6.66 28.21 13.55
3/19/2021 2:45:00 PM 3.38 38.084 0.03 6.72 26.58 13.5
3/19/2021 3:00:00 PM 3.5 38.3 0.03 6.71 30.44 13.45
3/19/2021 3:15:00 PM 3.57 38.426 0.031 6.74 28.35 13.41
3/19/2021 3:30:00 PM 3.66 38.588 0.031 6.74 22.77 13.37
3/19/2021 3:45:00 PM 3.73 38.714 0.031 6.74 22.71 13.33
3/19/2021 4:00:00 PM 3.78 38.804 0.031 6.74 30.15 13.3
3/19/2021 4:15:00 PM 3.82 38.876 0.031 6.74 31.61 13.28
3/19/2021 4:30:00 PM 3.86 38.948 0.031 6.74 28.45 13.25
3/19/2021 4:45:00 PM 3.88 38.984 0.031 6.74 30.01 13.23
3/19/2021 5:00:00 PM 3.88 38.984 0.031 6.75 24.14 13.2
3/19/2021 5:15:00 PM 3.87 38.966 0.031 6.74 26.54 13.19
3/19/2021 5:30:00 PM 3.85 38.93 0.03 6.67 30.35 13.18
3/19/2021 5:45:00 PM 3.83 38.894 0.031 6.74 26.96 13.18
3/19/2021 6:00:00 PM 3.79 38.822 0.031 6.74 28.43 13.18
3/19/2021 6:15:00 PM 3.75 38.75 0.031 6.74 30.53 13.18
3/19/2021 6:30:00 PM 3.7 38.66 0.031 6.73 27.61 13.19
3/19/2021 6:45:00 PM 3.63 38.534 0.031 6.73 28.27 13.2
3/19/2021 7:00:00 PM 3.57 38.426 0.03 6.7 24.88 13.21
3/19/2021 7:15:00 PM 3.5 38.3 0.031 6.67 33.33 13.23
3/19/2021 7:30:00 PM 3.42 38.156 0.031 6.72 31.64 13.25
3/19/2021 7:45:00 PM 3.34 38.012 0.031 6.72 27.44 13.27
3/19/2021 8:00:00 PM 3.27 37.886 0.03 6.67 27.36 13.29
3/19/2021 8:15:00 PM 3.2 37.76 0.03 6.69 27.54 13.32
3/19/2021 8:30:00 PM 3.12 37.616 0.031 6.71 27.22 13.35
3/19/2021 8:45:00 PM 3.06 37.508 0.031 6.71 28.48 13.37
3/19/2021 9:00:00 PM 2.98 37.364 0.03 6.68 24.58 13.4
3/19/2021 9:15:00 PM 2.91 37.238 0.031 6.7 29.42 13.43
3/19/2021 9:30:00 PM 2.84 37.112 0.031 6.7 28.52 13.45
3/19/2021 9:45:00 PM 2.78 37.004 0.031 6.7 29.79 13.48
3/19/2021 10:00:00 PM 2.71 36.878 0.03 6.65 25.99 13.51
3/19/2021 10:15:00 PM 2.66 36.788 0.031 6.66 27.05 13.53
3/19/2021 10:30:00 PM 2.6 36.68 0.03 6.68 22.29 13.56
3/19/2021 10:45:00 PM 2.55 36.59 0.03 6.65 21.6 13.58
3/19/2021 11:00:00 PM 2.5 36.5 0.032 6.7 26.01 13.6
3/19/2021 11:15:00 PM 2.45 36.41 0.032 6.7 25.02 13.62
3/19/2021 11:30:00 PM 2.41 36.338 0.032 6.7 26.53 13.63
3/19/2021 11:45:00 PM 2.37 36.266 0.032 6.7 23.14 13.65
3/20/2021 12:00:00 AM 2.33 36.194 0.03 6.63 24.82 13.66
3/20/2021 12:15:00 AM 2.29 36.122 0.032 6.7 23.15 13.69
3/20/2021 12:30:00 AM 2.25 36.05 0.032 6.7 27.04 13.71
3/20/2021 12:45:00 AM 2.21 35.978 0.032 6.7 26.51 13.73
3/20/2021 1:00:00 AM 2.17 35.906 0.032 6.7 26.94 13.74
3/20/2021 1:15:00 AM 2.13 35.834 0.032 6.7 25.38 13.76
3/20/2021 1:30:00 AM 2.1 35.78 0.03 6.65 38.5 13.77
3/20/2021 1:45:00 AM 2.06 35.708 0.032 6.7 23.96 13.78
3/20/2021 2:00:00 AM 2.03 35.654 0.032 6.7 36.31 13.8
3/20/2021 2:15:00 AM 2 35.6 0.03 6.68 20.89 13.82
3/20/2021 2:30:00 AM 1.97 35.546 0.031 6.66 23.38 13.83
3/20/2021 2:45:00 AM 1.94 35.492 0.03 6.58 28.55 13.84
3/20/2021 3:00:00 AM 1.9 35.42 0.032 6.7 23.94 13.86
3/20/2021 3:15:00 AM 1.87 35.366 0.032 6.68 23.25 13.87
3/20/2021 3:30:00 AM 1.83 35.294 0.032 6.54 28.72 13.89
3/20/2021 3:45:00 AM 1.8 35.24 0.03 6.66 25.32 13.9
3/20/2021 4:00:00 AM 1.76 35.168 0.032 6.7 23.93 13.92
3/20/2021 4:15:00 AM 1.72 35.096 0.032 6.7 22.78 13.93
3/20/2021 4:30:00 AM 1.69 35.042 0.032 6.7 23.43 13.95
3/20/2021 4:45:00 AM 1.65 34.97 0.031 6.68 26.13 13.96
3/20/2021 5:00:00 AM 1.61 34.898 0.032 6.7 23.46 13.98
3/20/2021 5:15:00 AM 1.57 34.826 0.032 6.7 22.84 13.99
3/20/2021 5:30:00 AM 1.53 34.754 0.032 6.71 23.99 14.01
3/20/2021 5:45:00 AM 1.5 34.7 0.032 6.7 25.05 14.04
3/20/2021 6:00:00 AM 1.45 34.61 0.032 6.63 24.46 14.05
3/20/2021 6:15:00 AM 1.42 34.556 0.031 6.67 22.26 14.06
3/20/2021 6:30:00 AM 1.38 34.484 0.032 6.7 22.07 14.09
3/20/2021 6:45:00 AM 1.35 34.43 0.032 6.7 26.91 14.1
3/20/2021 7:00:00 AM 1.31 34.358 0.031 6.65 24.99 14.11
3/20/2021 7:15:00 AM 1.28 34.304 0.032 6.71 24.22 14.14
3/20/2021 7:30:00 AM 1.25 34.25 0.031 6.65 20.92 14.15
3/20/2021 7:45:00 AM 1.22 34.196 0.032 6.71 21.43 14.18
3/20/2021 8:00:00 AM 1.2 34.16 0.032 6.72 23.99 14.2
3/20/2021 8:15:00 AM 1.18 34.124 0.032 6.68 20.5 14.23
3/20/2021 8:30:00 AM 1.17 34.106 0.031 6.68 24.02 14.25
3/20/2021 8:45:00 AM 1.17 34.106 0.032 6.72 21.06 14.27
3/20/2021 9:00:00 AM 1.18 34.124 0.031 6.69 23.45 14.29
3/20/2021 9:15:00 AM 1.21 34.178 0.032 6.74 21.69 14.29
3/20/2021 9:30:00 AM 1.25 34.25 0.032 6.74 20.8 14.3
3/20/2021 9:45:00 AM 1.31 34.358 0.032 6.7 22.27 14.29
3/20/2021 10:00:00 AM 1.38 34.484 0.032 6.75 21.48 14.28
3/20/2021 10:15:00 AM 1.48 34.664 0.032 6.75 22.84 14.26
3/20/2021 10:30:00 AM 1.59 34.862 0.032 6.76 28.26 14.23
3/20/2021 10:45:00 AM 1.73 35.114 0.033 6.76 19.42 14.19
3/20/2021 11:00:00 AM 1.89 35.402 0.033 6.77 19.79 14.16
3/20/2021 11:15:00 AM 2.05 35.69 0.033 6.77 22.7 14.1
3/20/2021 11:30:00 AM 2.22 35.996 0.033 6.75 22.6 14.06
3/20/2021 11:45:00 AM 2.4 36.32 0.033 6.78 21.91 14
3/20/2021 12:00:00 PM 2.58 36.644 0.033 6.78 21.45 13.94
3/20/2021 12:15:00 PM 2.75 36.95 0.031 6.74 29.32 13.88
3/20/2021 12:30:00 PM 2.92 37.256 0.033 6.79 21.91 13.83
3/20/2021 12:45:00 PM 3.08 37.544 0.031 6.74 24.03 13.77
3/20/2021 1:00:00 PM 3.25 37.85 0.033 6.8 19.28 13.71
3/20/2021 1:15:00 PM 3.42 38.156 0.033 6.81 22.65 13.66
3/20/2021 1:30:00 PM 3.59 38.462 0.033 6.81 21.77 13.59
3/20/2021 1:45:00 PM 3.75 38.75 0.033 6.8 23.1 13.53
3/20/2021 2:00:00 PM 3.91 39.038 0.033 6.82 22.94 13.47
3/20/2021 2:15:00 PM 4.07 39.326 0.033 6.82 23.24 13.4
3/20/2021 2:30:00 PM 4.21 39.578 0.033 6.82 23.48 13.34
3/20/2021 2:45:00 PM 4.35 39.83 0.033 6.82 22.49 13.28
3/20/2021 3:00:00 PM 4.49 40.082 0.033 6.82 23.14 13.21
3/20/2021 3:15:00 PM 4.62 40.316 0.033 6.83 21.9 13.16
3/20/2021 3:30:00 PM 4.73 40.514 0.033 6.83 22.41 13.11
3/20/2021 3:45:00 PM 4.84 40.712 0.033 6.83 21.86 13.06
3/20/2021 4:00:00 PM 4.93 40.874 0.033 6.83 22.73 13.01
3/20/2021 4:15:00 PM 5.01 41.018 0.033 6.84 23.76 12.96
3/20/2021 4:30:00 PM 5.07 41.126 0.033 6.84 22.97 12.92
3/20/2021 4:45:00 PM 5.12 41.216 0.033 6.83 23.79 12.9
3/20/2021 5:00:00 PM 5.16 41.288 0.033 6.84 22.93 12.85
3/20/2021 5:15:00 PM 5.18 41.324 0.033 6.69 22 12.83
3/20/2021 5:30:00 PM 5.19 41.342 0.033 6.83 23.18 12.79
3/20/2021 5:45:00 PM 5.19 41.342 0.033 6.83 21.85 12.78
3/20/2021 6:00:00 PM 5.18 41.324 0.033 6.83 23.13 12.77
3/20/2021 6:15:00 PM 5.16 41.288 0.033 6.82 22.9 12.76
3/20/2021 6:30:00 PM 5.13 41.234 0.033 6.82 23.9 12.74
3/20/2021 6:45:00 PM 5.09 41.162 0.033 6.81 23.77 12.75
3/20/2021 7:00:00 PM 5.04 41.072 0.033 6.81 22.77 12.73
3/20/2021 7:15:00 PM 4.98 40.964 0.033 6.8 21.3 12.74
3/20/2021 7:30:00 PM 4.91 40.838 0.033 6.79 22.71 12.75
3/20/2021 7:45:00 PM 4.84 40.712 0.033 6.79 23.1 12.76
3/20/2021 8:00:00 PM 4.76 40.568 0.033 6.79 23.85 12.78
3/20/2021 8:15:00 PM 4.67 40.406 0.033 6.78 23.28 12.8
3/20/2021 8:30:00 PM 4.59 40.262 0.033 6.78 23.1 12.83
3/20/2021 8:45:00 PM 4.51 40.118 0.033 6.77 22.84 12.87
3/20/2021 9:00:00 PM 4.42 39.956 0.033 6.77 23.03 12.89
3/20/2021 9:15:00 PM 4.34 39.812 0.033 6.77 18.31 12.92
3/20/2021 9:30:00 PM 4.26 39.668 0.033 6.77 24.39 12.95
3/20/2021 9:45:00 PM 4.18 39.524 0.033 6.77 23.41 12.98
3/20/2021 10:00:00 PM 4.1 39.38 0.033 6.77 23.68 13.01
3/20/2021 10:15:00 PM 4.02 39.236 0.033 6.76 22.29 13.03
3/20/2021 10:30:00 PM 3.95 39.11 0.032 6.71 22.66 13.06
3/20/2021 10:45:00 PM 3.87 38.966 0.033 6.76 22.13 13.09
3/20/2021 11:00:00 PM 3.79 38.822 0.033 6.76 23.51 13.12
3/20/2021 11:15:00 PM 3.72 38.696 0.033 6.76 22.59 13.15
3/20/2021 11:30:00 PM 3.65 38.57 0.033 6.64 23.13 13.17
3/20/2021 11:45:00 PM 3.58 38.444 0.033 6.75 22.86 13.19
3/21/2021 12:00:00 AM 3.52 38.336 0.033 6.76 24.72 13.22
3/21/2021 12:15:00 AM 3.46 38.228 0.033 6.76 23.92 13.24
3/21/2021 12:30:00 AM 3.4 38.12 0.033 6.75 22.94 13.26
3/21/2021 12:45:00 AM 3.35 38.03 0.033 6.75 21.57 13.28
3/21/2021 1:00:00 AM 3.29 37.922 0.032 6.71 24.97 13.3
3/21/2021 1:15:00 AM 3.24 37.832 0.032 6.71 23.53 13.32
3/21/2021 1:30:00 AM 3.19 37.742 0.032 6.71 21.88 13.34
3/21/2021 1:45:00 AM 3.14 37.652 0.033 6.75 20.63 13.36
3/21/2021 2:00:00 AM 3.1 37.58 0.033 6.75 22.72 13.38
3/21/2021 2:15:00 AM 3.05 37.49 0.033 6.75 23.06 13.39
3/21/2021 2:30:00 AM 3.01 37.418 0.033 6.75 22.98 13.41
3/21/2021 2:45:00 AM 2.97 37.346 0.033 6.75 18.96 13.43
3/21/2021 3:00:00 AM 2.92 37.256 0.032 6.69 21.14 13.44
3/21/2021 3:15:00 AM 2.88 37.184 0.033 6.75 18.58 13.46
3/21/2021 3:30:00 AM 2.84 37.112 0.033 6.75 22.12 13.47
3/21/2021 3:45:00 AM 2.8 37.04 0.033 6.75 20.35 13.48
3/21/2021 4:00:00 AM 2.76 36.968 0.033 6.75 21.87 13.5
3/21/2021 4:15:00 AM 2.72 36.896 0.033 6.74 21.47 13.51
3/21/2021 4:30:00 AM 2.68 36.824 0.033 6.72 21.78 13.52
3/21/2021 4:45:00 AM 2.64 36.752 0.033 6.63 21.75 13.55
3/21/2021 5:00:00 AM 2.61 36.698 0.032 6.72 24.65 13.56
3/21/2021 5:15:00 AM 2.57 36.626 0.033 6.75 21.76 13.58
3/21/2021 5:30:00 AM 2.53 36.554 0.034 6.74 20.91 13.59
3/21/2021 5:45:00 AM 2.49 36.482 0.034 6.75 20 13.61
3/21/2021 6:00:00 AM 2.45 36.41 0.034 6.75 21.78 13.62
3/21/2021 6:15:00 AM 2.41 36.338 0.034 6.75 21.9 13.64
3/21/2021 6:30:00 AM 2.37 36.266 0.032 6.71 21.57 13.65
3/21/2021 6:45:00 AM 2.33 36.194 0.034 6.74 19.49 13.67
3/21/2021 7:00:00 AM 2.29 36.122 0.034 6.75 21.25 13.69
3/21/2021 7:15:00 AM 2.25 36.05 0.034 6.75 19.75 13.71
3/21/2021 7:30:00 AM 2.22 35.996 0.034 6.75 22.06 13.74
3/21/2021 7:45:00 AM 2.18 35.924 0.034 6.76 20.36 13.77
3/21/2021 8:00:00 AM 2.16 35.888 0.034 6.76 20.14 13.8
3/21/2021 8:15:00 AM 2.14 35.852 0.034 6.76 21.35 13.83
3/21/2021 8:30:00 AM 2.12 35.816 0.034 6.77 21.35 13.86
3/21/2021 8:45:00 AM 2.12 35.816 0.034 6.77 19.83 13.88
3/21/2021 9:00:00 AM 2.14 35.852 0.032 6.73 22.03 13.89
3/21/2021 9:15:00 AM 2.16 35.888 0.034 6.78 20.91 13.91
3/21/2021 9:30:00 AM 2.21 35.978 0.034 6.78 18.28 13.91
3/21/2021 9:45:00 AM 2.27 36.086 0.034 6.79 18.86 13.91
3/21/2021 10:00:00 AM 2.35 36.23 0.034 6.79 20.7 13.89
3/21/2021 10:15:00 AM 2.45 36.41 0.034 6.8 18.86 13.87
3/21/2021 10:30:00 AM 2.58 36.644 0.034 6.81 18.35 13.84
3/21/2021 10:45:00 AM 2.73 36.914 0.034 6.81 20.76 13.81
3/21/2021 11:00:00 AM 2.91 37.238 0.034 6.82 20.54 13.77
3/21/2021 11:15:00 AM 3.1 37.58 0.032 6.79 20.52 13.72
3/21/2021 11:30:00 AM 3.29 37.922 0.032 6.76 19.86 13.66
3/21/2021 11:45:00 AM 3.49 38.282 0.034 6.83 20.61 13.61
3/21/2021 12:00:00 PM 3.68 38.624 0.034 6.78 20.71 13.55
3/21/2021 12:15:00 PM 3.87 38.966 0.034 6.84 19.15 13.5
3/21/2021 12:30:00 PM 4.04 39.272 0.034 6.85 20.16 13.43
3/21/2021 12:45:00 PM 4.22 39.596 0.034 6.85 20.17 13.37
3/21/2021 1:00:00 PM 4.39 39.902 0.034 6.85 22.36 13.32
3/21/2021 1:15:00 PM 4.56 40.208 0.034 6.86 21.09 13.26
3/21/2021 1:30:00 PM 4.72 40.496 0.034 6.86 18.27 13.2
3/21/2021 1:45:00 PM 4.88 40.784 0.034 6.86 22.42 13.13
3/21/2021 2:00:00 PM 5.03 41.054 0.034 6.86 22 13.07
3/21/2021 2:15:00 PM 5.18 41.324 0.034 6.86 22.48 13.02
3/21/2021 2:30:00 PM 5.33 41.594 0.034 6.87 20.65 12.97
3/21/2021 2:45:00 PM 5.47 41.846 0.034 6.87 20.87 12.91
3/21/2021 3:00:00 PM 5.6 42.08 0.034 6.87 21.15 12.85
3/21/2021 3:15:00 PM 5.72 42.296 0.034 6.87 21.65 12.79
3/21/2021 3:30:00 PM 5.84 42.512 0.034 6.88 21.08 12.74
3/21/2021 3:45:00 PM 5.93 42.674 0.034 6.88 21.02 12.69
3/21/2021 4:00:00 PM 6.02 42.836 0.034 6.88 20.37 12.64
3/21/2021 4:15:00 PM 6.1 42.98 0.034 6.88 17.84 12.6
3/21/2021 4:30:00 PM 6.16 43.088 0.034 6.88 17.75 12.56
3/21/2021 4:45:00 PM 6.21 43.178 0.034 6.88 20.09 12.52
3/21/2021 5:00:00 PM 6.25 43.25 0.034 6.88 19.91 12.49
3/21/2021 5:15:00 PM 6.27 43.286 0.034 6.87 18.74 12.46
3/21/2021 5:30:00 PM 6.28 43.304 0.034 6.88 20.12 12.44
3/21/2021 5:45:00 PM 6.28 43.304 0.034 6.74 20.05 12.41
3/21/2021 6:00:00 PM 6.27 43.286 0.034 6.87 17.77 12.38
3/21/2021 6:15:00 PM 6.25 43.25 0.034 6.86 20.15 12.38
3/21/2021 6:30:00 PM 6.22 43.196 0.034 6.85 20.91 12.36
3/21/2021 6:45:00 PM 6.18 43.124 0.034 6.85 20.45 12.36
3/21/2021 7:00:00 PM 6.13 43.034 0.034 6.84 20.72 12.35
3/21/2021 7:15:00 PM 6.07 42.926 0.034 6.83 19.91 12.36
3/21/2021 7:30:00 PM 6 42.8 0.034 6.83 17.19 12.35
3/21/2021 7:45:00 PM 5.92 42.656 0.034 6.82 18.38 12.37
3/21/2021 8:00:00 PM 5.84 42.512 0.034 6.81 20.83 12.39
3/21/2021 8:15:00 PM 5.75 42.35 0.034 6.8 20.65 12.41
3/21/2021 8:30:00 PM 5.66 42.188 0.034 6.81 24.47 12.44
3/21/2021 8:45:00 PM 5.57 42.026 0.034 6.8 17.66 12.46
3/21/2021 9:00:00 PM 5.47 41.846 0.034 6.8 19.52 12.5
3/21/2021 9:15:00 PM 5.38 41.684 0.034 6.66 21 12.52
3/21/2021 9:30:00 PM 5.29 41.522 0.034 6.79 18.89 12.55
3/21/2021 9:45:00 PM 5.2 41.36 0.034 6.79 20.86 12.59
3/21/2021 10:00:00 PM 5.11 41.198 0.034 6.79 20.99 12.62
3/21/2021 10:15:00 PM 5.02 41.036 0.034 6.78 18.21 12.65
3/21/2021 10:30:00 PM 4.93 40.874 0.034 6.78 22.5 12.68
3/21/2021 10:45:00 PM 4.84 40.712 0.034 6.78 19.22 12.71
3/21/2021 11:00:00 PM 4.76 40.568 0.034 6.78 21.35 12.74
3/21/2021 11:15:00 PM 4.68 40.424 0.034 6.78 18.14 12.77
3/21/2021 11:30:00 PM 4.6 40.28 0.034 6.78 17.98 12.8
3/21/2021 11:45:00 PM 4.51 40.118 0.034 6.77 18.32 12.82
3/22/2021 12:00:00 AM 4.44 39.992 0.034 6.78 17.88 12.85
3/22/2021 12:15:00 AM 4.36 39.848 0.034 6.77 20.7 12.88
3/22/2021 12:30:00 AM 4.29 39.722 0.034 6.77 18.73 12.9
3/22/2021 12:45:00 AM 4.22 39.596 0.034 6.77 19.1 12.93
3/22/2021 1:00:00 AM 4.16 39.488 0.034 6.77 18.7 12.94
3/22/2021 1:15:00 AM 4.1 39.38 0.034 6.77 17.82 12.97
3/22/2021 1:30:00 AM 4.03 39.254 0.034 6.77 18.08 12.99
3/22/2021 1:45:00 AM 3.98 39.164 0.034 6.77 17.1 13.01
3/22/2021 2:00:00 AM 3.92 39.056 0.034 6.77 18.95 13.03
3/22/2021 2:15:00 AM 3.87 38.966 0.034 6.76 20.58 13.04
3/22/2021 2:30:00 AM 3.81 38.858 0.034 6.77 18.97 13.07
3/22/2021 2:45:00 AM 3.76 38.768 0.034 6.77 17.85 13.08
3/22/2021 3:00:00 AM 3.71 38.678 0.034 6.76 20.71 13.1
3/22/2021 3:15:00 AM 3.66 38.588 0.034 6.77 20.51 13.12
3/22/2021 3:30:00 AM 3.61 38.498 0.032 6.72 20.72 13.14
3/22/2021 3:45:00 AM 3.57 38.426 0.034 6.76 20.83 13.15
3/22/2021 4:00:00 AM 3.52 38.336 0.034 6.69 21.61 13.16
3/22/2021 4:15:00 AM 3.48 38.264 0.034 6.77 20.22 13.18
3/22/2021 4:30:00 AM 3.44 38.192 0.032 6.73 18.71 13.2
3/22/2021 4:45:00 AM 3.4 38.12 0.034 6.77 18.08 13.21
3/22/2021 5:00:00 AM 3.36 38.048 0.034 6.77 20.73 13.23
3/22/2021 5:15:00 AM 3.32 37.976 0.034 6.75 17.22 13.24
3/22/2021 5:30:00 AM 3.28 37.904 0.034 6.76 20.79 13.25
3/22/2021 5:45:00 AM 3.24 37.832 0.033 6.73 21.32 13.27
3/22/2021 6:00:00 AM 3.2 37.76 0.034 6.76 20.74 13.29
3/22/2021 6:15:00 AM 3.16 37.688 0.034 6.77 20.55 13.3
3/22/2021 6:30:00 AM 3.12 37.616 0.034 6.77 20.87 13.31
3/22/2021 6:45:00 AM 3.08 37.544 0.034 6.77 20.16 13.33
3/22/2021 7:00:00 AM 3.03 37.454 0.034 6.77 20.08 13.35
3/22/2021 7:15:00 AM 3 37.4 0.033 6.71 19.54 13.37
3/22/2021 7:30:00 AM 2.96 37.328 0.034 6.77 18.14 13.4
3/22/2021 7:45:00 AM 2.93 37.274 0.034 6.77 16.53 13.43
3/22/2021 8:00:00 AM 2.9 37.22 0.034 6.78 19.76 13.47
3/22/2021 8:15:00 AM 2.88 37.184 0.034 6.78 18.1 13.49
3/22/2021 8:30:00 AM 2.87 37.166 0.034 6.78 20.5 13.52
3/22/2021 8:45:00 AM 2.87 37.166 0.034 6.79 20.34 13.54
3/22/2021 9:00:00 AM 2.88 37.184 0.034 6.8 16.52 13.56
3/22/2021 9:15:00 AM 2.91 37.238 0.034 6.8 19.92 13.57
3/22/2021 9:30:00 AM 2.96 37.328 0.034 6.8 18.95 13.58
3/22/2021 9:45:00 AM 3.02 37.436 0.032 6.77 16.96 13.58
3/22/2021 10:00:00 AM 3.1 37.58 0.032 6.78 18.24 13.56
3/22/2021 10:15:00 AM 3.21 37.778 0.034 6.82 19.47 13.54
3/22/2021 10:30:00 AM 3.34 38.012 0.032 6.79 17.95 13.51
3/22/2021 10:45:00 AM 3.49 38.282 0.034 6.83 19.74 13.48
3/22/2021 11:00:00 AM 3.67 38.606 0.034 6.84 19.86 13.43
3/22/2021 11:15:00 AM 3.87 38.966 0.034 6.82 19.07 13.39
3/22/2021 11:30:00 AM 4.06 39.308 0.034 6.85 15.97 13.33
3/22/2021 11:45:00 AM 4.26 39.668 0.032 6.81 18.88 13.28
3/22/2021 12:00:00 PM 4.45 40.01 0.034 6.86 19.93 13.22
3/22/2021 12:15:00 PM 4.64 40.352 0.034 6.85 19.81 13.17
3/22/2021 12:30:00 PM 4.82 40.676 0.034 6.87 17.92 13.11
3/22/2021 12:45:00 PM 5 41 0.034 6.87 19.73 13.05
3/22/2021 1:00:00 PM 5.18 41.324 0.034 6.87 17.9 12.99
3/22/2021 1:15:00 PM 5.35 41.63 0.034 6.81 20.21 12.94
3/22/2021 1:30:00 PM 5.51 41.918 0.034 6.88 19.42 12.88
3/22/2021 1:45:00 PM 5.67 42.206 0.034 6.88 19.8 12.83
3/22/2021 2:00:00 PM 5.83 42.494 0.034 6.88 17.02 12.76
3/22/2021 2:15:00 PM 5.98 42.764 0.034 6.8 20.01 12.7
3/22/2021 2:30:00 PM 6.12 43.016 0.034 6.89 17.38 12.65
3/22/2021 2:45:00 PM 6.26 43.268 0.034 6.89 18.84 12.59
3/22/2021 3:00:00 PM 6.38 43.484 0.034 6.89 16.08 12.54
3/22/2021 3:15:00 PM 6.51 43.718 0.034 6.9 18.91 12.48
3/22/2021 3:30:00 PM 6.61 43.898 0.034 6.89 19.44 12.43
3/22/2021 3:45:00 PM 6.71 44.078 0.034 6.9 19.24 12.39
3/22/2021 4:00:00 PM 6.79 44.222 0.034 6.88 19.6 12.34
3/22/2021 4:15:00 PM 6.86 44.348 0.034 6.9 15.68 12.31
3/22/2021 4:30:00 PM 6.91 44.438 0.034 6.91 19.58 12.27
3/22/2021 4:45:00 PM 6.96 44.528 0.034 6.9 16.53 12.23
3/22/2021 5:00:00 PM 6.99 44.582 0.034 6.9 15.58 12.2
3/22/2021 5:15:00 PM 7 44.6 0.034 6.9 20.19 12.18
3/22/2021 5:30:00 PM 7.01 44.618 0.034 6.9 19.05 12.15
3/22/2021 5:45:00 PM 7.01 44.618 0.034 6.89 19.72 12.13
3/22/2021 6:00:00 PM 6.99 44.582 0.034 6.89 16.77 12.11
3/22/2021 6:15:00 PM 6.97 44.546 0.034 6.88 20 12.09
3/22/2021 6:30:00 PM 6.94 44.492 0.034 6.88 20.25 12.08
3/22/2021 6:45:00 PM 6.9 44.42 0.034 6.87 20.02 12.07
3/22/2021 7:00:00 PM 6.84 44.312 0.034 6.86 19.91 12.06
3/22/2021 7:15:00 PM 6.78 44.204 0.034 6.85 17.58 12.06
3/22/2021 7:30:00 PM 6.71 44.078 0.034 6.84 20.2 12.06
3/22/2021 7:45:00 PM 6.63 43.934 0.034 6.83 19.42 12.07
3/22/2021 8:00:00 PM 6.54 43.772 0.034 6.83 20.59 12.09
3/22/2021 8:15:00 PM 6.45 43.61 0.034 6.82 17.12 12.11
3/22/2021 8:30:00 PM 6.35 43.43 0.034 6.81 18.36 12.14
3/22/2021 8:45:00 PM 6.26 43.268 0.034 6.81 19.99 12.16
3/22/2021 9:00:00 PM 6.16 43.088 0.034 6.8 20.72 12.2
3/22/2021 9:15:00 PM 6.06 42.908 0.034 6.8 20.7 12.23
3/22/2021 9:30:00 PM 5.96 42.728 0.034 6.8 21.19 12.26
3/22/2021 9:45:00 PM 5.87 42.566 0.033 6.8 27.26 12.29
3/22/2021 10:00:00 PM 5.77 42.386 0.033 6.8 20.67 12.32
3/22/2021 10:15:00 PM 5.68 42.224 0.033 6.79 21.89 12.36
3/22/2021 10:30:00 PM 5.58 42.044 0.033 6.79 20.95 12.39
3/22/2021 10:45:00 PM 5.49 41.882 0.033 6.78 21.23 12.42
3/22/2021 11:00:00 PM 5.4 41.72 0.033 6.79 21.51 12.46
3/22/2021 11:15:00 PM 5.31 41.558 0.033 6.78 18.42 12.48
3/22/2021 11:30:00 PM 5.22 41.396 0.033 6.78 18.19 12.51
3/22/2021 11:45:00 PM 5.14 41.252 0.033 6.78 17.36 12.54
3/23/2021 12:00:00 AM 5.06 41.108 0.033 6.78 17.76 12.57
3/23/2021 12:15:00 AM 4.98 40.964 0.033 6.75 20.68 12.6
3/23/2021 12:30:00 AM 4.9 40.82 0.033 6.77 21.25 12.62
3/23/2021 12:45:00 AM 4.82 40.676 0.033 6.78 20.76 12.66
3/23/2021 1:00:00 AM 4.75 40.55 0.033 6.77 20.87 12.68
3/23/2021 1:15:00 AM 4.68 40.424 0.032 6.72 20.13 12.71
3/23/2021 1:30:00 AM 4.62 40.316 0.033 6.77 19.48 12.72
3/23/2021 1:45:00 AM 4.55 40.19 0.033 6.77 20.77 12.75
3/23/2021 2:00:00 AM 4.49 40.082 0.033 6.77 20.86 12.78
3/23/2021 2:15:00 AM 4.43 39.974 0.033 6.77 21.99 12.8
3/23/2021 2:30:00 AM 4.37 39.866 0.033 6.76 18.94 12.81
3/23/2021 2:45:00 AM 4.31 39.758 0.033 6.73 21.09 12.83
3/23/2021 3:00:00 AM 4.26 39.668 0.033 6.76 19.11 12.85
3/23/2021 3:15:00 AM 4.21 39.578 0.033 6.77 20.93 12.87
3/23/2021 3:30:00 AM 4.16 39.488 0.033 6.77 17.76 12.88
3/23/2021 3:45:00 AM 4.11 39.398 0.032 6.71 18.11 12.91
3/23/2021 4:00:00 AM 4.06 39.308 0.033 6.76 20.2 12.92
3/23/2021 4:15:00 AM 4.02 39.236 0.033 6.76 20.38 12.94
3/23/2021 4:30:00 AM 3.97 39.146 0.033 6.76 20.99 12.95
3/23/2021 4:45:00 AM 3.93 39.074 0.031 6.74 20.22 12.96
3/23/2021 5:00:00 AM 3.88 38.984 0.032 6.75 22.94 12.99
3/23/2021 5:15:00 AM 3.84 38.912 0.033 6.76 19.41 13
3/23/2021 5:30:00 AM 3.8 38.84 0.033 6.76 20.45 13.02
3/23/2021 5:45:00 AM 3.76 38.768 0.033 6.76 20.16 13.03
3/23/2021 6:00:00 AM 3.71 38.678 0.033 6.74 18.64 13.05
3/23/2021 6:15:00 AM 3.67 38.606 0.033 6.76 20.58 13.06
3/23/2021 6:30:00 AM 3.63 38.534 0.033 6.76 19 13.07
3/23/2021 6:45:00 AM 3.59 38.462 0.033 6.76 20.19 13.09
3/23/2021 7:00:00 AM 3.54 38.372 0.033 6.76 19.92 13.11
3/23/2021 7:15:00 AM 3.5 38.3 0.033 6.76 19.8 13.13
3/23/2021 7:30:00 AM 3.46 38.228 0.032 6.72 22.49 13.16
3/23/2021 7:45:00 AM 3.43 38.174 0.032 6.71 23.31 13.19
3/23/2021 8:00:00 AM 3.41 38.138 0.033 6.77 21.2 13.23
3/23/2021 8:15:00 AM 3.39 38.102 0.032 6.73 17.54 13.26
3/23/2021 8:30:00 AM 3.38 38.084 0.033 6.78 20.55 13.29
3/23/2021 8:45:00 AM 3.38 38.084 0.033 6.79 17.39 13.32
3/23/2021 9:00:00 AM 3.39 38.102 0.033 6.64 20.02 13.33
3/23/2021 9:15:00 AM 3.42 38.156 0.033 6.8 17.44 13.35
3/23/2021 9:30:00 AM 3.47 38.246 0.032 6.77 19.61 13.35
3/23/2021 9:45:00 AM 3.54 38.372 0.033 6.81 19.84 13.35
3/23/2021 10:00:00 AM 3.63 38.534 0.033 6.82 19.19 13.34
3/23/2021 10:15:00 AM 3.74 38.732 0.033 6.82 17.22 13.32
3/23/2021 10:30:00 AM 3.87 38.966 0.033 6.83 19.05 13.3
3/23/2021 10:45:00 AM 4.02 39.236 0.033 6.84 19.72 13.26
3/23/2021 11:00:00 AM 4.2 39.56 0.033 6.85 19.88 13.22
3/23/2021 11:15:00 AM 4.38 39.884 0.033 6.85 19.53 13.17
3/23/2021 11:30:00 AM 4.57 40.226 0.033 6.86 16.55 13.13
3/23/2021 11:45:00 AM 4.77 40.586 0.033 6.86 19.52 13.08
3/23/2021 12:00:00 PM 4.96 40.928 0.033 6.87 17.87 13.03
3/23/2021 12:15:00 PM 5.15 41.27 0.033 6.87 19.69 12.97
3/23/2021 12:30:00 PM 5.36 41.648 0.033 6.88 19.25 12.92
3/23/2021 12:45:00 PM 5.54 41.972 0.033 6.87 19.85 12.85
3/23/2021 1:00:00 PM 5.72 42.296 0.033 6.88 19.62 12.8
3/23/2021 1:15:00 PM 5.88 42.584 0.033 6.89 19.69 12.75
3/23/2021 1:30:00 PM 6.01 42.818 0.033 6.89 18.82 12.69
3/23/2021 1:45:00 PM 6.17 43.106 0.033 6.89 19.59 12.64
3/23/2021 2:00:00 PM 6.31 43.358 0.033 6.9 19.15 12.59
3/23/2021 2:15:00 PM 6.41 43.538 0.033 6.89 19.05 12.54
3/23/2021 2:30:00 PM 6.55 43.79 0.033 6.9 19.38 12.5
3/23/2021 2:45:00 PM 6.67 44.006 0.033 6.9 19.75 12.45
3/23/2021 3:00:00 PM 6.8 44.24 0.033 6.9 17.87 12.39
3/23/2021 3:15:00 PM 6.87 44.366 0.034 6.9 20.22 12.34
3/23/2021 3:30:00 PM 6.93 44.474 0.035 6.9 19.25 12.3
3/23/2021 3:45:00 PM 7 44.6 0.035 6.91 16.41 12.26
3/23/2021 4:00:00 PM 7.1 44.78 0.034 6.91 19.07 12.22
3/23/2021 4:15:00 PM 7.16 44.888 0.034 6.91 19.38 12.19
3/23/2021 4:30:00 PM 7.19 44.942 0.034 6.77 20.07 12.16
3/23/2021 4:45:00 PM 7.24 45.032 0.033 6.85 19.45 12.13
3/23/2021 5:00:00 PM 7.3 45.14 0.033 6.91 18.66 12.1
3/23/2021 5:15:00 PM 7.33 45.194 0.033 6.91 16.54 12.07
3/23/2021 5:30:00 PM 7.34 45.212 0.033 6.91 19.75 12.05
3/23/2021 5:45:00 PM 7.34 45.212 0.033 6.9 20.1 12.03
3/23/2021 6:00:00 PM 7.33 45.194 0.033 6.89 20.33 12
3/23/2021 6:15:00 PM 7.32 45.176 0.033 6.89 19.96 11.98
3/23/2021 6:30:00 PM 7.28 45.104 0.033 6.76 20.28 11.96
3/23/2021 6:45:00 PM 7.25 45.05 0.033 6.87 19.88 11.96
3/23/2021 7:00:00 PM 7.21 44.978 0.033 6.81 19.95 11.94
3/23/2021 7:15:00 PM 7.16 44.888 0.033 6.85 20.15 11.93
3/23/2021 7:30:00 PM 7.1 44.78 0.033 6.84 19.22 11.93
3/23/2021 7:45:00 PM 7.04 44.672 0.033 6.83 20.11 11.93
3/23/2021 8:00:00 PM 6.97 44.546 0.033 6.82 17.85 11.94
3/23/2021 8:15:00 PM 6.91 44.438 0.033 6.81 20.88 11.95
3/23/2021 8:30:00 PM 6.84 44.312 0.033 6.81 19.97 11.97
3/23/2021 8:45:00 PM 6.77 44.186 0.033 6.81 21.23 11.99
3/23/2021 9:00:00 PM 6.71 44.078 0.033 6.8 19.84 12.01
3/23/2021 9:15:00 PM 6.64 43.952 0.033 6.8 21.24 12.03
3/23/2021 9:30:00 PM 6.57 43.826 0.033 6.8 19.54 12.05
3/23/2021 9:45:00 PM 6.51 43.718 0.033 6.79 19.59 12.08
3/23/2021 10:00:00 PM 6.44 43.592 0.033 6.79 20.53 12.1
3/23/2021 10:15:00 PM 6.37 43.466 0.033 6.78 21.36 12.12
3/23/2021 10:30:00 PM 6.31 43.358 0.033 6.78 19.89 12.14
3/23/2021 10:45:00 PM 6.25 43.25 0.033 6.78 18.47 12.16
3/23/2021 11:00:00 PM 6.19 43.142 0.032 6.69 21.11 12.18
3/23/2021 11:15:00 PM 6.13 43.034 0.032 6.78 21.53 12.2
3/23/2021 11:30:00 PM 6.08 42.944 0.032 6.77 27.19 12.22
3/23/2021 11:45:00 PM 6.03 42.854 0.032 6.77 28.3 12.23
3/24/2021 12:00:00 AM 5.97 42.746 0.032 6.77 21.32 12.25
3/24/2021 12:15:00 AM 5.92 42.656 0.032 6.77 20.66 12.26
3/24/2021 12:30:00 AM 5.87 42.566 0.032 6.77 21.58 12.28
3/24/2021 12:45:00 AM 5.82 42.476 0.032 6.77 21.18 12.3
3/24/2021 1:00:00 AM 5.77 42.386 0.032 6.77 20.98 12.31
3/24/2021 1:15:00 AM 5.72 42.296 0.032 6.77 21.56 12.33
3/24/2021 1:30:00 AM 5.69 42.242 0.032 6.77 19.26 12.34
3/24/2021 1:45:00 AM 5.65 42.17 0.032 6.77 22.2 12.36
3/24/2021 2:00:00 AM 5.63 42.134 0.032 6.76 21.24 12.36
3/24/2021 2:15:00 AM 5.6 42.08 0.032 6.76 21.4 12.38
3/24/2021 2:30:00 AM 5.59 42.062 0.032 6.76 21.51 12.38
3/24/2021 2:45:00 AM 5.57 42.026 0.032 6.76 22.16 12.39
3/24/2021 3:00:00 AM 5.56 42.008 0.032 6.77 21.4 12.39
3/24/2021 3:15:00 AM 5.54 41.972 0.032 6.76 21.85 12.4
3/24/2021 3:30:00 AM 5.51 41.918 0.032 6.76 21.48 12.4
3/24/2021 3:45:00 AM 5.49 41.882 0.032 6.76 20.77 12.41
3/24/2021 4:00:00 AM 5.47 41.846 0.032 6.72 21.03 12.41
3/24/2021 4:15:00 AM 5.45 41.81 0.032 6.76 21.83 12.42
3/24/2021 4:30:00 AM 5.44 41.792 0.032 6.76 21.46 12.43
3/24/2021 4:45:00 AM 5.42 41.756 0.032 6.76 22.46 12.42
3/24/2021 5:00:00 AM 5.41 41.738 0.032 6.76 21.1 12.44
3/24/2021 5:15:00 AM 5.39 41.702 0.032 6.76 21.09 12.44
3/24/2021 5:30:00 AM 5.38 41.684 0.032 6.76 19.89 12.44
3/24/2021 5:45:00 AM 5.37 41.666 0.032 6.76 21.69 12.45
3/24/2021 6:00:00 AM 5.37 41.666 0.032 6.76 21.41 12.45
3/24/2021 6:15:00 AM 5.36 41.648 0.032 6.76 21.93 12.45
3/24/2021 6:30:00 AM 5.36 41.648 0.032 6.75 21.05 12.45
3/24/2021 6:45:00 AM 5.36 41.648 0.032 6.76 21.51 12.46
3/24/2021 7:00:00 AM 5.36 41.648 0.032 6.76 21.38 12.45
3/24/2021 7:15:00 AM 5.36 41.648 0.032 6.75 22.05 12.45
3/24/2021 7:30:00 AM 5.36 41.648 0.032 6.76 20.77 12.45
3/24/2021 7:45:00 AM 5.36 41.648 0.032 6.76 19.23 12.47
3/24/2021 8:00:00 AM 5.36 41.648 0.032 6.76 20.34 12.47
3/24/2021 8:15:00 AM 5.37 41.666 0.032 6.76 21.04 12.47
3/24/2021 8:30:00 AM 5.37 41.666 0.032 6.76 20.51 12.49
3/24/2021 8:45:00 AM 5.38 41.684 0.032 6.77 20.66 12.49
3/24/2021 9:00:00 AM 5.38 41.684 0.032 6.77 20.63 12.5
3/24/2021 9:15:00 AM 5.39 41.702 0.032 6.77 20.75 12.51
3/24/2021 9:30:00 AM 5.4 41.72 0.032 6.78 19.64 12.51
3/24/2021 9:45:00 AM 5.42 41.756 0.032 6.78 21.54 12.52
3/24/2021 10:00:00 AM 5.44 41.792 0.032 6.68 21.24 12.52
3/24/2021 10:15:00 AM 5.46 41.828 0.032 6.79 20.95 12.53
3/24/2021 10:30:00 AM 5.48 41.864 0.032 6.8 21.4 12.54
3/24/2021 10:45:00 AM 5.51 41.918 0.032 6.8 21.16 12.54
3/24/2021 11:00:00 AM 5.54 41.972 0.032 6.8 21.17 12.54
3/24/2021 11:15:00 AM 5.57 42.026 0.032 6.81 21.6 12.54
3/24/2021 11:30:00 AM 5.59 42.062 0.032 6.81 21.64 12.53
3/24/2021 11:45:00 AM 5.62 42.116 0.033 6.82 20.21 12.52
3/24/2021 12:00:00 PM 5.65 42.17 0.033 6.81 23.24 12.51
3/24/2021 12:15:00 PM 5.68 42.224 0.033 6.84 22.29 12.5
3/24/2021 12:30:00 PM 5.72 42.296 0.033 6.84 22.93 12.48
3/24/2021 12:45:00 PM 5.75 42.35 0.034 6.85 22.57 12.48
3/24/2021 1:00:00 PM 5.79 42.422 0.034 6.85 24.1 12.46
3/24/2021 1:15:00 PM 5.86 42.548 0.034 6.86 24.1 12.45
3/24/2021 1:30:00 PM 5.91 42.638 0.034 6.87 25.49 12.43
3/24/2021 1:45:00 PM 5.97 42.746 0.034 6.88 26.31 12.4
3/24/2021 2:00:00 PM 6.04 42.872 0.035 6.89 28.61 12.36
3/24/2021 2:15:00 PM 6.12 43.016 0.036 6.9 33.36 12.33
3/24/2021 2:30:00 PM 6.2 43.16 0.037 6.92 41.14 12.29
3/24/2021 2:45:00 PM 6.3 43.34 0.039 6.94 43.92 12.24
3/24/2021 3:00:00 PM 6.41 43.538 0.04 6.96 70.88 12.19
3/24/2021 3:15:00 PM 6.52 43.736 0.041 6.96 73.18 12.15
3/24/2021 3:30:00 PM 6.58 43.844 0.039 6.93 81.01 12.14
3/24/2021 3:45:00 PM 6.58 43.844 0.037 6.9 89.02 12.13
3/24/2021 4:00:00 PM 6.55 43.79 0.035 6.68 127.49 12.14
3/24/2021 4:15:00 PM 6.5 43.7 0.033 6.82 112.25 12.16
3/24/2021 4:30:00 PM 6.45 43.61 0.032 6.78 134.68 12.17
3/24/2021 4:45:00 PM 6.41 43.538 0.03 6.74 142.61 12.19
3/24/2021 5:00:00 PM 6.36 43.448 0.03 6.7 151.62 12.2
3/24/2021 5:15:00 PM 6.32 43.376 0.029 6.66 185.04 12.21
3/24/2021 5:30:00 PM 6.27 43.286 0.029 6.64 154.19 12.22
3/24/2021 5:45:00 PM 6.22 43.196 0.028 6.61 134.67 12.24
3/24/2021 6:00:00 PM 6.18 43.124 0.028 6.59 154.79 12.25
3/24/2021 6:15:00 PM 6.14 43.052 0.028 6.56 170.78 12.27
3/24/2021 6:30:00 PM 6.1 42.98 0.027 6.55 166.15 12.28
3/24/2021 6:45:00 PM 6.07 42.926 0.027 6.54 113.03 12.29
3/24/2021 7:00:00 PM 6.03 42.854 0.027 6.53 112.01 12.31
3/24/2021 7:15:00 PM 6 42.8 0.026 6.53 114.86 12.31
3/24/2021 7:30:00 PM 5.96 42.728 0.026 6.51 131.47 12.32
3/24/2021 7:45:00 PM 5.93 42.674 0.026 6.51 101.45 12.33
3/24/2021 8:00:00 PM 5.9 42.62 0.026 6.5 149.76 12.33
3/24/2021 8:15:00 PM 5.87 42.566 0.026 6.5 122.79 12.35
3/24/2021 8:30:00 PM 5.85 42.53 0.026 6.49 136.45 12.35
3/24/2021 8:45:00 PM 5.82 42.476 0.026 6.49 114.06 12.36
3/24/2021 9:00:00 PM 5.79 42.422 0.026 6.49 116.21 12.37
3/24/2021 9:15:00 PM 5.77 42.386 0.026 6.5 142.83 12.37
3/24/2021 9:30:00 PM 5.74 42.332 0.026 6.49 115.4 12.38
3/24/2021 9:45:00 PM 5.72 42.296 0.026 6.49 102.82 12.38
3/24/2021 10:00:00 PM 5.7 42.26 0.026 6.49 96.47 12.4
3/24/2021 10:15:00 PM 5.68 42.224 0.026 6.48 74.37 12.4
3/24/2021 10:30:00 PM 5.66 42.188 0.026 6.47 110.55 12.41
3/24/2021 10:45:00 PM 5.65 42.17 0.026 6.48 79.33 12.41
3/24/2021 11:00:00 PM 5.63 42.134 0.026 6.28 79.09 12.41
3/24/2021 11:15:00 PM 5.62 42.116 0.026 6.46 69.74 12.41
3/24/2021 11:30:00 PM 5.61 42.098 0.026 6.46 98.79 12.42
3/24/2021 11:45:00 PM 5.6 42.08 0.026 6.46 85.99 12.42
3/25/2021 12:00:00 AM 5.6 42.08 0.026 6.46 66.71 12.42
3/25/2021 12:15:00 AM 5.59 42.062 0.026 6.46 74.79 12.43
3/25/2021 12:30:00 AM 5.59 42.062 0.026 6.45 80.15 12.43
3/25/2021 12:45:00 AM 5.58 42.044 0.025 6.45 92.52 12.43
3/25/2021 1:00:00 AM 5.58 42.044 0.025 6.45 93.11 12.43
3/25/2021 1:15:00 AM 5.58 42.044 0.025 6.45 63.63 12.43
3/25/2021 1:30:00 AM 5.58 42.044 0.025 6.44 77.09 12.43
3/25/2021 1:45:00 AM 5.58 42.044 0.025 6.44 57.09 12.43
3/25/2021 2:00:00 AM 5.58 42.044 0.025 6.45 54.66 12.43
3/25/2021 2:15:00 AM 5.57 42.026 0.025 6.44 72.26 12.43
3/25/2021 2:30:00 AM 5.57 42.026 0.025 6.42 75.63 12.43
3/25/2021 2:45:00 AM 5.57 42.026 0.025 6.44 60.81 12.42
3/25/2021 3:00:00 AM 5.57 42.026 0.025 6.44 51.18 12.42
3/25/2021 3:15:00 AM 5.57 42.026 0.025 6.43 81.25 12.42
3/25/2021 3:30:00 AM 5.57 42.026 0.025 6.43 61.02 12.42
3/25/2021 3:45:00 AM 5.57 42.026 0.025 6.44 63.79 12.42
3/25/2021 4:00:00 AM 5.57 42.026 0.025 6.44 67.34 12.41
3/25/2021 4:15:00 AM 5.57 42.026 0.025 6.44 54.34 12.41
3/25/2021 4:30:00 AM 5.57 42.026 0.025 6.44 53.63 12.41
3/25/2021 4:45:00 AM 5.57 42.026 0.025 6.44 44.15 12.41
3/25/2021 5:00:00 AM 5.57 42.026 0.025 6.45 58 12.41
3/25/2021 5:15:00 AM 5.58 42.044 0.025 6.45 64.28 12.41
3/25/2021 5:30:00 AM 5.57 42.026 0.025 6.45 58.69 12.41
3/25/2021 5:45:00 AM 5.58 42.044 0.025 6.45 43.66 12.42
3/25/2021 6:00:00 AM 5.58 42.044 0.025 6.46 51.66 12.42
3/25/2021 6:15:00 AM 5.58 42.044 0.025 6.46 59.19 12.42
3/25/2021 6:30:00 AM 5.58 42.044 0.025 6.45 53.25 12.42
3/25/2021 6:45:00 AM 5.58 42.044 0.025 6.45 72.01 12.42
3/25/2021 7:00:00 AM 5.58 42.044 0.025 6.46 41.63 12.42
3/25/2021 7:15:00 AM 5.58 42.044 0.025 6.46 42.39 12.42
3/25/2021 7:30:00 AM 5.59 42.062 0.025 6.46 38.51 12.42
3/25/2021 7:45:00 AM 5.6 42.08 0.025 6.46 49.74 12.42
3/25/2021 8:00:00 AM 5.61 42.098 0.025 6.47 45.54 12.42
3/25/2021 8:15:00 AM 5.63 42.134 0.025 6.47 38.81 12.42
3/25/2021 8:30:00 AM 5.65 42.17 0.025 6.47 58.54 12.42
3/25/2021 8:45:00 AM 5.69 42.242 0.025 6.49 35.59 12.42
3/25/2021 9:00:00 AM 5.72 42.296 0.025 6.49 43.94 12.42
3/25/2021 9:15:00 AM 5.77 42.386 0.025 6.5 39.48 12.41
3/25/2021 9:30:00 AM 5.82 42.476 0.025 6.51 36.5 12.41
3/25/2021 9:45:00 AM 5.87 42.566 0.025 6.51 37.64 12.4
3/25/2021 10:00:00 AM 5.93 42.674 0.025 6.52 45.87 12.38
3/25/2021 10:15:00 AM 6 42.8 0.025 6.52 52.4 12.38
3/25/2021 10:30:00 AM 6.09 42.962 0.025 6.38 36.44 12.35
3/25/2021 10:45:00 AM 6.23 43.214 0.025 6.51 39.53 12.32
3/25/2021 11:00:00 AM 6.35 43.43 0.025 6.55 44.42 12.3
3/25/2021 11:15:00 AM 6.49 43.682 0.025 6.56 37.41 12.27
3/25/2021 11:30:00 AM 6.64 43.952 0.025 6.56 32.24 12.23
3/25/2021 11:45:00 AM 6.83 44.294 0.025 6.56 58.96 12.17
3/25/2021 12:00:00 PM 7.02 44.636 0.025 6.56 31.62 12.13
3/25/2021 12:15:00 PM 7.18 44.924 0.025 6.58 43.51 12.08
3/25/2021 12:30:00 PM 7.33 45.194 0.026 6.58 34.35 12.04
3/25/2021 12:45:00 PM 7.46 45.428 0.026 6.59 33.65 12
3/25/2021 1:00:00 PM 7.61 45.698 0.026 6.59 38.08 11.97
3/25/2021 1:15:00 PM 7.76 45.968 0.026 6.58 28.99 11.92
3/25/2021 1:30:00 PM 7.91 46.238 0.026 6.6 31.09 11.88
3/25/2021 1:45:00 PM 8.05 46.49 0.026 6.6 64.2 11.83
3/25/2021 2:00:00 PM 8.2 46.76 0.026 6.61 38.32 11.78
3/25/2021 2:15:00 PM 8.33 46.994 0.026 6.54 31.48 11.73
3/25/2021 2:30:00 PM 8.44 47.192 0.026 6.62 29.14 11.69
3/25/2021 2:45:00 PM 8.58 47.444 0.026 6.61 30.23 11.64
3/25/2021 3:00:00 PM 8.69 47.642 0.026 6.62 33.47 11.6
3/25/2021 3:15:00 PM 8.8 47.84 0.026 6.62 38.18 11.56
3/25/2021 3:30:00 PM 8.89 48.002 0.026 6.62 31.09 11.53
3/25/2021 3:45:00 PM 8.95 48.11 0.026 6.62 38.57 11.5
3/25/2021 4:00:00 PM 9 48.2 0.026 6.62 31.22 11.47
3/25/2021 4:15:00 PM 9.02 48.236 0.026 6.62 34.3 11.45
3/25/2021 4:30:00 PM 9.05 48.29 0.026 6.63 34.95 11.43
3/25/2021 4:45:00 PM 9.06 48.308 0.026 6.63 40.51 11.42
3/25/2021 5:00:00 PM 9.06 48.308 0.026 6.62 53.35 11.42
3/25/2021 5:15:00 PM 9.05 48.29 0.026 6.63 31.25 11.41
3/25/2021 5:30:00 PM 9.03 48.254 0.026 6.62 33 11.4
3/25/2021 5:45:00 PM 9 48.2 0.026 6.62 30.5 11.41
3/25/2021 6:00:00 PM 8.95 48.11 0.026 6.62 29.13 11.41
3/25/2021 6:15:00 PM 8.9 48.02 0.026 6.61 38.1 11.41
3/25/2021 6:30:00 PM 8.84 47.912 0.026 6.61 34.44 11.42
3/25/2021 6:45:00 PM 8.79 47.822 0.026 6.5 36.65 11.43
3/25/2021 7:00:00 PM 8.73 47.714 0.026 6.6 35.7 11.43
3/25/2021 7:15:00 PM 8.68 47.624 0.026 6.55 38.45 11.43
3/25/2021 7:30:00 PM 8.62 47.516 0.026 6.59 34.22 11.44
3/25/2021 7:45:00 PM 8.58 47.444 0.026 6.58 31.85 11.44
3/25/2021 8:00:00 PM 8.53 47.354 0.026 6.58 38.33 11.45
3/25/2021 8:15:00 PM 8.49 47.282 0.026 6.58 29.88 11.46
3/25/2021 8:30:00 PM 8.45 47.21 0.026 6.58 27.44 11.47
3/25/2021 8:45:00 PM 8.41 47.138 0.026 6.58 35.47 11.48
3/25/2021 9:00:00 PM 8.39 47.102 0.026 6.58 34.08 11.49
3/25/2021 9:15:00 PM 8.38 47.084 0.026 6.59 29.2 11.5
3/25/2021 9:30:00 PM 8.36 47.048 0.026 6.59 38.2 11.51
3/25/2021 9:45:00 PM 8.34 47.012 0.026 6.6 32.82 11.51
3/25/2021 10:00:00 PM 8.31 46.958 0.026 6.6 35.25 11.52
3/25/2021 10:15:00 PM 8.29 46.922 0.027 6.6 28.37 11.53
3/25/2021 10:30:00 PM 8.25 46.85 0.027 6.59 31.07 11.53
3/25/2021 10:45:00 PM 8.22 46.796 0.027 6.6 28.17 11.53
3/25/2021 11:00:00 PM 8.2 46.76 0.027 6.6 39.18 11.54
3/25/2021 11:15:00 PM 8.17 46.706 0.027 6.59 30.1 11.54
3/25/2021 11:30:00 PM 8.16 46.688 0.027 6.59 35.17 11.54
3/25/2021 11:45:00 PM 8.15 46.67 0.027 6.6 30.76 11.55
3/26/2021 12:00:00 AM 8.13 46.634 0.027 6.6 26.69 11.55
3/26/2021 12:15:00 AM 8.12 46.616 0.027 6.61 31.04 11.55
3/26/2021 12:30:00 AM 8.11 46.598 0.027 6.6 36.34 11.55
3/26/2021 12:45:00 AM 8.09 46.562 0.027 6.61 28.95 11.55
3/26/2021 1:00:00 AM 8.08 46.544 0.027 6.61 28.56 11.56
3/26/2021 1:15:00 AM 8.07 46.526 0.027 6.62 29.51 11.56
3/26/2021 1:30:00 AM 8.05 46.49 0.027 6.62 26.88 11.57
3/26/2021 1:45:00 AM 8.04 46.472 0.027 6.59 26.75 11.56
3/26/2021 2:00:00 AM 8.03 46.454 0.027 6.62 29.19 11.56
3/26/2021 2:15:00 AM 8.02 46.436 0.027 6.62 39.65 11.56
3/26/2021 2:30:00 AM 8 46.4 0.027 6.62 35.79 11.57
3/26/2021 2:45:00 AM 7.98 46.364 0.027 6.62 26.17 11.56
3/26/2021 3:00:00 AM 7.96 46.328 0.027 6.62 34.52 11.57
3/26/2021 3:15:00 AM 7.95 46.31 0.027 6.61 29.56 11.57
3/26/2021 3:30:00 AM 7.93 46.274 0.027 6.61 35.42 11.58
3/26/2021 3:45:00 AM 7.92 46.256 0.027 6.61 33.95 11.57
3/26/2021 4:00:00 AM 7.91 46.238 0.028 6.62 28.83 11.57
3/26/2021 4:15:00 AM 7.9 46.22 0.028 6.61 26.1 11.57
3/26/2021 4:30:00 AM 7.9 46.22 0.028 6.62 35.32 11.57
3/26/2021 4:45:00 AM 7.9 46.22 0.028 6.62 28.44 11.57
3/26/2021 5:00:00 AM 7.9 46.22 0.028 6.62 23.11 11.56
3/26/2021 5:15:00 AM 7.89 46.202 0.028 6.63 26.57 11.56
3/26/2021 5:30:00 AM 7.88 46.184 0.028 6.63 25.63 11.56
3/26/2021 5:45:00 AM 7.88 46.184 0.028 6.63 32.25 11.56
3/26/2021 6:00:00 AM 7.88 46.184 0.028 6.64 28.26 11.55
3/26/2021 6:15:00 AM 7.86 46.148 0.028 6.63 28.75 11.56
3/26/2021 6:30:00 AM 7.86 46.148 0.028 6.64 27.5 11.55
3/26/2021 6:45:00 AM 7.87 46.166 0.028 6.64 36.6 11.55
3/26/2021 7:00:00 AM 7.88 46.184 0.028 6.64 25.62 11.56
3/26/2021 7:15:00 AM 7.89 46.202 0.028 6.65 37.83 11.55
3/26/2021 7:30:00 AM 7.91 46.238 0.028 6.65 31.81 11.53
3/26/2021 7:45:00 AM 7.92 46.256 0.028 6.65 38.15 11.54
3/26/2021 8:00:00 AM 7.93 46.274 0.028 6.66 33.24 11.55
3/26/2021 8:15:00 AM 7.94 46.292 0.028 6.66 25.42 11.55
3/26/2021 8:30:00 AM 7.97 46.346 0.028 6.67 28.78 11.54
3/26/2021 8:45:00 AM 7.99 46.382 0.028 6.67 26.76 11.54
3/26/2021 9:00:00 AM 8.03 46.454 0.028 6.67 28.98 11.53
3/26/2021 9:15:00 AM 8.09 46.562 0.028 6.68 29.39 11.52
3/26/2021 9:30:00 AM 8.16 46.688 0.028 6.68 31.96 11.52
3/26/2021 9:45:00 AM 8.25 46.85 0.028 6.69 26.43 11.51
3/26/2021 10:00:00 AM 8.35 47.03 0.028 6.7 26.6 11.5
3/26/2021 10:15:00 AM 8.47 47.246 0.028 6.7 25.17 11.48
3/26/2021 10:30:00 AM 8.64 47.552 0.028 6.71 30.34 11.45
3/26/2021 10:45:00 AM 8.82 47.876 0.028 6.72 30.15 11.41
3/26/2021 11:00:00 AM 8.97 48.146 0.028 6.72 33.15 11.37
3/26/2021 11:15:00 AM 9.08 48.344 0.028 6.72 31.44 11.34
3/26/2021 11:30:00 AM 9.16 48.488 0.028 6.73 30.01 11.31
3/26/2021 11:45:00 AM 9.25 48.65 0.028 6.72 28.16 11.29
3/26/2021 12:00:00 PM 9.35 48.83 0.028 6.73 67.97 11.26
3/26/2021 12:15:00 PM 9.47 49.046 0.028 6.74 26.15 11.24
3/26/2021 12:30:00 PM 9.66 49.388 0.028 6.74 40.89 11.22
3/26/2021 12:45:00 PM 9.81 49.658 0.028 6.7 39.7 11.17
3/26/2021 1:00:00 PM 9.98 49.964 0.028 6.74 31.14 11.13
3/26/2021 1:15:00 PM 10.1 50.18 0.028 6.74 39.97 11.1
3/26/2021 1:30:00 PM 10.2 50.36 0.028 6.75 42.42 11.08
3/26/2021 1:45:00 PM 10.27 50.486 0.028 6.68 34.16 11.05
3/26/2021 2:00:00 PM 10.28 50.504 0.028 6.75 30.41 11.03
3/26/2021 2:15:00 PM 10.38 50.684 0.028 6.75 27.79 11.02
3/26/2021 2:30:00 PM 10.52 50.936 0.028 6.75 25.34 11
3/26/2021 2:45:00 PM 10.66 51.188 0.028 6.75 29.64 10.98
3/26/2021 3:00:00 PM 10.81 51.458 0.028 6.75 27.56 10.94
3/26/2021 3:15:00 PM 10.86 51.548 0.028 6.75 24.96 10.91
3/26/2021 3:30:00 PM 10.78 51.404 0.028 6.75 27.03 10.9
3/26/2021 3:45:00 PM 10.74 51.332 0.028 6.64 27.89 10.9
3/26/2021 4:00:00 PM 10.7 51.26 0.028 6.74 23.49 10.91
3/26/2021 4:15:00 PM 10.71 51.278 0.028 6.75 24.59 10.91
3/26/2021 4:30:00 PM 10.72 51.296 0.028 6.75 35.2 10.9
3/26/2021 4:45:00 PM 10.71 51.278 0.028 6.75 35.24 10.9
3/26/2021 5:00:00 PM 10.67 51.206 0.028 6.74 33.63 10.91
3/26/2021 5:15:00 PM 10.6 51.08 0.028 6.74 22.31 10.92
3/26/2021 5:30:00 PM 10.55 50.99 0.028 6.74 26.39 10.93
3/26/2021 5:45:00 PM 10.47 50.846 0.028 6.74 27.54 10.95
3/26/2021 6:00:00 PM 10.39 50.702 0.028 6.74 26.14 10.97
3/26/2021 6:15:00 PM 10.28 50.504 0.028 6.74 27.23 11
3/26/2021 6:30:00 PM 10.14 50.252 0.028 6.73 25.82 11.02
3/26/2021 6:45:00 PM 10.02 50.036 0.028 6.72 31.06 11.04
3/26/2021 7:00:00 PM 9.91 49.838 0.029 6.72 36.1 11.07
3/26/2021 7:15:00 PM 9.79 49.622 0.029 6.72 80.86 11.09
3/26/2021 7:30:00 PM 9.7 49.46 0.029 6.71 21.86 11.11
3/26/2021 7:45:00 PM 9.6 49.28 0.029 6.7 23.78 11.13
3/26/2021 8:00:00 PM 9.51 49.118 0.029 6.71 25.18 11.15
3/26/2021 8:15:00 PM 9.43 48.974 0.029 6.71 27.66 11.17
3/26/2021 8:30:00 PM 9.35 48.83 0.029 6.7 30.34 11.2
3/26/2021 8:45:00 PM 9.28 48.704 0.029 6.7 33.46 11.22
3/26/2021 9:00:00 PM 9.21 48.578 0.029 6.7 28.16 11.24
3/26/2021 9:15:00 PM 9.15 48.47 0.029 6.71 40.61 11.26
3/26/2021 9:30:00 PM 9.09 48.362 0.029 6.71 32.01 11.28
3/26/2021 9:45:00 PM 9.03 48.254 0.029 6.7 80.8 11.3
3/26/2021 10:00:00 PM 8.97 48.146 0.029 6.7 25.68 11.32
3/26/2021 10:15:00 PM 8.91 48.038 0.029 6.62 23.98 11.34
3/26/2021 10:30:00 PM 8.86 47.948 0.029 6.7 23.56 11.35
3/26/2021 10:45:00 PM 8.81 47.858 0.029 6.7 26.75 11.37
3/26/2021 11:00:00 PM 8.75 47.75 0.029 6.7 24.28 11.38
3/26/2021 11:15:00 PM 8.7 47.66 0.029 6.69 20.34 11.4
3/26/2021 11:30:00 PM 8.64 47.552 0.029 6.7 32.08 11.42
3/26/2021 11:45:00 PM 8.59 47.462 0.029 6.7 23.83 11.43
3/27/2021 12:00:00 AM 8.52 47.336 0.029 6.7 24.49 11.46
3/27/2021 12:15:00 AM 8.46 47.228 0.029 6.7 24.53 11.48
3/27/2021 12:30:00 AM 8.39 47.102 0.029 6.7 20.53 11.5
3/27/2021 12:45:00 AM 8.32 46.976 0.029 6.71 29.74 11.51
3/27/2021 1:00:00 AM 8.25 46.85 0.029 6.7 35.93 11.54
3/27/2021 1:15:00 AM 8.18 46.724 0.029 6.7 17.16 11.56
3/27/2021 1:30:00 AM 8.11 46.598 0.029 6.7 24.33 11.58
3/27/2021 1:45:00 AM 8.05 46.49 0.029 6.7 37.45 11.59
3/27/2021 2:00:00 AM 7.98 46.364 0.029 6.7 22.18 11.62
3/27/2021 2:15:00 AM 7.93 46.274 0.029 6.7 27.01 11.64
3/27/2021 2:30:00 AM 7.88 46.184 0.029 6.7 28.03 11.65
3/27/2021 2:45:00 AM 7.83 46.094 0.03 6.69 18.95 11.67
3/27/2021 3:00:00 AM 7.78 46.004 0.03 6.7 23.73 11.67
3/27/2021 3:15:00 AM 7.74 45.932 0.03 6.7 41.81 11.7
3/27/2021 3:30:00 AM 7.7 45.86 0.03 6.7 21.35 11.71
3/27/2021 3:45:00 AM 7.66 45.788 0.03 6.68 40.91 11.72
3/27/2021 4:00:00 AM 7.62 45.716 0.03 6.7 25.76 11.73
3/27/2021 4:15:00 AM 7.58 45.644 0.03 6.71 37.05 11.75
3/27/2021 4:30:00 AM 7.55 45.59 0.03 6.7 20.05 11.76
3/27/2021 4:45:00 AM 7.52 45.536 0.03 6.71 26.24 11.77
3/27/2021 5:00:00 AM 7.49 45.482 0.03 6.7 21.26 11.77
3/27/2021 5:15:00 AM 7.46 45.428 0.03 6.7 22.82 11.78
3/27/2021 5:30:00 AM 7.43 45.374 0.03 6.7 22.33 11.8
3/27/2021 5:45:00 AM 7.4 45.32 0.03 6.7 20.12 11.81
3/27/2021 6:00:00 AM 7.37 45.266 0.03 6.7 21.12 11.81
3/27/2021 6:15:00 AM 7.35 45.23 0.03 6.65 33.26 11.82
3/27/2021 6:30:00 AM 7.31 45.158 0.03 6.71 36.83 11.83
3/27/2021 6:45:00 AM 7.28 45.104 0.03 6.7 22.78 11.84
3/27/2021 7:00:00 AM 7.25 45.05 0.03 6.71 22.48 11.85
3/27/2021 7:15:00 AM 7.22 44.996 0.03 6.71 20.22 11.86
3/27/2021 7:30:00 AM 7.2 44.96 0.03 6.71 20.17 11.88
3/27/2021 7:45:00 AM 7.17 44.906 0.03 6.71 20.29 11.9
3/27/2021 8:00:00 AM 7.14 44.852 0.03 6.72 19.95 11.92
3/27/2021 8:15:00 AM 7.13 44.834 0.03 6.72 26.92 11.95
3/27/2021 8:30:00 AM 7.14 44.852 0.03 6.73 19.63 11.97
3/27/2021 8:45:00 AM 7.14 44.852 0.03 6.65 20.01 11.98
3/27/2021 9:00:00 AM 7.17 44.906 0.03 6.74 30.66 12
3/27/2021 9:15:00 AM 7.22 44.996 0.03 6.75 22.21 12.01
3/27/2021 9:30:00 AM 7.26 45.068 0.03 6.76 24.04 12.01
3/27/2021 9:45:00 AM 7.3 45.14 0.03 6.76 20.82 12.01
3/27/2021 10:00:00 AM 7.36 45.248 0.03 6.77 17.96 12
3/27/2021 10:15:00 AM 7.43 45.374 0.03 6.77 21.31 11.99
3/27/2021 10:30:00 AM 7.54 45.572 0.03 6.78 18.78 11.96
3/27/2021 10:45:00 AM 7.64 45.752 0.03 6.78 22.5 11.94
3/27/2021 11:00:00 AM 7.72 45.896 0.03 6.78 20.25 11.91
3/27/2021 11:15:00 AM 7.92 46.256 0.03 6.79 27.41 11.88
3/27/2021 11:30:00 AM 8.06 46.508 0.03 6.79 23.84 11.85
3/27/2021 11:45:00 AM 8.13 46.634 0.03 6.79 24.64 11.84
3/27/2021 12:00:00 PM 8.24 46.832 0.03 6.8 21.69 11.81
3/27/2021 12:15:00 PM 8.36 47.048 0.03 6.8 20.05 11.78
3/27/2021 12:30:00 PM 8.5 47.3 0.03 6.8 21.36 11.76
3/27/2021 12:45:00 PM 8.46 47.228 0.03 6.8 21.85 11.73
3/27/2021 1:00:00 PM 8.64 47.552 0.03 6.8 30.55 11.69
3/27/2021 1:15:00 PM 8.86 47.948 0.031 6.81 18.56 11.64
3/27/2021 1:30:00 PM 8.9 48.02 0.031 6.81 23.52 11.63
3/27/2021 1:45:00 PM 8.96 48.128 0.031 6.81 18.94 11.62
3/27/2021 2:00:00 PM 9.13 48.434 0.031 6.81 36.23 11.56
3/27/2021 2:15:00 PM 9.32 48.776 0.031 6.82 20.19 11.51
3/27/2021 2:30:00 PM 9.48 49.064 0.031 6.82 20.88 11.46
3/27/2021 2:45:00 PM 9.63 49.334 0.031 6.82 26.96 11.41
3/27/2021 3:00:00 PM 9.75 49.55 0.031 6.82 25.81 11.37
3/27/2021 3:15:00 PM 9.86 49.748 0.031 6.83 47.86 11.33
3/27/2021 3:30:00 PM 9.93 49.874 0.031 6.83 28.22 11.29
3/27/2021 3:45:00 PM 9.95 49.91 0.031 6.83 30.59 11.27
3/27/2021 4:00:00 PM 9.97 49.946 0.031 6.83 21.45 11.25
3/27/2021 4:15:00 PM 9.99 49.982 0.031 6.83 22.47 11.23
3/27/2021 4:30:00 PM 10.01 50.018 0.031 6.83 25.74 11.22
3/27/2021 4:45:00 PM 10.03 50.054 0.031 6.84 22.41 11.2
3/27/2021 5:00:00 PM 10.05 50.09 0.031 6.83 24.17 11.18
3/27/2021 5:15:00 PM 10.05 50.09 0.031 6.83 20.41 11.18
3/27/2021 5:30:00 PM 10.03 50.054 0.031 6.83 21.64 11.17
3/27/2021 5:45:00 PM 10.01 50.018 0.031 6.83 21.46 11.16
3/27/2021 6:00:00 PM 9.98 49.964 0.031 6.83 30.11 11.17
3/27/2021 6:15:00 PM 9.93 49.874 0.031 6.82 19.88 11.17
3/27/2021 6:30:00 PM 9.87 49.766 0.031 6.81 22.73 11.17
3/27/2021 6:45:00 PM 9.82 49.676 0.031 6.81 21.45 11.17
3/27/2021 7:00:00 PM 9.75 49.55 0.031 6.8 22.58 11.17
3/27/2021 7:15:00 PM 9.68 49.424 0.031 6.79 20.84 11.17
3/27/2021 7:30:00 PM 9.61 49.298 0.031 6.78 31.36 11.17
3/27/2021 7:45:00 PM 9.53 49.154 0.031 6.77 25.13 11.18
3/27/2021 8:00:00 PM 9.44 48.992 0.031 6.77 24.4 11.19
3/27/2021 8:15:00 PM 9.36 48.848 0.031 6.76 19.73 11.2
3/27/2021 8:30:00 PM 9.27 48.686 0.031 6.76 20.49 11.22
3/27/2021 8:45:00 PM 9.19 48.542 0.031 6.76 21.12 11.24
3/27/2021 9:00:00 PM 9.11 48.398 0.032 6.76 30.63 11.26
3/27/2021 9:15:00 PM 9.03 48.254 0.032 6.75 23.81 11.28
3/27/2021 9:30:00 PM 8.96 48.128 0.032 6.76 27.07 11.29
3/27/2021 9:45:00 PM 8.88 47.984 0.032 6.76 22.47 11.32
3/27/2021 10:00:00 PM 8.81 47.858 0.032 6.76 22.34 11.34
3/27/2021 10:15:00 PM 8.74 47.732 0.032 6.76 30.07 11.36
3/27/2021 10:30:00 PM 8.68 47.624 0.032 6.76 32.37 11.38
3/27/2021 10:45:00 PM 8.61 47.498 0.032 6.76 19.46 11.4
3/27/2021 11:00:00 PM 8.54 47.372 0.032 6.76 23.72 11.41
3/27/2021 11:15:00 PM 8.48 47.264 0.032 6.76 23.84 11.43
3/27/2021 11:30:00 PM 8.42 47.156 0.032 6.75 19.63 11.45
3/27/2021 11:45:00 PM 8.36 47.048 0.032 6.76 22.53 11.46
3/28/2021 12:00:00 AM 8.3 46.94 0.032 6.76 29.78 11.48
3/28/2021 12:15:00 AM 8.25 46.85 0.032 6.75 26.93 11.49
3/28/2021 12:30:00 AM 8.19 46.742 0.032 6.75 18.67 11.51
3/28/2021 12:45:00 AM 8.14 46.652 0.032 6.75 21.73 11.52
3/28/2021 1:00:00 AM 8.09 46.562 0.032 6.75 26.39 11.54
3/28/2021 1:15:00 AM 8.04 46.472 0.032 6.75 32.67 11.54
3/28/2021 1:30:00 AM 7.99 46.382 0.032 6.75 100.03 11.56
3/28/2021 1:45:00 AM 7.94 46.292 0.032 6.76 21.29 11.58
3/28/2021 2:00:00 AM 7.89 46.202 0.032 6.75 22.06 11.58
3/28/2021 2:15:00 AM 7.84 46.112 0.032 6.75 24.67 11.6
3/28/2021 2:30:00 AM 7.79 46.022 0.032 6.75 21.18 11.61
3/28/2021 2:45:00 AM 7.75 45.95 0.032 6.75 30.17 11.61
3/28/2021 3:00:00 AM 7.7 45.86 0.032 6.75 19.8 11.63
3/28/2021 3:15:00 AM 7.66 45.788 0.032 6.76 73.58 11.64
3/28/2021 3:30:00 AM 7.61 45.698 0.032 6.76 51.91 11.64
3/28/2021 3:45:00 AM 7.57 45.626 0.032 6.75 51.63 11.65
3/28/2021 4:00:00 AM 7.53 45.554 0.032 6.76 20.25 11.66
3/28/2021 4:15:00 AM 7.49 45.482 0.032 6.76 20.29 11.68
3/28/2021 4:30:00 AM 7.46 45.428 0.032 6.76 22.05 11.69
3/28/2021 4:45:00 AM 7.44 45.392 0.032 6.76 23.98 11.69
3/28/2021 5:00:00 AM 7.42 45.356 0.032 6.76 22.12 11.7
3/28/2021 5:15:00 AM 7.41 45.338 0.032 6.76 20.09 11.7
3/28/2021 5:30:00 AM 7.41 45.338 0.032 6.76 37.53 11.7
3/28/2021 5:45:00 AM 7.4 45.32 0.033 6.76 32.34 11.7
3/28/2021 6:00:00 AM 7.39 45.302 0.033 6.76 31.32 11.71
3/28/2021 6:15:00 AM 7.38 45.284 0.033 6.76 30.91 11.71
3/28/2021 6:30:00 AM 7.37 45.266 0.033 6.77 23.52 11.71
3/28/2021 6:45:00 AM 7.37 45.266 0.033 6.77 24.74 11.71
3/28/2021 7:00:00 AM 7.36 45.248 0.033 6.77 18.89 11.71
3/28/2021 7:15:00 AM 7.37 45.266 0.033 6.77 30.24 11.7
3/28/2021 7:30:00 AM 7.37 45.266 0.033 6.77 19.2 11.7
3/28/2021 7:45:00 AM 7.38 45.284 0.033 6.78 35.49 11.71
3/28/2021 8:00:00 AM 7.39 45.302 0.033 6.78 24.09 11.71
3/28/2021 8:15:00 AM 7.4 45.32 0.033 6.79 40.27 11.7
3/28/2021 8:30:00 AM 7.41 45.338 0.033 6.79 24 11.71
3/28/2021 8:45:00 AM 7.42 45.356 0.033 6.79 23.14 11.72
3/28/2021 9:00:00 AM 7.43 45.374 0.033 6.8 19.95 11.73
3/28/2021 9:15:00 AM 7.44 45.392 0.033 6.8 20.3 11.73
3/28/2021 9:30:00 AM 7.46 45.428 0.033 6.8 27.97 11.74
3/28/2021 9:45:00 AM 7.48 45.464 0.033 6.81 28.81 11.73
3/28/2021 10:00:00 AM 7.5 45.5 0.033 6.81 29.84 11.72
3/28/2021 10:15:00 AM 7.53 45.554 0.033 6.82 50.52 11.72
3/28/2021 10:30:00 AM 7.56 45.608 0.033 6.82 29.71 11.72
3/28/2021 10:45:00 AM 7.58 45.644 0.033 6.83 42.16 11.72
3/28/2021 11:00:00 AM 7.6 45.68 0.033 6.83 22.2 11.71
3/28/2021 11:15:00 AM 7.63 45.734 0.033 6.84 20.06 11.7
3/28/2021 11:30:00 AM 7.68 45.824 0.034 6.85 19.88 11.69
3/28/2021 11:45:00 AM 7.73 45.914 0.034 6.86 20.28 11.68
3/28/2021 12:00:00 PM 7.79 46.022 0.035 6.87 19.4 11.68
3/28/2021 12:15:00 PM 7.84 46.112 0.035 6.88 19.5 11.65
3/28/2021 12:30:00 PM 7.89 46.202 0.035 6.89 19.28 11.63
3/28/2021 12:45:00 PM 7.94 46.292 0.035 6.9 18.29 11.62
3/28/2021 1:00:00 PM 8.01 46.418 0.036 6.91 18.77 11.62
3/28/2021 1:15:00 PM 8.05 46.49 0.036 6.91 18.1 11.59
3/28/2021 1:30:00 PM 8.13 46.634 0.036 6.92 18.76 11.59
3/28/2021 1:45:00 PM 8.2 46.76 0.036 6.87 18.62 11.57
3/28/2021 2:00:00 PM 8.23 46.814 0.036 6.92 17.97 11.54
3/28/2021 2:15:00 PM 8.27 46.886 0.036 6.93 17.5 11.5
3/28/2021 2:30:00 PM 8.31 46.958 0.036 6.92 19.02 11.48
3/28/2021 2:45:00 PM 8.35 47.03 0.036 6.93 18.25 11.46
3/28/2021 3:00:00 PM 8.38 47.084 0.036 6.92 19.1 11.44
3/28/2021 3:15:00 PM 8.41 47.138 0.036 6.92 19.03 11.42
3/28/2021 3:30:00 PM 8.44 47.192 0.036 6.92 17.84 11.39
3/28/2021 3:45:00 PM 8.47 47.246 0.036 6.91 18.67 11.37
3/28/2021 4:00:00 PM 8.48 47.264 0.036 6.91 19.18 11.36
3/28/2021 4:15:00 PM 8.48 47.264 0.035 6.9 19.86 11.34
3/28/2021 4:30:00 PM 8.49 47.282 0.035 6.9 18.82 11.34
3/28/2021 4:45:00 PM 8.51 47.318 0.035 6.9 19.44 11.33
3/28/2021 5:00:00 PM 8.52 47.336 0.035 6.89 18.87 11.33
3/28/2021 5:15:00 PM 8.57 47.426 0.035 6.89 20.3 11.34
3/28/2021 5:30:00 PM 8.59 47.462 0.035 6.89 21.09 11.34
3/28/2021 5:45:00 PM 8.59 47.462 0.034 6.89 24.73 11.34
3/28/2021 6:00:00 PM 8.57 47.426 0.034 6.89 21.7 11.33
3/28/2021 6:15:00 PM 8.55 47.39 0.034 6.88 21.28 11.33
3/28/2021 6:30:00 PM 8.54 47.372 0.035 6.88 21.13 11.32
3/28/2021 6:45:00 PM 8.54 47.372 0.035 6.88 18.17 11.32
3/28/2021 7:00:00 PM 8.53 47.354 0.035 6.88 22.27 11.32
3/28/2021 7:15:00 PM 8.51 47.318 0.035 6.88 20.17 11.31
3/28/2021 7:30:00 PM 8.49 47.282 0.035 6.87 22.21 11.31
3/28/2021 7:45:00 PM 8.47 47.246 0.035 6.88 20.35 11.31
3/28/2021 8:00:00 PM 8.44 47.192 0.035 6.87 19.14 11.31
3/28/2021 8:15:00 PM 8.4 47.12 0.035 6.87 22.4 11.32
3/28/2021 8:30:00 PM 8.35 47.03 0.035 6.86 21.79 11.33
3/28/2021 8:45:00 PM 8.3 46.94 0.035 6.86 21.44 11.35
3/28/2021 9:00:00 PM 8.26 46.868 0.035 6.86 20.18 11.36
3/28/2021 9:15:00 PM 8.21 46.778 0.035 6.85 24.55 11.38
3/28/2021 9:30:00 PM 8.17 46.706 0.035 6.86 20.66 11.4
3/28/2021 9:45:00 PM 8.11 46.598 0.035 6.85 21.03 11.42
3/28/2021 10:00:00 PM 8.06 46.508 0.034 6.85 19.43 11.43
3/28/2021 10:15:00 PM 8.01 46.418 0.034 6.83 20.67 11.45
3/28/2021 10:30:00 PM 7.95 46.31 0.034 6.84 20.39 11.46
3/28/2021 10:45:00 PM 7.89 46.202 0.034 6.83 22.92 11.49
3/28/2021 11:00:00 PM 7.82 46.076 0.034 6.83 21.94 11.5
3/28/2021 11:15:00 PM 7.76 45.968 0.034 6.83 23.02 11.52
3/28/2021 11:30:00 PM 7.71 45.878 0.034 6.83 23.52 11.55
3/28/2021 11:45:00 PM 7.66 45.788 0.034 6.83 23.46 11.56
3/29/2021 12:00:00 AM 7.62 45.716 0.033 6.82 23.63 11.58
3/29/2021 12:15:00 AM 7.56 45.608 0.033 6.82 21.36 11.6
3/29/2021 12:30:00 AM 7.49 45.482 0.033 6.82 22.51 11.61
3/29/2021 12:45:00 AM 7.43 45.374 0.033 6.82 21.75 11.64
3/29/2021 1:00:00 AM 7.36 45.248 0.033 6.81 21.01 11.66
3/29/2021 1:15:00 AM 7.3 45.14 0.033 6.81 20.49 11.68
3/29/2021 1:30:00 AM 7.25 45.05 0.033 6.81 20.94 11.7
3/29/2021 1:45:00 AM 7.18 44.924 0.033 6.81 20.75 11.71
3/29/2021 2:00:00 AM 7.11 44.798 0.033 6.81 20.24 11.74
3/29/2021 2:15:00 AM 7.03 44.654 0.033 6.81 20.89 11.76
3/29/2021 2:30:00 AM 6.95 44.51 0.033 6.81 19.51 11.79
3/29/2021 2:45:00 AM 6.87 44.366 0.033 6.69 19.32 11.81
3/29/2021 3:00:00 AM 6.82 44.276 0.033 6.8 19.31 11.84
3/29/2021 3:15:00 AM 6.77 44.186 0.033 6.8 20.2 11.86
3/29/2021 3:30:00 AM 6.7 44.06 0.033 6.8 19.5 11.88
3/29/2021 3:45:00 AM 6.64 43.952 0.033 6.8 19.19 11.9
3/29/2021 4:00:00 AM 6.58 43.844 0.033 6.8 19.62 11.93
3/29/2021 4:15:00 AM 6.53 43.754 0.033 6.8 18.97 11.95
3/29/2021 4:30:00 AM 6.47 43.646 0.033 6.8 19.42 11.97
3/29/2021 4:45:00 AM 6.42 43.556 0.033 6.7 17.84 11.98
3/29/2021 5:00:00 AM 6.36 43.448 0.033 6.8 19.16 12
3/29/2021 5:15:00 AM 6.31 43.358 0.033 6.8 19.75 12.02
3/29/2021 5:30:00 AM 6.26 43.268 0.033 6.79 18.08 12.05
3/29/2021 5:45:00 AM 6.2 43.16 0.033 6.79 18.83 12.06
3/29/2021 6:00:00 AM 6.14 43.052 0.033 6.79 19.25 12.08
3/29/2021 6:15:00 AM 6.09 42.962 0.033 6.79 18.47 12.11
3/29/2021 6:30:00 AM 6.03 42.854 0.033 6.79 18.65 12.13
3/29/2021 6:45:00 AM 5.98 42.764 0.033 6.79 20.73 12.15
3/29/2021 7:00:00 AM 5.93 42.674 0.033 6.79 15.92 12.18
3/29/2021 7:15:00 AM 5.88 42.584 0.033 6.79 19.42 12.2
3/29/2021 7:30:00 AM 5.84 42.512 0.033 6.79 18.51 12.23
3/29/2021 7:45:00 AM 5.81 42.458 0.033 6.79 19.47 12.26
3/29/2021 8:00:00 AM 5.78 42.404 0.033 6.79 18.93 12.28
3/29/2021 8:15:00 AM 5.75 42.35 0.033 6.8 18.73 12.31
3/29/2021 8:30:00 AM 5.73 42.314 0.033 6.8 17.2 12.33
3/29/2021 8:45:00 AM 5.72 42.296 0.033 6.8 17.74 12.36
3/29/2021 9:00:00 AM 5.71 42.278 0.033 6.8 17.53 12.37
3/29/2021 9:15:00 AM 5.7 42.26 0.033 6.81 17.47 12.38
3/29/2021 9:30:00 AM 5.68 42.224 0.033 6.81 17.56 12.4
3/29/2021 9:45:00 AM 5.66 42.188 0.033 6.81 17.51 12.41
3/29/2021 10:00:00 AM 5.65 42.17 0.033 6.81 17.15 12.43
3/29/2021 10:15:00 AM 5.65 42.17 0.033 6.81 15.92 12.45
3/29/2021 10:30:00 AM 5.67 42.206 0.033 6.82 16.81 12.47
3/29/2021 10:45:00 AM 5.7 42.26 0.033 6.82 18.52 12.48
3/29/2021 11:00:00 AM 5.73 42.314 0.033 6.82 17.37 12.48
3/29/2021 11:15:00 AM 5.75 42.35 0.033 6.83 16.49 12.49
3/29/2021 11:30:00 AM 5.8 42.44 0.033 6.82 16.98 12.48
3/29/2021 11:45:00 AM 5.86 42.548 0.033 6.83 17.53 12.47
3/29/2021 12:00:00 PM 5.93 42.674 0.033 6.83 16.31 12.46
3/29/2021 12:15:00 PM 6.12 43.016 0.033 6.84 16.09 12.43
3/29/2021 12:30:00 PM 6.27 43.286 0.033 6.83 16.9 12.39
3/29/2021 12:45:00 PM 6.32 43.376 0.033 6.84 16.9 12.37
3/29/2021 1:00:00 PM 6.54 43.772 0.033 6.84 17.21 12.32
3/29/2021 1:15:00 PM 6.76 44.168 0.033 6.84 17.97 12.27
3/29/2021 1:30:00 PM 6.93 44.474 0.033 6.85 17.05 12.23
3/29/2021 1:45:00 PM 7.03 44.654 0.033 6.85 16.89 12.19
3/29/2021 2:00:00 PM 7.19 44.942 0.033 6.85 18.16 12.15
3/29/2021 2:15:00 PM 7.34 45.212 0.033 6.85 16.84 12.1
3/29/2021 2:30:00 PM 7.5 45.5 0.033 6.86 16.05 12.05
3/29/2021 2:45:00 PM 7.62 45.716 0.033 6.85 19.29 12.02
3/29/2021 3:00:00 PM 7.73 45.914 0.033 6.86 15.69 11.97
3/29/2021 3:15:00 PM 7.82 46.076 0.033 6.86 17.5 11.94
3/29/2021 3:30:00 PM 7.91 46.238 0.033 6.86 17.46 11.9
3/29/2021 3:45:00 PM 7.96 46.328 0.033 6.86 17.25 11.88
3/29/2021 4:00:00 PM 8.01 46.418 0.033 6.86 17.87 11.86
3/29/2021 4:15:00 PM 8.05 46.49 0.033 6.86 17.12 11.83
3/29/2021 4:30:00 PM 8.06 46.508 0.033 6.87 15.48 11.81
3/29/2021 4:45:00 PM 8.06 46.508 0.033 6.86 16.17 11.79
3/29/2021 5:00:00 PM 8.06 46.508 0.033 6.86 17.7 11.78
3/29/2021 5:15:00 PM 8.05 46.49 0.033 6.86 16.88 11.78
3/29/2021 5:30:00 PM 8.04 46.472 0.033 6.86 17.86 11.77
3/29/2021 5:45:00 PM 8 46.4 0.033 6.86 16.58 11.75
3/29/2021 6:00:00 PM 7.97 46.346 0.033 6.86 17.9 11.75
3/29/2021 6:15:00 PM 7.93 46.274 0.033 6.85 17.47 11.75
3/29/2021 6:30:00 PM 7.87 46.166 0.033 6.85 17.96 11.76
3/29/2021 6:45:00 PM 7.8 46.04 0.033 6.84 17.9 11.75
3/29/2021 7:00:00 PM 7.72 45.896 0.033 6.84 18.16 11.77
3/29/2021 7:15:00 PM 7.64 45.752 0.033 6.83 18.39 11.77
3/29/2021 7:30:00 PM 7.56 45.608 0.033 6.82 19.5 11.78
3/29/2021 7:45:00 PM 7.47 45.446 0.033 6.82 17.31 11.81
3/29/2021 8:00:00 PM 7.37 45.266 0.033 6.81 17.55 11.82
3/29/2021 8:15:00 PM 7.27 45.086 0.033 6.8 17.18 11.85
3/29/2021 8:30:00 PM 7.17 44.906 0.033 6.8 17.06 11.88
3/29/2021 8:45:00 PM 7.08 44.744 0.033 6.79 18.43 11.9
3/29/2021 9:00:00 PM 6.98 44.564 0.033 6.8 18.16 11.93
3/29/2021 9:15:00 PM 6.89 44.402 0.033 6.79 18.14 11.96
3/29/2021 9:30:00 PM 6.8 44.24 0.033 6.79 18.45 11.99
3/29/2021 9:45:00 PM 6.7 44.06 0.033 6.79 17.63 12.02
3/29/2021 10:00:00 PM 6.61 43.898 0.033 6.79 19.86 12.05
3/29/2021 10:15:00 PM 6.52 43.736 0.033 6.78 18.75 12.08
3/29/2021 10:30:00 PM 6.43 43.574 0.033 6.78 18.06 12.11
3/29/2021 10:45:00 PM 6.34 43.412 0.033 6.78 17.71 12.14
3/29/2021 11:00:00 PM 6.26 43.268 0.033 6.61 18.33 12.17
3/29/2021 11:15:00 PM 6.17 43.106 0.033 6.78 17.07 12.2
3/29/2021 11:30:00 PM 6.09 42.962 0.033 6.77 18.46 12.23
3/29/2021 11:45:00 PM 6.01 42.818 0.033 6.78 18.26 12.25
3/30/2021 12:00:00 AM 5.93 42.674 0.033 6.78 18.02 12.28
3/30/2021 12:15:00 AM 5.86 42.548 0.033 6.78 18.49 12.3
3/30/2021 12:30:00 AM 5.79 42.422 0.033 6.78 17.39 12.32
3/30/2021 12:45:00 AM 5.73 42.314 0.033 6.78 16.2 12.35
3/30/2021 1:00:00 AM 5.66 42.188 0.033 6.77 18.51 12.37
3/30/2021 1:15:00 AM 5.6 42.08 0.033 6.78 17.76 12.39
3/30/2021 1:30:00 AM 5.54 41.972 0.033 6.78 19.42 12.41
3/30/2021 1:45:00 AM 5.48 41.864 0.033 6.77 18.61 12.43
3/30/2021 2:00:00 AM 5.43 41.774 0.033 6.78 18.8 12.44
3/30/2021 2:15:00 AM 5.37 41.666 0.033 6.77 19.02 12.47
3/30/2021 2:30:00 AM 5.32 41.576 0.033 6.78 17.8 12.49
3/30/2021 2:45:00 AM 5.27 41.486 0.033 6.77 19.08 12.5
3/30/2021 3:00:00 AM 5.22 41.396 0.033 6.78 17.05 12.52
3/30/2021 3:15:00 AM 5.18 41.324 0.033 6.77 16.39 12.54
3/30/2021 3:30:00 AM 5.13 41.234 0.033 6.77 18.33 12.55
3/30/2021 3:45:00 AM 5.08 41.144 0.033 6.77 17.44 12.57
3/30/2021 4:00:00 AM 5.04 41.072 0.033 6.77 18.18 12.58
3/30/2021 4:15:00 AM 5 41 0.033 6.77 17.81 12.6
3/30/2021 4:30:00 AM 4.95 40.91 0.033 6.77 18.47 12.62
3/30/2021 4:45:00 AM 4.91 40.838 0.033 6.77 17.45 12.63
3/30/2021 5:00:00 AM 4.86 40.748 0.033 6.77 19.11 12.65
3/30/2021 5:15:00 AM 4.82 40.676 0.033 6.77 18.66 12.67
3/30/2021 5:30:00 AM 4.78 40.604 0.033 6.77 18.83 12.68
3/30/2021 5:45:00 AM 4.73 40.514 0.034 6.77 16.99 12.7
3/30/2021 6:00:00 AM 4.69 40.442 0.033 6.77 20.46 12.71
3/30/2021 6:15:00 AM 4.65 40.37 0.034 6.77 18.65 12.73
3/30/2021 6:30:00 AM 4.61 40.298 0.034 6.77 17.16 12.74
3/30/2021 6:45:00 AM 4.56 40.208 0.034 6.77 16.73 12.77
3/30/2021 7:00:00 AM 4.53 40.154 0.034 6.78 16.89 12.78
3/30/2021 7:15:00 AM 4.49 40.082 0.034 6.78 16.99 12.81
3/30/2021 7:30:00 AM 4.46 40.028 0.034 6.78 17.02 12.84
3/30/2021 7:45:00 AM 4.43 39.974 0.034 6.79 16.72 12.86
3/30/2021 8:00:00 AM 4.4 39.92 0.034 6.79 20.42 12.89
3/30/2021 8:15:00 AM 4.39 39.902 0.034 6.8 19.05 12.92
3/30/2021 8:30:00 AM 4.39 39.902 0.034 6.8 18.54 12.94
3/30/2021 8:45:00 AM 4.4 39.92 0.034 6.8 19.62 12.95
3/30/2021 9:00:00 AM 4.43 39.974 0.034 6.81 18.52 12.96
3/30/2021 9:15:00 AM 4.47 40.046 0.034 6.82 18.71 12.97
3/30/2021 9:30:00 AM 4.54 40.172 0.034 6.82 18.66 12.96
3/30/2021 9:45:00 AM 4.62 40.316 0.034 6.83 16.99 12.95
3/30/2021 10:00:00 AM 4.73 40.514 0.034 6.83 17.73 12.93
3/30/2021 10:15:00 AM 4.86 40.748 0.032 6.66 14.63 12.9
3/30/2021 10:30:00 AM 5.01 41.018 0.034 6.85 17.1 12.87
3/30/2021 10:45:00 AM 5.19 41.342 0.034 6.85 18.71 12.83
3/30/2021 11:00:00 AM 5.38 41.684 0.034 6.86 16.74 12.79
3/30/2021 11:15:00 AM 5.58 42.044 0.034 6.86 19.79 12.73
3/30/2021 11:30:00 AM 5.79 42.422 0.034 6.86 17.61 12.67
3/30/2021 11:45:00 AM 6 42.8 0.034 6.87 16.55 12.62
3/30/2021 12:00:00 PM 6.2 43.16 0.034 6.87 19.92 12.56
3/30/2021 12:15:00 PM 6.4 43.52 0.034 6.87 18.44 12.5
3/30/2021 12:30:00 PM 6.6 43.88 0.034 6.87 17.78 12.45
3/30/2021 12:45:00 PM 6.79 44.222 0.034 6.88 17.25 12.39
3/30/2021 1:00:00 PM 6.98 44.564 0.034 6.88 17.48 12.33
3/30/2021 1:15:00 PM 7.17 44.906 0.034 6.88 17.58 12.27
3/30/2021 1:30:00 PM 7.35 45.23 0.034 6.88 18.25 12.21
3/30/2021 1:45:00 PM 7.54 45.572 0.034 6.89 17.76 12.15
3/30/2021 2:00:00 PM 7.71 45.878 0.034 6.89 16.48 12.1
3/30/2021 2:15:00 PM 7.87 46.166 0.034 6.9 15.72 12.04
3/30/2021 2:30:00 PM 8.04 46.472 0.034 6.9 15.88 11.98
3/30/2021 2:45:00 PM 8.19 46.742 0.034 6.9 15.79 11.93
3/30/2021 3:00:00 PM 8.34 47.012 0.034 6.88 15.7 11.88
3/30/2021 3:15:00 PM 8.47 47.246 0.034 6.83 15.58 11.83
3/30/2021 3:30:00 PM 8.6 47.48 0.034 6.87 19.08 11.77
3/30/2021 3:45:00 PM 8.7 47.66 0.034 6.9 15.21 11.73
3/30/2021 4:00:00 PM 8.8 47.84 0.034 6.9 16.11 11.69
3/30/2021 4:15:00 PM 8.88 47.984 0.034 6.9 16.88 11.65
3/30/2021 4:30:00 PM 8.94 48.092 0.034 6.9 17.4 11.61
3/30/2021 4:45:00 PM 9 48.2 0.034 6.91 17.73 11.58
3/30/2021 5:00:00 PM 9.04 48.272 0.034 6.91 16.24 11.55
3/30/2021 5:15:00 PM 9.07 48.326 0.034 6.91 18.67 11.53
3/30/2021 5:30:00 PM 9.06 48.308 0.034 6.9 17.28 11.5
3/30/2021 5:45:00 PM 9.05 48.29 0.034 6.91 17.32 11.48
3/30/2021 6:00:00 PM 9.05 48.29 0.034 6.9 15.52 11.48
3/30/2021 6:15:00 PM 9.04 48.272 0.034 6.9 16.78 11.45
3/30/2021 6:30:00 PM 8.99 48.182 0.034 6.9 18.02 11.44
3/30/2021 6:45:00 PM 8.95 48.11 0.034 6.89 17.17 11.44
3/30/2021 7:00:00 PM 8.91 48.038 0.034 6.88 17.38 11.43
3/30/2021 7:15:00 PM 8.86 47.948 0.034 6.87 16.97 11.41
3/30/2021 7:30:00 PM 8.79 47.822 0.034 6.87 17.01 11.41
3/30/2021 7:45:00 PM 8.72 47.696 0.034 6.86 16.52 11.42
3/30/2021 8:00:00 PM 8.64 47.552 0.034 6.86 17.32 11.43
3/30/2021 8:15:00 PM 8.56 47.408 0.034 6.85 15.94 11.44
3/30/2021 8:30:00 PM 8.48 47.264 0.034 6.85 16.92 11.46
3/30/2021 8:45:00 PM 8.41 47.138 0.034 6.84 17.19 11.48
3/30/2021 9:00:00 PM 8.34 47.012 0.034 6.84 17.66 11.49
3/30/2021 9:15:00 PM 8.27 46.886 0.034 6.84 15.94 11.52
3/30/2021 9:30:00 PM 8.2 46.76 0.034 6.84 16.54 11.53
3/30/2021 9:45:00 PM 8.13 46.634 0.034 6.84 19.59 11.56
3/30/2021 10:00:00 PM 8.07 46.526 0.034 6.84 17.8 11.58
3/30/2021 10:15:00 PM 8 46.4 0.034 6.83 17.27 11.59
3/30/2021 10:30:00 PM 7.94 46.292 0.034 6.84 17.61 11.63
3/30/2021 10:45:00 PM 7.88 46.184 0.034 6.83 17.35 11.64
3/30/2021 11:00:00 PM 7.82 46.076 0.034 6.83 17.01 11.66
3/30/2021 11:15:00 PM 7.76 45.968 0.034 6.83 17.97 11.68
3/30/2021 11:30:00 PM 7.7 45.86 0.034 6.83 17.72 11.69
3/30/2021 11:45:00 PM 7.65 45.77 0.034 6.83 17.65 11.72
3/31/2021 12:00:00 AM 7.6 45.68 0.034 6.83 17.65 11.72
3/31/2021 12:15:00 AM 7.56 45.608 0.034 6.83 18.21 11.74
3/31/2021 12:30:00 AM 7.51 45.518 0.034 6.83 17.4 11.75
3/31/2021 12:45:00 AM 7.47 45.446 0.034 6.8 17.27 11.76
3/31/2021 1:00:00 AM 7.42 45.356 0.034 6.83 16.25 11.77
3/31/2021 1:15:00 AM 7.38 45.284 0.034 6.83 16.01 11.79
3/31/2021 1:30:00 AM 7.34 45.212 0.034 6.83 16.59 11.8
3/31/2021 1:45:00 AM 7.3 45.14 0.034 6.83 17.46 11.81
3/31/2021 2:00:00 AM 7.26 45.068 0.034 6.82 19.07 11.82
3/31/2021 2:15:00 AM 7.21 44.978 0.034 6.82 17.42 11.83
3/31/2021 2:30:00 AM 7.17 44.906 0.034 6.82 15.81 11.84
3/31/2021 2:45:00 AM 7.13 44.834 0.034 6.82 18.4 11.86
3/31/2021 3:00:00 AM 7.09 44.762 0.034 6.82 17.51 11.86
3/31/2021 3:15:00 AM 7.06 44.708 0.035 6.82 17.09 11.87
3/31/2021 3:30:00 AM 7.02 44.636 0.035 6.82 20.93 11.88
3/31/2021 3:45:00 AM 6.99 44.582 0.035 6.82 16.86 11.88
3/31/2021 4:00:00 AM 6.97 44.546 0.035 6.82 15.69 11.89
3/31/2021 4:15:00 AM 6.95 44.51 0.035 6.82 17.11 11.9
3/31/2021 4:30:00 AM 6.93 44.474 0.035 6.82 19.18 11.9
3/31/2021 4:45:00 AM 6.91 44.438 0.035 6.82 19.93 11.9
3/31/2021 5:00:00 AM 6.89 44.402 0.035 6.82 17.89 11.91
3/31/2021 5:15:00 AM 6.88 44.384 0.035 6.82 18.55 11.91
3/31/2021 5:30:00 AM 6.86 44.348 0.035 6.82 17.77 11.92
3/31/2021 5:45:00 AM 6.84 44.312 0.035 6.82 18.49 11.92
3/31/2021 6:00:00 AM 6.81 44.258 0.035 6.82 16.91 11.93
3/31/2021 6:15:00 AM 6.79 44.222 0.035 6.82 18.41 11.93
3/31/2021 6:30:00 AM 6.77 44.186 0.035 6.82 18.44 11.94
3/31/2021 6:45:00 AM 6.75 44.15 0.035 6.82 17.58 11.95
3/31/2021 7:00:00 AM 6.74 44.132 0.035 6.82 17.54 11.95
3/31/2021 7:15:00 AM 6.72 44.096 0.035 6.82 18.24 11.97
3/31/2021 7:30:00 AM 6.71 44.078 0.035 6.83 17.01 11.99
3/31/2021 7:45:00 AM 6.71 44.078 0.035 6.83 16.65 12.01
3/31/2021 8:00:00 AM 6.7 44.06 0.035 6.84 15.78 12.03
3/31/2021 8:15:00 AM 6.71 44.078 0.035 6.84 15.94 12.06
3/31/2021 8:30:00 AM 6.72 44.096 0.035 6.85 14.85 12.07
3/31/2021 8:45:00 AM 6.75 44.15 0.035 6.86 14.73 12.09
3/31/2021 9:00:00 AM 6.78 44.204 0.035 6.87 16.56 12.11
3/31/2021 9:15:00 AM 6.82 44.276 0.035 6.87 15.11 12.12
3/31/2021 9:30:00 AM 6.86 44.348 0.035 6.88 14.99 12.12
3/31/2021 9:45:00 AM 6.91 44.438 0.035 6.89 14.37 12.11
3/31/2021 10:00:00 AM 6.98 44.564 0.035 6.89 15.77 12.11
3/31/2021 10:15:00 AM 7.07 44.726 0.035 6.9 17.09 12.09
3/31/2021 10:30:00 AM 7.17 44.906 0.035 6.91 15.81 12.07
3/31/2021 10:45:00 AM 7.25 45.05 0.035 6.91 14.6 12.05
3/31/2021 11:00:00 AM 7.32 45.176 0.035 6.91 14.74 12.03
3/31/2021 11:15:00 AM 7.39 45.302